<?xml version="1.0" encoding="UTF-8" standalone="no" ?>
<gpx xmlns="http://www.topografix.com/GPX/1/1" xmlns:xsi="http://www.w3.org/2001/XMLSchema-instance" xsi:schemaLocation="http://www.topografix.com/GPX/1/1 http://www.topografix.com/GPX/1/1/gpx.xsd" version="1.1" creator="VisuGPX - https://www.visugpx.com">
  <metadata>
    <name>Moléon Barrousse Esbareich Cap de Pouy de Hourmigué</name>
    <desc><![CDATA[le 11 Août 2015  avec Gunther et Michel Labal
  9 participants un très beau temps
Après un petit faux départ on trouve la bonne croix...près de l\'aire de Picnik
 on avait perdu le Nord
La montée hors piste vers la cabanne de Bordes de Pouy n\'est pas simple
Casse croute et on reprend pour aller au but Cap de Pouy de Hourmigué
 le retour apres quelques contradictions n\'est pas évident
On apprécie la modernité

Michel]]></desc>
  </metadata>
  <trk>
    <name><![CDATA[2015-08-11 Moléon Esbareich Cap de Pouy]]></name>
    <desc><![CDATA[<h1>OruxMaps</h1><br /><hr align="center" width="480" style="height: 2px; width: 517px"/><h2>Nom: 2015-08-11 Moléon Esbareich Cap de Pouy</h2><br /><p>Temps de départ: 08/11/2015 08:05</p><p>Temps d'arrivée: 08/11/2015 17:41</p><p>Distance: 15,8km (09:36)</p><p>Temps déplacement: 04:18</p><p>Vitesse moyenne: 1,6km/h</p><p>Vitesse moyenne: 3,7km/h</p><p>Vitess Max.: 27,1km/h</p><p>Altitude minimale: 756m</p><p>Altitude maximale: 1682m</p><p>Vitesse d'élévation: 287m/h</p><p>Vitesse de descente: -374,1m/h</p><p>Gain Altitude: 1379m</p><p>Perte Altitude: -1384m</p><p>Temps d'élévation: 04:48</p><p>Temps de descente: 03:41</p><hr align="center" width="480" style="height: 2px; width: 517px"/>]]></desc>
    <trkseg>
      <trkpt lat="42.94391" lon="0.55494">
        <ele>770.27</ele>
        <time>2015-08-11T06:05:54Z</time>
      </trkpt>
      <trkpt lat="42.94385" lon="0.55511">
        <ele>773.61</ele>
        <time>2015-08-11T06:06:12Z</time>
      </trkpt>
      <trkpt lat="42.94387" lon="0.55523">
        <ele>766.91</ele>
        <time>2015-08-11T06:06:18Z</time>
      </trkpt>
      <trkpt lat="42.94387" lon="0.55536">
        <ele>764.74</ele>
        <time>2015-08-11T06:06:30Z</time>
      </trkpt>
      <trkpt lat="42.94389" lon="0.55549">
        <ele>764.16</ele>
        <time>2015-08-11T06:06:42Z</time>
      </trkpt>
      <trkpt lat="42.94393" lon="0.5556">
        <ele>763.41</ele>
        <time>2015-08-11T06:06:50Z</time>
      </trkpt>
      <trkpt lat="42.94397" lon="0.55573">
        <ele>763.97</ele>
        <time>2015-08-11T06:06:57Z</time>
      </trkpt>
      <trkpt lat="42.944" lon="0.55585">
        <ele>761.37</ele>
        <time>2015-08-11T06:07:06Z</time>
      </trkpt>
      <trkpt lat="42.94406" lon="0.55596">
        <ele>759.42</ele>
        <time>2015-08-11T06:07:14Z</time>
      </trkpt>
      <trkpt lat="42.94411" lon="0.55607">
        <ele>763.65</ele>
        <time>2015-08-11T06:07:22Z</time>
      </trkpt>
      <trkpt lat="42.94418" lon="0.55617">
        <ele>756.92</ele>
        <time>2015-08-11T06:07:30Z</time>
      </trkpt>
      <trkpt lat="42.94423" lon="0.55628">
        <ele>759.65</ele>
        <time>2015-08-11T06:07:38Z</time>
      </trkpt>
      <trkpt lat="42.94429" lon="0.55639">
        <ele>760.01</ele>
        <time>2015-08-11T06:07:47Z</time>
      </trkpt>
      <trkpt lat="42.94433" lon="0.55652">
        <ele>762.49</ele>
        <time>2015-08-11T06:07:54Z</time>
      </trkpt>
      <trkpt lat="42.94439" lon="0.55662">
        <ele>761.54</ele>
        <time>2015-08-11T06:08:03Z</time>
      </trkpt>
      <trkpt lat="42.94442" lon="0.55674">
        <ele>763.24</ele>
        <time>2015-08-11T06:08:11Z</time>
      </trkpt>
      <trkpt lat="42.94443" lon="0.55687">
        <ele>761.71</ele>
        <time>2015-08-11T06:08:23Z</time>
      </trkpt>
      <trkpt lat="42.94441" lon="0.55699">
        <ele>762.1</ele>
        <time>2015-08-11T06:08:35Z</time>
      </trkpt>
      <trkpt lat="42.94446" lon="0.55709">
        <ele>762.58</ele>
        <time>2015-08-11T06:08:54Z</time>
      </trkpt>
      <trkpt lat="42.94447" lon="0.55723">
        <ele>762.52</ele>
        <time>2015-08-11T06:09:32Z</time>
      </trkpt>
      <trkpt lat="42.94449" lon="0.55735">
        <ele>762.64</ele>
        <time>2015-08-11T06:09:40Z</time>
      </trkpt>
      <trkpt lat="42.94456" lon="0.55745">
        <ele>758.4</ele>
        <time>2015-08-11T06:09:52Z</time>
      </trkpt>
      <trkpt lat="42.94448" lon="0.55739">
        <ele>764.93</ele>
        <time>2015-08-11T06:11:17Z</time>
      </trkpt>
      <trkpt lat="42.94446" lon="0.55726">
        <ele>765.75</ele>
        <time>2015-08-11T06:11:26Z</time>
      </trkpt>
      <trkpt lat="42.94443" lon="0.55713">
        <ele>766.41</ele>
        <time>2015-08-11T06:11:39Z</time>
      </trkpt>
      <trkpt lat="42.94434" lon="0.55709">
        <ele>763.46</ele>
        <time>2015-08-11T06:11:46Z</time>
      </trkpt>
      <trkpt lat="42.94426" lon="0.55714">
        <ele>763.86</ele>
        <time>2015-08-11T06:11:55Z</time>
      </trkpt>
      <trkpt lat="42.94418" lon="0.5572">
        <ele>763.24</ele>
        <time>2015-08-11T06:12:05Z</time>
      </trkpt>
      <trkpt lat="42.94408" lon="0.55718">
        <ele>763.77</ele>
        <time>2015-08-11T06:12:13Z</time>
      </trkpt>
      <trkpt lat="42.94399" lon="0.55715">
        <ele>768.93</ele>
        <time>2015-08-11T06:12:21Z</time>
      </trkpt>
      <trkpt lat="42.9439" lon="0.55713">
        <ele>770.45</ele>
        <time>2015-08-11T06:12:29Z</time>
      </trkpt>
      <trkpt lat="42.94381" lon="0.55709">
        <ele>771.14</ele>
        <time>2015-08-11T06:12:37Z</time>
      </trkpt>
      <trkpt lat="42.94372" lon="0.55705">
        <ele>770.61</ele>
        <time>2015-08-11T06:12:44Z</time>
      </trkpt>
      <trkpt lat="42.94362" lon="0.55702">
        <ele>773.11</ele>
        <time>2015-08-11T06:12:52Z</time>
      </trkpt>
      <trkpt lat="42.94353" lon="0.55698">
        <ele>773.77</ele>
        <time>2015-08-11T06:13:00Z</time>
      </trkpt>
      <trkpt lat="42.94344" lon="0.55693">
        <ele>776.19</ele>
        <time>2015-08-11T06:13:08Z</time>
      </trkpt>
      <trkpt lat="42.94335" lon="0.55689">
        <ele>777.59</ele>
        <time>2015-08-11T06:13:18Z</time>
      </trkpt>
      <trkpt lat="42.94326" lon="0.55683">
        <ele>776.57</ele>
        <time>2015-08-11T06:13:26Z</time>
      </trkpt>
      <trkpt lat="42.94317" lon="0.55678">
        <ele>776.07</ele>
        <time>2015-08-11T06:13:34Z</time>
      </trkpt>
      <trkpt lat="42.94308" lon="0.55673">
        <ele>775.77</ele>
        <time>2015-08-11T06:13:43Z</time>
      </trkpt>
      <trkpt lat="42.94299" lon="0.55673">
        <ele>775.22</ele>
        <time>2015-08-11T06:13:54Z</time>
      </trkpt>
      <trkpt lat="42.94291" lon="0.55681">
        <ele>778.12</ele>
        <time>2015-08-11T06:14:05Z</time>
      </trkpt>
      <trkpt lat="42.94283" lon="0.55689">
        <ele>779.54</ele>
        <time>2015-08-11T06:14:15Z</time>
      </trkpt>
      <trkpt lat="42.94274" lon="0.55693">
        <ele>782.52</ele>
        <time>2015-08-11T06:14:28Z</time>
      </trkpt>
      <trkpt lat="42.94263" lon="0.55689">
        <ele>787.2</ele>
        <time>2015-08-11T06:15:00Z</time>
      </trkpt>
      <trkpt lat="42.94256" lon="0.55682">
        <ele>788.06</ele>
        <time>2015-08-11T06:15:10Z</time>
      </trkpt>
      <trkpt lat="42.94249" lon="0.55674">
        <ele>788.76</ele>
        <time>2015-08-11T06:15:20Z</time>
      </trkpt>
      <trkpt lat="42.94241" lon="0.55666">
        <ele>790.38</ele>
        <time>2015-08-11T06:15:27Z</time>
      </trkpt>
      <trkpt lat="42.94236" lon="0.55656">
        <ele>793.35</ele>
        <time>2015-08-11T06:15:43Z</time>
      </trkpt>
      <trkpt lat="42.94228" lon="0.55649">
        <ele>790.25</ele>
        <time>2015-08-11T06:15:56Z</time>
      </trkpt>
      <trkpt lat="42.9422" lon="0.5564">
        <ele>795.16</ele>
        <time>2015-08-11T06:16:09Z</time>
      </trkpt>
      <trkpt lat="42.94213" lon="0.55632">
        <ele>795.45</ele>
        <time>2015-08-11T06:16:17Z</time>
      </trkpt>
      <trkpt lat="42.94206" lon="0.55622">
        <ele>796.69</ele>
        <time>2015-08-11T06:16:29Z</time>
      </trkpt>
      <trkpt lat="42.94198" lon="0.55615">
        <ele>795.4</ele>
        <time>2015-08-11T06:16:37Z</time>
      </trkpt>
      <trkpt lat="42.94192" lon="0.55605">
        <ele>798.73</ele>
        <time>2015-08-11T06:16:47Z</time>
      </trkpt>
      <trkpt lat="42.94186" lon="0.55596">
        <ele>795.54</ele>
        <time>2015-08-11T06:16:57Z</time>
      </trkpt>
      <trkpt lat="42.94188" lon="0.5558">
        <ele>800.91</ele>
        <time>2015-08-11T06:17:24Z</time>
      </trkpt>
      <trkpt lat="42.94186" lon="0.55567">
        <ele>802.83</ele>
        <time>2015-08-11T06:17:33Z</time>
      </trkpt>
      <trkpt lat="42.94184" lon="0.55554">
        <ele>805.22</ele>
        <time>2015-08-11T06:17:44Z</time>
      </trkpt>
      <trkpt lat="42.94184" lon="0.55541">
        <ele>800.02</ele>
        <time>2015-08-11T06:18:20Z</time>
      </trkpt>
      <trkpt lat="42.94189" lon="0.55531">
        <ele>802.99</ele>
        <time>2015-08-11T06:18:33Z</time>
      </trkpt>
      <trkpt lat="42.94193" lon="0.55519">
        <ele>805.76</ele>
        <time>2015-08-11T06:18:44Z</time>
      </trkpt>
      <trkpt lat="42.94193" lon="0.55506">
        <ele>800.72</ele>
        <time>2015-08-11T06:18:58Z</time>
      </trkpt>
      <trkpt lat="42.94198" lon="0.55494">
        <ele>802.44</ele>
        <time>2015-08-11T06:19:09Z</time>
      </trkpt>
      <trkpt lat="42.94203" lon="0.55484">
        <ele>803.17</ele>
        <time>2015-08-11T06:19:23Z</time>
      </trkpt>
      <trkpt lat="42.9421" lon="0.55476">
        <ele>804.56</ele>
        <time>2015-08-11T06:19:33Z</time>
      </trkpt>
      <trkpt lat="42.94219" lon="0.55471">
        <ele>809.15</ele>
        <time>2015-08-11T06:19:41Z</time>
      </trkpt>
      <trkpt lat="42.94227" lon="0.55464">
        <ele>803.82</ele>
        <time>2015-08-11T06:19:51Z</time>
      </trkpt>
      <trkpt lat="42.94235" lon="0.55457">
        <ele>800.33</ele>
        <time>2015-08-11T06:20:11Z</time>
      </trkpt>
      <trkpt lat="42.94244" lon="0.55456">
        <ele>797.71</ele>
        <time>2015-08-11T06:20:21Z</time>
      </trkpt>
      <trkpt lat="42.94252" lon="0.55449">
        <ele>800.79</ele>
        <time>2015-08-11T06:20:30Z</time>
      </trkpt>
      <trkpt lat="42.94259" lon="0.5544">
        <ele>800.16</ele>
        <time>2015-08-11T06:20:39Z</time>
      </trkpt>
      <trkpt lat="42.94264" lon="0.55429">
        <ele>798.26</ele>
        <time>2015-08-11T06:20:47Z</time>
      </trkpt>
      <trkpt lat="42.94269" lon="0.55417">
        <ele>798.85</ele>
        <time>2015-08-11T06:20:54Z</time>
      </trkpt>
      <trkpt lat="42.94275" lon="0.55408">
        <ele>801.41</ele>
        <time>2015-08-11T06:21:02Z</time>
      </trkpt>
      <trkpt lat="42.9428" lon="0.55397">
        <ele>797.62</ele>
        <time>2015-08-11T06:21:12Z</time>
      </trkpt>
      <trkpt lat="42.94287" lon="0.55389">
        <ele>801.24</ele>
        <time>2015-08-11T06:21:20Z</time>
      </trkpt>
      <trkpt lat="42.94293" lon="0.55378">
        <ele>803.11</ele>
        <time>2015-08-11T06:21:28Z</time>
      </trkpt>
      <trkpt lat="42.943" lon="0.55368">
        <ele>803.76</ele>
        <time>2015-08-11T06:21:40Z</time>
      </trkpt>
      <trkpt lat="42.94307" lon="0.55359">
        <ele>805.66</ele>
        <time>2015-08-11T06:21:48Z</time>
      </trkpt>
      <trkpt lat="42.94315" lon="0.55351">
        <ele>804.43</ele>
        <time>2015-08-11T06:22:00Z</time>
      </trkpt>
      <trkpt lat="42.94324" lon="0.55345">
        <ele>806.32</ele>
        <time>2015-08-11T06:22:07Z</time>
      </trkpt>
      <trkpt lat="42.94333" lon="0.55341">
        <ele>807.47</ele>
        <time>2015-08-11T06:22:16Z</time>
      </trkpt>
      <trkpt lat="42.94341" lon="0.55334">
        <ele>806.36</ele>
        <time>2015-08-11T06:22:26Z</time>
      </trkpt>
      <trkpt lat="42.94345" lon="0.55323">
        <ele>806.01</ele>
        <time>2015-08-11T06:22:39Z</time>
      </trkpt>
      <trkpt lat="42.94355" lon="0.55317">
        <ele>812.27</ele>
        <time>2015-08-11T06:23:00Z</time>
      </trkpt>
      <trkpt lat="42.94363" lon="0.55309">
        <ele>812.73</ele>
        <time>2015-08-11T06:23:07Z</time>
      </trkpt>
      <trkpt lat="42.94368" lon="0.55299">
        <ele>809.16</ele>
        <time>2015-08-11T06:23:16Z</time>
      </trkpt>
      <trkpt lat="42.94373" lon="0.55288">
        <ele>808.73</ele>
        <time>2015-08-11T06:23:25Z</time>
      </trkpt>
      <trkpt lat="42.94381" lon="0.55281">
        <ele>811.54</ele>
        <time>2015-08-11T06:23:34Z</time>
      </trkpt>
      <trkpt lat="42.94389" lon="0.55275">
        <ele>815.65</ele>
        <time>2015-08-11T06:23:44Z</time>
      </trkpt>
      <trkpt lat="42.94398" lon="0.55269">
        <ele>817.74</ele>
        <time>2015-08-11T06:23:55Z</time>
      </trkpt>
      <trkpt lat="42.94407" lon="0.55264">
        <ele>819.92</ele>
        <time>2015-08-11T06:24:10Z</time>
      </trkpt>
      <trkpt lat="42.94413" lon="0.55255">
        <ele>818.22</ele>
        <time>2015-08-11T06:24:23Z</time>
      </trkpt>
      <trkpt lat="42.94421" lon="0.55248">
        <ele>818.57</ele>
        <time>2015-08-11T06:24:35Z</time>
      </trkpt>
      <trkpt lat="42.9443" lon="0.55251">
        <ele>820.73</ele>
        <time>2015-08-11T06:24:49Z</time>
      </trkpt>
      <trkpt lat="42.94436" lon="0.55241">
        <ele>822.7</ele>
        <time>2015-08-11T06:25:00Z</time>
      </trkpt>
      <trkpt lat="42.94443" lon="0.55233">
        <ele>824.75</ele>
        <time>2015-08-11T06:25:12Z</time>
      </trkpt>
      <trkpt lat="42.94451" lon="0.55227">
        <ele>820.28</ele>
        <time>2015-08-11T06:25:23Z</time>
      </trkpt>
      <trkpt lat="42.94454" lon="0.55214">
        <ele>819.55</ele>
        <time>2015-08-11T06:25:29Z</time>
      </trkpt>
      <trkpt lat="42.94463" lon="0.55211">
        <ele>826.56</ele>
        <time>2015-08-11T06:25:42Z</time>
      </trkpt>
      <trkpt lat="42.94472" lon="0.55206">
        <ele>833.98</ele>
        <time>2015-08-11T06:25:56Z</time>
      </trkpt>
      <trkpt lat="42.94473" lon="0.55204">
        <ele>833.27</ele>
        <time>2015-08-11T06:27:08Z</time>
      </trkpt>
      <trkpt lat="42.94475" lon="0.55217">
        <ele>842.96</ele>
        <time>2015-08-11T06:35:53Z</time>
      </trkpt>
      <trkpt lat="42.94466" lon="0.55218">
        <ele>837.04</ele>
        <time>2015-08-11T06:37:53Z</time>
      </trkpt>
      <trkpt lat="42.94456" lon="0.55224">
        <ele>834.52</ele>
        <time>2015-08-11T06:38:14Z</time>
      </trkpt>
      <trkpt lat="42.94448" lon="0.5523">
        <ele>833.05</ele>
        <time>2015-08-11T06:38:17Z</time>
      </trkpt>
      <trkpt lat="42.94438" lon="0.55234">
        <ele>831.07</ele>
        <time>2015-08-11T06:38:21Z</time>
      </trkpt>
      <trkpt lat="42.9443" lon="0.55241">
        <ele>828.87</ele>
        <time>2015-08-11T06:38:27Z</time>
      </trkpt>
      <trkpt lat="42.94422" lon="0.55248">
        <ele>827.92</ele>
        <time>2015-08-11T06:38:33Z</time>
      </trkpt>
      <trkpt lat="42.94415" lon="0.55256">
        <ele>824.77</ele>
        <time>2015-08-11T06:38:40Z</time>
      </trkpt>
      <trkpt lat="42.94405" lon="0.5526">
        <ele>825.57</ele>
        <time>2015-08-11T06:38:50Z</time>
      </trkpt>
      <trkpt lat="42.94398" lon="0.55267">
        <ele>822.82</ele>
        <time>2015-08-11T06:38:58Z</time>
      </trkpt>
      <trkpt lat="42.9439" lon="0.55274">
        <ele>820.27</ele>
        <time>2015-08-11T06:39:24Z</time>
      </trkpt>
      <trkpt lat="42.94383" lon="0.55281">
        <ele>818.25</ele>
        <time>2015-08-11T06:39:30Z</time>
      </trkpt>
      <trkpt lat="42.94374" lon="0.55288">
        <ele>817.45</ele>
        <time>2015-08-11T06:39:36Z</time>
      </trkpt>
      <trkpt lat="42.94368" lon="0.55297">
        <ele>818.34</ele>
        <time>2015-08-11T06:39:41Z</time>
      </trkpt>
      <trkpt lat="42.9436" lon="0.55305">
        <ele>813.46</ele>
        <time>2015-08-11T06:39:48Z</time>
      </trkpt>
      <trkpt lat="42.94353" lon="0.55316">
        <ele>815.04</ele>
        <time>2015-08-11T06:39:57Z</time>
      </trkpt>
      <trkpt lat="42.94344" lon="0.55319">
        <ele>811.28</ele>
        <time>2015-08-11T06:40:12Z</time>
      </trkpt>
      <trkpt lat="42.94336" lon="0.55326">
        <ele>808.2</ele>
        <time>2015-08-11T06:40:28Z</time>
      </trkpt>
      <trkpt lat="42.94328" lon="0.55334">
        <ele>806.5</ele>
        <time>2015-08-11T06:40:30Z</time>
      </trkpt>
      <trkpt lat="42.9432" lon="0.55342">
        <ele>804.33</ele>
        <time>2015-08-11T06:40:32Z</time>
      </trkpt>
      <trkpt lat="42.94313" lon="0.55351">
        <ele>806.02</ele>
        <time>2015-08-11T06:40:37Z</time>
      </trkpt>
      <trkpt lat="42.94308" lon="0.55361">
        <ele>808.09</ele>
        <time>2015-08-11T06:40:44Z</time>
      </trkpt>
      <trkpt lat="42.94299" lon="0.55365">
        <ele>807.08</ele>
        <time>2015-08-11T06:40:52Z</time>
      </trkpt>
      <trkpt lat="42.94293" lon="0.55375">
        <ele>809.08</ele>
        <time>2015-08-11T06:40:58Z</time>
      </trkpt>
      <trkpt lat="42.94286" lon="0.55384">
        <ele>807.91</ele>
        <time>2015-08-11T06:41:05Z</time>
      </trkpt>
      <trkpt lat="42.94278" lon="0.55391">
        <ele>804.27</ele>
        <time>2015-08-11T06:41:14Z</time>
      </trkpt>
      <trkpt lat="42.94272" lon="0.55402">
        <ele>800.2</ele>
        <time>2015-08-11T06:41:38Z</time>
      </trkpt>
      <trkpt lat="42.94265" lon="0.55411">
        <ele>800.36</ele>
        <time>2015-08-11T06:41:44Z</time>
      </trkpt>
      <trkpt lat="42.94259" lon="0.55421">
        <ele>802.58</ele>
        <time>2015-08-11T06:41:50Z</time>
      </trkpt>
      <trkpt lat="42.94252" lon="0.5543">
        <ele>800.96</ele>
        <time>2015-08-11T06:41:57Z</time>
      </trkpt>
      <trkpt lat="42.94245" lon="0.55439">
        <ele>801.73</ele>
        <time>2015-08-11T06:42:03Z</time>
      </trkpt>
      <trkpt lat="42.94238" lon="0.55447">
        <ele>800.64</ele>
        <time>2015-08-11T06:42:10Z</time>
      </trkpt>
      <trkpt lat="42.94229" lon="0.55453">
        <ele>803.94</ele>
        <time>2015-08-11T06:42:20Z</time>
      </trkpt>
      <trkpt lat="42.9422" lon="0.55457">
        <ele>800.04</ele>
        <time>2015-08-11T06:42:25Z</time>
      </trkpt>
      <trkpt lat="42.94213" lon="0.55466">
        <ele>802.21</ele>
        <time>2015-08-11T06:42:36Z</time>
      </trkpt>
      <trkpt lat="42.94205" lon="0.55478">
        <ele>802.93</ele>
        <time>2015-08-11T06:42:45Z</time>
      </trkpt>
      <trkpt lat="42.94197" lon="0.55487">
        <ele>802.98</ele>
        <time>2015-08-11T06:42:50Z</time>
      </trkpt>
      <trkpt lat="42.94189" lon="0.55497">
        <ele>800.52</ele>
        <time>2015-08-11T06:43:01Z</time>
      </trkpt>
      <trkpt lat="42.94184" lon="0.55507">
        <ele>801.03</ele>
        <time>2015-08-11T06:43:10Z</time>
      </trkpt>
      <trkpt lat="42.94181" lon="0.5552">
        <ele>804.2</ele>
        <time>2015-08-11T06:43:22Z</time>
      </trkpt>
      <trkpt lat="42.94177" lon="0.55531">
        <ele>798.61</ele>
        <time>2015-08-11T06:43:33Z</time>
      </trkpt>
      <trkpt lat="42.94172" lon="0.55543">
        <ele>802.98</ele>
        <time>2015-08-11T06:43:42Z</time>
      </trkpt>
      <trkpt lat="42.94172" lon="0.55555">
        <ele>801.77</ele>
        <time>2015-08-11T06:43:52Z</time>
      </trkpt>
      <trkpt lat="42.94175" lon="0.55569">
        <ele>800.25</ele>
        <time>2015-08-11T06:44:00Z</time>
      </trkpt>
      <trkpt lat="42.94176" lon="0.55583">
        <ele>799.06</ele>
        <time>2015-08-11T06:44:06Z</time>
      </trkpt>
      <trkpt lat="42.94181" lon="0.55594">
        <ele>795.99</ele>
        <time>2015-08-11T06:44:14Z</time>
      </trkpt>
      <trkpt lat="42.94186" lon="0.55605">
        <ele>793.14</ele>
        <time>2015-08-11T06:44:31Z</time>
      </trkpt>
      <trkpt lat="42.94195" lon="0.55611">
        <ele>792.33</ele>
        <time>2015-08-11T06:44:36Z</time>
      </trkpt>
      <trkpt lat="42.94204" lon="0.55617">
        <ele>791.17</ele>
        <time>2015-08-11T06:44:42Z</time>
      </trkpt>
      <trkpt lat="42.9421" lon="0.55628">
        <ele>791.95</ele>
        <time>2015-08-11T06:44:48Z</time>
      </trkpt>
      <trkpt lat="42.94218" lon="0.55636">
        <ele>792.99</ele>
        <time>2015-08-11T06:44:56Z</time>
      </trkpt>
      <trkpt lat="42.94227" lon="0.55642">
        <ele>795.28</ele>
        <time>2015-08-11T06:45:04Z</time>
      </trkpt>
      <trkpt lat="42.94233" lon="0.55652">
        <ele>791.62</ele>
        <time>2015-08-11T06:45:12Z</time>
      </trkpt>
      <trkpt lat="42.94241" lon="0.55658">
        <ele>791.29</ele>
        <time>2015-08-11T06:45:23Z</time>
      </trkpt>
      <trkpt lat="42.94247" lon="0.55668">
        <ele>792.37</ele>
        <time>2015-08-11T06:45:33Z</time>
      </trkpt>
      <trkpt lat="42.94254" lon="0.55677">
        <ele>788.79</ele>
        <time>2015-08-11T06:45:41Z</time>
      </trkpt>
      <trkpt lat="42.94256" lon="0.5569">
        <ele>784.2</ele>
        <time>2015-08-11T06:45:53Z</time>
      </trkpt>
      <trkpt lat="42.94266" lon="0.55696">
        <ele>782.06</ele>
        <time>2015-08-11T06:46:03Z</time>
      </trkpt>
      <trkpt lat="42.94275" lon="0.5569">
        <ele>779.66</ele>
        <time>2015-08-11T06:46:10Z</time>
      </trkpt>
      <trkpt lat="42.94284" lon="0.55686">
        <ele>779.46</ele>
        <time>2015-08-11T06:46:18Z</time>
      </trkpt>
      <trkpt lat="42.94292" lon="0.55681">
        <ele>780.16</ele>
        <time>2015-08-11T06:46:25Z</time>
      </trkpt>
      <trkpt lat="42.94301" lon="0.55675">
        <ele>781.31</ele>
        <time>2015-08-11T06:46:32Z</time>
      </trkpt>
      <trkpt lat="42.9431" lon="0.55676">
        <ele>783.42</ele>
        <time>2015-08-11T06:46:40Z</time>
      </trkpt>
      <trkpt lat="42.94318" lon="0.55682">
        <ele>783</ele>
        <time>2015-08-11T06:46:47Z</time>
      </trkpt>
      <trkpt lat="42.94328" lon="0.55686">
        <ele>780.73</ele>
        <time>2015-08-11T06:46:56Z</time>
      </trkpt>
      <trkpt lat="42.94335" lon="0.55693">
        <ele>780.26</ele>
        <time>2015-08-11T06:47:05Z</time>
      </trkpt>
      <trkpt lat="42.94342" lon="0.55702">
        <ele>782.98</ele>
        <time>2015-08-11T06:47:13Z</time>
      </trkpt>
      <trkpt lat="42.94347" lon="0.55714">
        <ele>781.76</ele>
        <time>2015-08-11T06:47:18Z</time>
      </trkpt>
      <trkpt lat="42.94355" lon="0.5572">
        <ele>781.52</ele>
        <time>2015-08-11T06:47:25Z</time>
      </trkpt>
      <trkpt lat="42.94365" lon="0.55717">
        <ele>778.34</ele>
        <time>2015-08-11T06:47:33Z</time>
      </trkpt>
      <trkpt lat="42.94375" lon="0.55712">
        <ele>776.78</ele>
        <time>2015-08-11T06:47:40Z</time>
      </trkpt>
      <trkpt lat="42.94385" lon="0.55712">
        <ele>774.79</ele>
        <time>2015-08-11T06:47:47Z</time>
      </trkpt>
      <trkpt lat="42.94394" lon="0.55717">
        <ele>774.22</ele>
        <time>2015-08-11T06:47:54Z</time>
      </trkpt>
      <trkpt lat="42.94403" lon="0.55723">
        <ele>772.92</ele>
        <time>2015-08-11T06:48:02Z</time>
      </trkpt>
      <trkpt lat="42.94413" lon="0.55724">
        <ele>771.75</ele>
        <time>2015-08-11T06:48:10Z</time>
      </trkpt>
      <trkpt lat="42.94422" lon="0.55723">
        <ele>771.52</ele>
        <time>2015-08-11T06:48:18Z</time>
      </trkpt>
      <trkpt lat="42.94431" lon="0.5572">
        <ele>772.83</ele>
        <time>2015-08-11T06:48:26Z</time>
      </trkpt>
      <trkpt lat="42.94438" lon="0.55729">
        <ele>769.66</ele>
        <time>2015-08-11T06:48:34Z</time>
      </trkpt>
      <trkpt lat="42.94442" lon="0.55717">
        <ele>774.57</ele>
        <time>2015-08-11T06:48:37Z</time>
      </trkpt>
      <trkpt lat="42.94443" lon="0.55703">
        <ele>772.04</ele>
        <time>2015-08-11T06:48:41Z</time>
      </trkpt>
      <trkpt lat="42.94443" lon="0.5569">
        <ele>767.42</ele>
        <time>2015-08-11T06:48:46Z</time>
      </trkpt>
      <trkpt lat="42.94442" lon="0.55677">
        <ele>767.31</ele>
        <time>2015-08-11T06:48:53Z</time>
      </trkpt>
      <trkpt lat="42.94439" lon="0.55665">
        <ele>765.35</ele>
        <time>2015-08-11T06:49:01Z</time>
      </trkpt>
      <trkpt lat="42.94431" lon="0.55657">
        <ele>759.58</ele>
        <time>2015-08-11T06:49:07Z</time>
      </trkpt>
      <trkpt lat="42.94424" lon="0.55648">
        <ele>764.16</ele>
        <time>2015-08-11T06:49:15Z</time>
      </trkpt>
      <trkpt lat="42.9442" lon="0.55635">
        <ele>766.68</ele>
        <time>2015-08-11T06:49:25Z</time>
      </trkpt>
      <trkpt lat="42.94416" lon="0.55624">
        <ele>761.89</ele>
        <time>2015-08-11T06:49:33Z</time>
      </trkpt>
      <trkpt lat="42.94409" lon="0.55614">
        <ele>760.31</ele>
        <time>2015-08-11T06:49:41Z</time>
      </trkpt>
      <trkpt lat="42.94406" lon="0.55601">
        <ele>759.6</ele>
        <time>2015-08-11T06:49:50Z</time>
      </trkpt>
      <trkpt lat="42.94401" lon="0.5559">
        <ele>760.7</ele>
        <time>2015-08-11T06:49:59Z</time>
      </trkpt>
      <trkpt lat="42.94395" lon="0.5558">
        <ele>759.77</ele>
        <time>2015-08-11T06:50:07Z</time>
      </trkpt>
      <trkpt lat="42.94389" lon="0.55571">
        <ele>760.91</ele>
        <time>2015-08-11T06:50:16Z</time>
      </trkpt>
      <trkpt lat="42.94385" lon="0.55559">
        <ele>763.25</ele>
        <time>2015-08-11T06:50:27Z</time>
      </trkpt>
      <trkpt lat="42.94383" lon="0.55547">
        <ele>770.44</ele>
        <time>2015-08-11T06:50:38Z</time>
      </trkpt>
      <trkpt lat="42.94385" lon="0.55534">
        <ele>770.62</ele>
        <time>2015-08-11T06:50:47Z</time>
      </trkpt>
      <trkpt lat="42.94385" lon="0.55521">
        <ele>776.16</ele>
        <time>2015-08-11T06:50:57Z</time>
      </trkpt>
      <trkpt lat="42.94385" lon="0.55508">
        <ele>778</ele>
        <time>2015-08-11T06:51:07Z</time>
      </trkpt>
      <trkpt lat="42.93955" lon="0.5722">
        <ele>779.03</ele>
        <time>2015-08-11T07:14:11Z</time>
      </trkpt>
      <trkpt lat="42.93946" lon="0.57222">
        <ele>769.42</ele>
        <time>2015-08-11T07:14:49Z</time>
      </trkpt>
      <trkpt lat="42.93942" lon="0.57209">
        <ele>780.45</ele>
        <time>2015-08-11T07:15:08Z</time>
      </trkpt>
      <trkpt lat="42.93939" lon="0.57195">
        <ele>783</ele>
        <time>2015-08-11T07:15:14Z</time>
      </trkpt>
      <trkpt lat="42.93934" lon="0.57183">
        <ele>786.01</ele>
        <time>2015-08-11T07:15:21Z</time>
      </trkpt>
      <trkpt lat="42.93929" lon="0.57172">
        <ele>785.13</ele>
        <time>2015-08-11T07:15:30Z</time>
      </trkpt>
      <trkpt lat="42.93923" lon="0.57162">
        <ele>787.81</ele>
        <time>2015-08-11T07:15:39Z</time>
      </trkpt>
      <trkpt lat="42.93919" lon="0.57149">
        <ele>789.56</ele>
        <time>2015-08-11T07:15:49Z</time>
      </trkpt>
      <trkpt lat="42.93917" lon="0.57137">
        <ele>788.3</ele>
        <time>2015-08-11T07:15:57Z</time>
      </trkpt>
      <trkpt lat="42.93914" lon="0.57124">
        <ele>791.64</ele>
        <time>2015-08-11T07:16:06Z</time>
      </trkpt>
      <trkpt lat="42.93909" lon="0.57114">
        <ele>789.68</ele>
        <time>2015-08-11T07:16:16Z</time>
      </trkpt>
      <trkpt lat="42.93904" lon="0.57104">
        <ele>788.54</ele>
        <time>2015-08-11T07:16:27Z</time>
      </trkpt>
      <trkpt lat="42.93893" lon="0.57103">
        <ele>786.3</ele>
        <time>2015-08-11T07:16:33Z</time>
      </trkpt>
      <trkpt lat="42.93884" lon="0.57106">
        <ele>784.31</ele>
        <time>2015-08-11T07:16:39Z</time>
      </trkpt>
      <trkpt lat="42.93875" lon="0.5711">
        <ele>783.78</ele>
        <time>2015-08-11T07:16:50Z</time>
      </trkpt>
      <trkpt lat="42.93866" lon="0.57113">
        <ele>785.16</ele>
        <time>2015-08-11T07:17:00Z</time>
      </trkpt>
      <trkpt lat="42.93858" lon="0.57119">
        <ele>783</ele>
        <time>2015-08-11T07:17:09Z</time>
      </trkpt>
      <trkpt lat="42.93848" lon="0.57119">
        <ele>783.76</ele>
        <time>2015-08-11T07:17:18Z</time>
      </trkpt>
      <trkpt lat="42.93839" lon="0.57117">
        <ele>785.31</ele>
        <time>2015-08-11T07:17:26Z</time>
      </trkpt>
      <trkpt lat="42.9383" lon="0.57112">
        <ele>787.38</ele>
        <time>2015-08-11T07:17:35Z</time>
      </trkpt>
      <trkpt lat="42.93821" lon="0.57111">
        <ele>785.96</ele>
        <time>2015-08-11T07:17:44Z</time>
      </trkpt>
      <trkpt lat="42.93812" lon="0.57113">
        <ele>782.56</ele>
        <time>2015-08-11T07:17:51Z</time>
      </trkpt>
      <trkpt lat="42.93806" lon="0.57124">
        <ele>779.21</ele>
        <time>2015-08-11T07:17:58Z</time>
      </trkpt>
      <trkpt lat="42.93798" lon="0.5713">
        <ele>777.48</ele>
        <time>2015-08-11T07:18:07Z</time>
      </trkpt>
      <trkpt lat="42.93788" lon="0.57132">
        <ele>778.02</ele>
        <time>2015-08-11T07:18:16Z</time>
      </trkpt>
      <trkpt lat="42.93779" lon="0.57138">
        <ele>778.2</ele>
        <time>2015-08-11T07:18:24Z</time>
      </trkpt>
      <trkpt lat="42.93771" lon="0.57143">
        <ele>778.7</ele>
        <time>2015-08-11T07:18:37Z</time>
      </trkpt>
      <trkpt lat="42.93763" lon="0.57149">
        <ele>779.72</ele>
        <time>2015-08-11T07:18:44Z</time>
      </trkpt>
      <trkpt lat="42.93754" lon="0.57156">
        <ele>777.51</ele>
        <time>2015-08-11T07:18:52Z</time>
      </trkpt>
      <trkpt lat="42.93744" lon="0.57155">
        <ele>781.2</ele>
        <time>2015-08-11T07:19:04Z</time>
      </trkpt>
      <trkpt lat="42.93739" lon="0.57145">
        <ele>778.42</ele>
        <time>2015-08-11T07:19:13Z</time>
      </trkpt>
      <trkpt lat="42.93738" lon="0.57132">
        <ele>780.33</ele>
        <time>2015-08-11T07:19:23Z</time>
      </trkpt>
      <trkpt lat="42.9373" lon="0.57122">
        <ele>780.76</ele>
        <time>2015-08-11T07:19:33Z</time>
      </trkpt>
      <trkpt lat="42.93723" lon="0.57111">
        <ele>779.26</ele>
        <time>2015-08-11T07:19:41Z</time>
      </trkpt>
      <trkpt lat="42.93717" lon="0.57101">
        <ele>778.74</ele>
        <time>2015-08-11T07:19:48Z</time>
      </trkpt>
      <trkpt lat="42.9372" lon="0.57113">
        <ele>774.87</ele>
        <time>2015-08-11T07:20:33Z</time>
      </trkpt>
      <trkpt lat="42.93725" lon="0.57126">
        <ele>776.83</ele>
        <time>2015-08-11T07:20:42Z</time>
      </trkpt>
      <trkpt lat="42.93732" lon="0.57135">
        <ele>775.7</ele>
        <time>2015-08-11T07:20:54Z</time>
      </trkpt>
      <trkpt lat="42.93738" lon="0.57144">
        <ele>774.01</ele>
        <time>2015-08-11T07:21:01Z</time>
      </trkpt>
      <trkpt lat="42.93741" lon="0.57156">
        <ele>772.54</ele>
        <time>2015-08-11T07:21:09Z</time>
      </trkpt>
      <trkpt lat="42.93744" lon="0.57168">
        <ele>773.43</ele>
        <time>2015-08-11T07:21:18Z</time>
      </trkpt>
      <trkpt lat="42.93736" lon="0.57177">
        <ele>771.36</ele>
        <time>2015-08-11T07:21:27Z</time>
      </trkpt>
      <trkpt lat="42.93728" lon="0.5718">
        <ele>772.31</ele>
        <time>2015-08-11T07:21:35Z</time>
      </trkpt>
      <trkpt lat="42.93719" lon="0.57184">
        <ele>772.81</ele>
        <time>2015-08-11T07:21:44Z</time>
      </trkpt>
      <trkpt lat="42.9371" lon="0.57187">
        <ele>775.61</ele>
        <time>2015-08-11T07:21:52Z</time>
      </trkpt>
      <trkpt lat="42.93701" lon="0.57191">
        <ele>775.91</ele>
        <time>2015-08-11T07:22:00Z</time>
      </trkpt>
      <trkpt lat="42.93692" lon="0.57193">
        <ele>770.72</ele>
        <time>2015-08-11T07:22:10Z</time>
      </trkpt>
      <trkpt lat="42.93683" lon="0.57197">
        <ele>770.78</ele>
        <time>2015-08-11T07:22:18Z</time>
      </trkpt>
      <trkpt lat="42.93675" lon="0.57205">
        <ele>771.02</ele>
        <time>2015-08-11T07:22:27Z</time>
      </trkpt>
      <trkpt lat="42.93667" lon="0.57211">
        <ele>774.28</ele>
        <time>2015-08-11T07:22:36Z</time>
      </trkpt>
      <trkpt lat="42.93658" lon="0.57215">
        <ele>772.86</ele>
        <time>2015-08-11T07:22:46Z</time>
      </trkpt>
      <trkpt lat="42.93648" lon="0.57217">
        <ele>771.54</ele>
        <time>2015-08-11T07:22:58Z</time>
      </trkpt>
      <trkpt lat="42.93639" lon="0.57219">
        <ele>767.92</ele>
        <time>2015-08-11T07:23:08Z</time>
      </trkpt>
      <trkpt lat="42.9363" lon="0.57217">
        <ele>766.85</ele>
        <time>2015-08-11T07:23:16Z</time>
      </trkpt>
      <trkpt lat="42.93621" lon="0.57214">
        <ele>771.17</ele>
        <time>2015-08-11T07:23:26Z</time>
      </trkpt>
      <trkpt lat="42.93612" lon="0.57214">
        <ele>776.98</ele>
        <time>2015-08-11T07:23:39Z</time>
      </trkpt>
      <trkpt lat="42.93603" lon="0.57217">
        <ele>779.58</ele>
        <time>2015-08-11T07:24:19Z</time>
      </trkpt>
      <trkpt lat="42.93594" lon="0.57218">
        <ele>779.76</ele>
        <time>2015-08-11T07:24:25Z</time>
      </trkpt>
      <trkpt lat="42.93585" lon="0.57215">
        <ele>784.01</ele>
        <time>2015-08-11T07:24:35Z</time>
      </trkpt>
      <trkpt lat="42.93576" lon="0.5721">
        <ele>787.73</ele>
        <time>2015-08-11T07:24:51Z</time>
      </trkpt>
      <trkpt lat="42.93568" lon="0.57205">
        <ele>790.7</ele>
        <time>2015-08-11T07:25:07Z</time>
      </trkpt>
      <trkpt lat="42.93559" lon="0.57199">
        <ele>794.68</ele>
        <time>2015-08-11T07:25:40Z</time>
      </trkpt>
      <trkpt lat="42.93551" lon="0.57195">
        <ele>791.41</ele>
        <time>2015-08-11T07:27:33Z</time>
      </trkpt>
      <trkpt lat="42.93542" lon="0.57203">
        <ele>795.91</ele>
        <time>2015-08-11T07:28:04Z</time>
      </trkpt>
      <trkpt lat="42.93534" lon="0.5721">
        <ele>804.07</ele>
        <time>2015-08-11T07:28:22Z</time>
      </trkpt>
      <trkpt lat="42.93527" lon="0.57219">
        <ele>810.1</ele>
        <time>2015-08-11T07:28:41Z</time>
      </trkpt>
      <trkpt lat="42.93518" lon="0.57218">
        <ele>816.19</ele>
        <time>2015-08-11T07:29:38Z</time>
      </trkpt>
      <trkpt lat="42.9351" lon="0.57223">
        <ele>822.67</ele>
        <time>2015-08-11T07:30:05Z</time>
      </trkpt>
      <trkpt lat="42.935" lon="0.57226">
        <ele>819.99</ele>
        <time>2015-08-11T07:30:20Z</time>
      </trkpt>
      <trkpt lat="42.93492" lon="0.57233">
        <ele>820.89</ele>
        <time>2015-08-11T07:30:35Z</time>
      </trkpt>
      <trkpt lat="42.93483" lon="0.57237">
        <ele>818.06</ele>
        <time>2015-08-11T07:30:39Z</time>
      </trkpt>
      <trkpt lat="42.93478" lon="0.57248">
        <ele>814.64</ele>
        <time>2015-08-11T07:31:14Z</time>
      </trkpt>
      <trkpt lat="42.93478" lon="0.57261">
        <ele>819.21</ele>
        <time>2015-08-11T07:31:38Z</time>
      </trkpt>
      <trkpt lat="42.9347" lon="0.57265">
        <ele>817.98</ele>
        <time>2015-08-11T07:32:03Z</time>
      </trkpt>
      <trkpt lat="42.93466" lon="0.57276">
        <ele>826.49</ele>
        <time>2015-08-11T07:33:11Z</time>
      </trkpt>
      <trkpt lat="42.93458" lon="0.57284">
        <ele>832.32</ele>
        <time>2015-08-11T07:33:29Z</time>
      </trkpt>
      <trkpt lat="42.93449" lon="0.57286">
        <ele>833.69</ele>
        <time>2015-08-11T07:33:38Z</time>
      </trkpt>
      <trkpt lat="42.9344" lon="0.57292">
        <ele>839.84</ele>
        <time>2015-08-11T07:33:56Z</time>
      </trkpt>
      <trkpt lat="42.93431" lon="0.57294">
        <ele>846.08</ele>
        <time>2015-08-11T07:34:47Z</time>
      </trkpt>
      <trkpt lat="42.93423" lon="0.57301">
        <ele>850.52</ele>
        <time>2015-08-11T07:35:19Z</time>
      </trkpt>
      <trkpt lat="42.93415" lon="0.57309">
        <ele>849.85</ele>
        <time>2015-08-11T07:35:23Z</time>
      </trkpt>
      <trkpt lat="42.93408" lon="0.57317">
        <ele>853.04</ele>
        <time>2015-08-11T07:35:28Z</time>
      </trkpt>
      <trkpt lat="42.93414" lon="0.57328">
        <ele>851.71</ele>
        <time>2015-08-11T07:35:35Z</time>
      </trkpt>
      <trkpt lat="42.93409" lon="0.57339">
        <ele>849.88</ele>
        <time>2015-08-11T07:35:41Z</time>
      </trkpt>
      <trkpt lat="42.93404" lon="0.57351">
        <ele>842.86</ele>
        <time>2015-08-11T07:35:51Z</time>
      </trkpt>
      <trkpt lat="42.93396" lon="0.57359">
        <ele>839.45</ele>
        <time>2015-08-11T07:36:35Z</time>
      </trkpt>
      <trkpt lat="42.9339" lon="0.57368">
        <ele>843.78</ele>
        <time>2015-08-11T07:36:45Z</time>
      </trkpt>
      <trkpt lat="42.93383" lon="0.57377">
        <ele>852.93</ele>
        <time>2015-08-11T07:37:30Z</time>
      </trkpt>
      <trkpt lat="42.93374" lon="0.57379">
        <ele>868.61</ele>
        <time>2015-08-11T07:37:57Z</time>
      </trkpt>
      <trkpt lat="42.93365" lon="0.57376">
        <ele>878.67</ele>
        <time>2015-08-11T07:38:25Z</time>
      </trkpt>
      <trkpt lat="42.93358" lon="0.57367">
        <ele>891.89</ele>
        <time>2015-08-11T07:39:10Z</time>
      </trkpt>
      <trkpt lat="42.9335" lon="0.57364">
        <ele>898.13</ele>
        <time>2015-08-11T07:39:28Z</time>
      </trkpt>
      <trkpt lat="42.93339" lon="0.57365">
        <ele>893.65</ele>
        <time>2015-08-11T07:39:40Z</time>
      </trkpt>
      <trkpt lat="42.9333" lon="0.57364">
        <ele>891.61</ele>
        <time>2015-08-11T07:39:54Z</time>
      </trkpt>
      <trkpt lat="42.93322" lon="0.57356">
        <ele>852.97</ele>
        <time>2015-08-11T07:40:47Z</time>
      </trkpt>
      <trkpt lat="42.93313" lon="0.57352">
        <ele>885.45</ele>
        <time>2015-08-11T07:40:52Z</time>
      </trkpt>
      <trkpt lat="42.93303" lon="0.57351">
        <ele>898.02</ele>
        <time>2015-08-11T07:41:18Z</time>
      </trkpt>
      <trkpt lat="42.93293" lon="0.57351">
        <ele>899.76</ele>
        <time>2015-08-11T07:41:27Z</time>
      </trkpt>
      <trkpt lat="42.93284" lon="0.57351">
        <ele>891.81</ele>
        <time>2015-08-11T07:41:37Z</time>
      </trkpt>
      <trkpt lat="42.93274" lon="0.57352">
        <ele>899.76</ele>
        <time>2015-08-11T07:41:59Z</time>
      </trkpt>
      <trkpt lat="42.93265" lon="0.57355">
        <ele>898.27</ele>
        <time>2015-08-11T07:42:07Z</time>
      </trkpt>
      <trkpt lat="42.93256" lon="0.57358">
        <ele>897.39</ele>
        <time>2015-08-11T07:42:23Z</time>
      </trkpt>
      <trkpt lat="42.93247" lon="0.57356">
        <ele>898.28</ele>
        <time>2015-08-11T07:42:38Z</time>
      </trkpt>
      <trkpt lat="42.93238" lon="0.57357">
        <ele>901.07</ele>
        <time>2015-08-11T07:43:11Z</time>
      </trkpt>
      <trkpt lat="42.9323" lon="0.57362">
        <ele>902.49</ele>
        <time>2015-08-11T07:44:17Z</time>
      </trkpt>
      <trkpt lat="42.93221" lon="0.57366">
        <ele>901.27</ele>
        <time>2015-08-11T07:44:27Z</time>
      </trkpt>
      <trkpt lat="42.93214" lon="0.57375">
        <ele>901.65</ele>
        <time>2015-08-11T07:44:51Z</time>
      </trkpt>
      <trkpt lat="42.93206" lon="0.57382">
        <ele>900.41</ele>
        <time>2015-08-11T07:45:02Z</time>
      </trkpt>
      <trkpt lat="42.93198" lon="0.5739">
        <ele>900.13</ele>
        <time>2015-08-11T07:45:15Z</time>
      </trkpt>
      <trkpt lat="42.93191" lon="0.57399">
        <ele>894.98</ele>
        <time>2015-08-11T07:45:52Z</time>
      </trkpt>
      <trkpt lat="42.93182" lon="0.57403">
        <ele>896.27</ele>
        <time>2015-08-11T07:46:00Z</time>
      </trkpt>
      <trkpt lat="42.93175" lon="0.57411">
        <ele>896.33</ele>
        <time>2015-08-11T07:46:20Z</time>
      </trkpt>
      <trkpt lat="42.93166" lon="0.57415">
        <ele>895.29</ele>
        <time>2015-08-11T07:46:33Z</time>
      </trkpt>
      <trkpt lat="42.93156" lon="0.57416">
        <ele>895.86</ele>
        <time>2015-08-11T07:46:43Z</time>
      </trkpt>
      <trkpt lat="42.93147" lon="0.57418">
        <ele>892.91</ele>
        <time>2015-08-11T07:46:54Z</time>
      </trkpt>
      <trkpt lat="42.93139" lon="0.57412">
        <ele>899.41</ele>
        <time>2015-08-11T07:47:08Z</time>
      </trkpt>
      <trkpt lat="42.93131" lon="0.57405">
        <ele>906.3</ele>
        <time>2015-08-11T07:47:16Z</time>
      </trkpt>
      <trkpt lat="42.93123" lon="0.57399">
        <ele>909.69</ele>
        <time>2015-08-11T07:47:27Z</time>
      </trkpt>
      <trkpt lat="42.93116" lon="0.5739">
        <ele>915.95</ele>
        <time>2015-08-11T07:47:39Z</time>
      </trkpt>
      <trkpt lat="42.9311" lon="0.5738">
        <ele>923.02</ele>
        <time>2015-08-11T07:48:00Z</time>
      </trkpt>
      <trkpt lat="42.93102" lon="0.57373">
        <ele>926.02</ele>
        <time>2015-08-11T07:48:50Z</time>
      </trkpt>
      <trkpt lat="42.93092" lon="0.57373">
        <ele>927.01</ele>
        <time>2015-08-11T07:49:04Z</time>
      </trkpt>
      <trkpt lat="42.93083" lon="0.57373">
        <ele>929.47</ele>
        <time>2015-08-11T07:49:11Z</time>
      </trkpt>
      <trkpt lat="42.93075" lon="0.57366">
        <ele>934.57</ele>
        <time>2015-08-11T07:49:22Z</time>
      </trkpt>
      <trkpt lat="42.93067" lon="0.57363">
        <ele>933.55</ele>
        <time>2015-08-11T07:49:42Z</time>
      </trkpt>
      <trkpt lat="42.93057" lon="0.57366">
        <ele>934.21</ele>
        <time>2015-08-11T07:49:54Z</time>
      </trkpt>
      <trkpt lat="42.93048" lon="0.57367">
        <ele>934.7</ele>
        <time>2015-08-11T07:50:04Z</time>
      </trkpt>
      <trkpt lat="42.93039" lon="0.57367">
        <ele>934.16</ele>
        <time>2015-08-11T07:50:15Z</time>
      </trkpt>
      <trkpt lat="42.9303" lon="0.57368">
        <ele>937.97</ele>
        <time>2015-08-11T07:50:29Z</time>
      </trkpt>
      <trkpt lat="42.93021" lon="0.57371">
        <ele>938.45</ele>
        <time>2015-08-11T07:50:38Z</time>
      </trkpt>
      <trkpt lat="42.93011" lon="0.57369">
        <ele>939.9</ele>
        <time>2015-08-11T07:50:48Z</time>
      </trkpt>
      <trkpt lat="42.93003" lon="0.57364">
        <ele>942.22</ele>
        <time>2015-08-11T07:51:03Z</time>
      </trkpt>
      <trkpt lat="42.92994" lon="0.57359">
        <ele>948.99</ele>
        <time>2015-08-11T07:51:30Z</time>
      </trkpt>
      <trkpt lat="42.92987" lon="0.57352">
        <ele>953.35</ele>
        <time>2015-08-11T07:51:44Z</time>
      </trkpt>
      <trkpt lat="42.92978" lon="0.57353">
        <ele>955.52</ele>
        <time>2015-08-11T07:53:54Z</time>
      </trkpt>
      <trkpt lat="42.92968" lon="0.57356">
        <ele>956.9</ele>
        <time>2015-08-11T07:54:26Z</time>
      </trkpt>
      <trkpt lat="42.9296" lon="0.57361">
        <ele>957.21</ele>
        <time>2015-08-11T07:54:33Z</time>
      </trkpt>
      <trkpt lat="42.92952" lon="0.57367">
        <ele>960.18</ele>
        <time>2015-08-11T07:54:53Z</time>
      </trkpt>
      <trkpt lat="42.92947" lon="0.57378">
        <ele>964.31</ele>
        <time>2015-08-11T07:55:09Z</time>
      </trkpt>
      <trkpt lat="42.92938" lon="0.57382">
        <ele>971.08</ele>
        <time>2015-08-11T07:55:49Z</time>
      </trkpt>
      <trkpt lat="42.92929" lon="0.57385">
        <ele>969.78</ele>
        <time>2015-08-11T07:55:58Z</time>
      </trkpt>
      <trkpt lat="42.92921" lon="0.57391">
        <ele>972.55</ele>
        <time>2015-08-11T07:56:46Z</time>
      </trkpt>
      <trkpt lat="42.92914" lon="0.57399">
        <ele>977.08</ele>
        <time>2015-08-11T07:56:59Z</time>
      </trkpt>
      <trkpt lat="42.92906" lon="0.57403">
        <ele>980.41</ele>
        <time>2015-08-11T07:57:25Z</time>
      </trkpt>
      <trkpt lat="42.92898" lon="0.57409">
        <ele>982.42</ele>
        <time>2015-08-11T07:57:35Z</time>
      </trkpt>
      <trkpt lat="42.92889" lon="0.57415">
        <ele>984.74</ele>
        <time>2015-08-11T07:57:50Z</time>
      </trkpt>
      <trkpt lat="42.92881" lon="0.57421">
        <ele>986.26</ele>
        <time>2015-08-11T07:58:21Z</time>
      </trkpt>
      <trkpt lat="42.92875" lon="0.5743">
        <ele>989.11</ele>
        <time>2015-08-11T07:58:53Z</time>
      </trkpt>
      <trkpt lat="42.92866" lon="0.57435">
        <ele>993.19</ele>
        <time>2015-08-11T07:59:02Z</time>
      </trkpt>
      <trkpt lat="42.92857" lon="0.5744">
        <ele>992.39</ele>
        <time>2015-08-11T07:59:41Z</time>
      </trkpt>
      <trkpt lat="42.92848" lon="0.5744">
        <ele>994.29</ele>
        <time>2015-08-11T07:59:49Z</time>
      </trkpt>
      <trkpt lat="42.92838" lon="0.57442">
        <ele>999.47</ele>
        <time>2015-08-11T07:59:58Z</time>
      </trkpt>
      <trkpt lat="42.92829" lon="0.57442">
        <ele>1000.16</ele>
        <time>2015-08-11T08:00:08Z</time>
      </trkpt>
      <trkpt lat="42.92819" lon="0.57441">
        <ele>1002.43</ele>
        <time>2015-08-11T08:00:21Z</time>
      </trkpt>
      <trkpt lat="42.9281" lon="0.57444">
        <ele>1006.1</ele>
        <time>2015-08-11T08:01:06Z</time>
      </trkpt>
      <trkpt lat="42.92801" lon="0.57439">
        <ele>1007.43</ele>
        <time>2015-08-11T08:01:26Z</time>
      </trkpt>
      <trkpt lat="42.92796" lon="0.57428">
        <ele>1011.87</ele>
        <time>2015-08-11T08:01:40Z</time>
      </trkpt>
      <trkpt lat="42.92788" lon="0.57422">
        <ele>1012.19</ele>
        <time>2015-08-11T08:01:55Z</time>
      </trkpt>
      <trkpt lat="42.9279" lon="0.5741">
        <ele>1013.67</ele>
        <time>2015-08-11T08:02:17Z</time>
      </trkpt>
      <trkpt lat="42.92787" lon="0.57397">
        <ele>1010.93</ele>
        <time>2015-08-11T08:02:26Z</time>
      </trkpt>
      <trkpt lat="42.92782" lon="0.57387">
        <ele>1009.53</ele>
        <time>2015-08-11T08:02:35Z</time>
      </trkpt>
      <trkpt lat="42.92774" lon="0.57379">
        <ele>1007.97</ele>
        <time>2015-08-11T08:02:45Z</time>
      </trkpt>
      <trkpt lat="42.92766" lon="0.57374">
        <ele>1008.83</ele>
        <time>2015-08-11T08:02:58Z</time>
      </trkpt>
      <trkpt lat="42.92757" lon="0.5737">
        <ele>1011.02</ele>
        <time>2015-08-11T08:03:25Z</time>
      </trkpt>
      <trkpt lat="42.92749" lon="0.57363">
        <ele>1014.19</ele>
        <time>2015-08-11T08:03:42Z</time>
      </trkpt>
      <trkpt lat="42.92741" lon="0.57357">
        <ele>1018.24</ele>
        <time>2015-08-11T08:04:01Z</time>
      </trkpt>
      <trkpt lat="42.92732" lon="0.57354">
        <ele>1018.27</ele>
        <time>2015-08-11T08:04:15Z</time>
      </trkpt>
      <trkpt lat="42.92723" lon="0.5735">
        <ele>1020.3</ele>
        <time>2015-08-11T08:04:29Z</time>
      </trkpt>
      <trkpt lat="42.92714" lon="0.57346">
        <ele>1019.3</ele>
        <time>2015-08-11T08:04:41Z</time>
      </trkpt>
      <trkpt lat="42.92705" lon="0.57344">
        <ele>1024.26</ele>
        <time>2015-08-11T08:04:59Z</time>
      </trkpt>
      <trkpt lat="42.92696" lon="0.57342">
        <ele>1021.53</ele>
        <time>2015-08-11T08:05:16Z</time>
      </trkpt>
      <trkpt lat="42.92687" lon="0.57342">
        <ele>1026.98</ele>
        <time>2015-08-11T08:05:41Z</time>
      </trkpt>
      <trkpt lat="42.92677" lon="0.5734">
        <ele>1031.76</ele>
        <time>2015-08-11T08:05:54Z</time>
      </trkpt>
      <trkpt lat="42.9267" lon="0.57334">
        <ele>1033.07</ele>
        <time>2015-08-11T08:06:07Z</time>
      </trkpt>
      <trkpt lat="42.92665" lon="0.57345">
        <ele>1041.98</ele>
        <time>2015-08-11T08:12:38Z</time>
      </trkpt>
      <trkpt lat="42.92661" lon="0.57334">
        <ele>1043.14</ele>
        <time>2015-08-11T08:15:15Z</time>
      </trkpt>
      <trkpt lat="42.92652" lon="0.5733">
        <ele>1043</ele>
        <time>2015-08-11T08:15:30Z</time>
      </trkpt>
      <trkpt lat="42.92643" lon="0.57331">
        <ele>1044.19</ele>
        <time>2015-08-11T08:15:41Z</time>
      </trkpt>
      <trkpt lat="42.92633" lon="0.57332">
        <ele>1043.77</ele>
        <time>2015-08-11T08:15:54Z</time>
      </trkpt>
      <trkpt lat="42.92624" lon="0.57333">
        <ele>1042.13</ele>
        <time>2015-08-11T08:16:05Z</time>
      </trkpt>
      <trkpt lat="42.92615" lon="0.57327">
        <ele>1043.81</ele>
        <time>2015-08-11T08:16:34Z</time>
      </trkpt>
      <trkpt lat="42.92605" lon="0.57325">
        <ele>1044.14</ele>
        <time>2015-08-11T08:17:59Z</time>
      </trkpt>
      <trkpt lat="42.92597" lon="0.57332">
        <ele>1043.08</ele>
        <time>2015-08-11T08:21:04Z</time>
      </trkpt>
      <trkpt lat="42.92598" lon="0.57346">
        <ele>1042.58</ele>
        <time>2015-08-11T08:21:36Z</time>
      </trkpt>
      <trkpt lat="42.926" lon="0.57358">
        <ele>1039.25</ele>
        <time>2015-08-11T08:21:41Z</time>
      </trkpt>
      <trkpt lat="42.92606" lon="0.57369">
        <ele>1038.71</ele>
        <time>2015-08-11T08:21:51Z</time>
      </trkpt>
      <trkpt lat="42.92612" lon="0.57379">
        <ele>1044.9</ele>
        <time>2015-08-11T08:22:27Z</time>
      </trkpt>
      <trkpt lat="42.92617" lon="0.5739">
        <ele>1044.89</ele>
        <time>2015-08-11T08:23:19Z</time>
      </trkpt>
      <trkpt lat="42.92622" lon="0.57401">
        <ele>1048.78</ele>
        <time>2015-08-11T08:23:25Z</time>
      </trkpt>
      <trkpt lat="42.92614" lon="0.57407">
        <ele>1051.52</ele>
        <time>2015-08-11T08:25:09Z</time>
      </trkpt>
      <trkpt lat="42.92605" lon="0.57411">
        <ele>1055.27</ele>
        <time>2015-08-11T08:25:21Z</time>
      </trkpt>
      <trkpt lat="42.92596" lon="0.57416">
        <ele>1055.59</ele>
        <time>2015-08-11T08:25:33Z</time>
      </trkpt>
      <trkpt lat="42.92587" lon="0.57422">
        <ele>1057.94</ele>
        <time>2015-08-11T08:25:52Z</time>
      </trkpt>
      <trkpt lat="42.92577" lon="0.57425">
        <ele>1060.48</ele>
        <time>2015-08-11T08:26:02Z</time>
      </trkpt>
      <trkpt lat="42.92571" lon="0.57435">
        <ele>1068.66</ele>
        <time>2015-08-11T08:26:38Z</time>
      </trkpt>
      <trkpt lat="42.92564" lon="0.57443">
        <ele>1067.36</ele>
        <time>2015-08-11T08:27:00Z</time>
      </trkpt>
      <trkpt lat="42.92555" lon="0.57446">
        <ele>1071.71</ele>
        <time>2015-08-11T08:27:26Z</time>
      </trkpt>
      <trkpt lat="42.92545" lon="0.57447">
        <ele>1071.1</ele>
        <time>2015-08-11T08:27:45Z</time>
      </trkpt>
      <trkpt lat="42.92537" lon="0.5744">
        <ele>1067.59</ele>
        <time>2015-08-11T08:27:51Z</time>
      </trkpt>
      <trkpt lat="42.92528" lon="0.5744">
        <ele>1069.34</ele>
        <time>2015-08-11T08:28:01Z</time>
      </trkpt>
      <trkpt lat="42.9252" lon="0.57448">
        <ele>1070.94</ele>
        <time>2015-08-11T08:28:37Z</time>
      </trkpt>
      <trkpt lat="42.92512" lon="0.57453">
        <ele>1081.56</ele>
        <time>2015-08-11T08:29:03Z</time>
      </trkpt>
      <trkpt lat="42.92502" lon="0.5745">
        <ele>1083.23</ele>
        <time>2015-08-11T08:29:39Z</time>
      </trkpt>
      <trkpt lat="42.92494" lon="0.57445">
        <ele>1082.65</ele>
        <time>2015-08-11T08:30:21Z</time>
      </trkpt>
      <trkpt lat="42.92484" lon="0.57443">
        <ele>1076.77</ele>
        <time>2015-08-11T08:30:28Z</time>
      </trkpt>
      <trkpt lat="42.92474" lon="0.57444">
        <ele>1074.2</ele>
        <time>2015-08-11T08:30:34Z</time>
      </trkpt>
      <trkpt lat="42.92465" lon="0.57441">
        <ele>1073.82</ele>
        <time>2015-08-11T08:30:43Z</time>
      </trkpt>
      <trkpt lat="42.92457" lon="0.57448">
        <ele>1080.45</ele>
        <time>2015-08-11T08:35:46Z</time>
      </trkpt>
      <trkpt lat="42.92454" lon="0.5746">
        <ele>1081.27</ele>
        <time>2015-08-11T08:37:05Z</time>
      </trkpt>
      <trkpt lat="42.92451" lon="0.57471">
        <ele>1091.92</ele>
        <time>2015-08-11T08:37:19Z</time>
      </trkpt>
      <trkpt lat="42.92452" lon="0.57485">
        <ele>1091.69</ele>
        <time>2015-08-11T08:37:40Z</time>
      </trkpt>
      <trkpt lat="42.92453" lon="0.57497">
        <ele>1094.27</ele>
        <time>2015-08-11T08:38:15Z</time>
      </trkpt>
      <trkpt lat="42.92456" lon="0.5751">
        <ele>1104.77</ele>
        <time>2015-08-11T08:42:03Z</time>
      </trkpt>
      <trkpt lat="42.92456" lon="0.57523">
        <ele>1102.79</ele>
        <time>2015-08-11T08:42:11Z</time>
      </trkpt>
      <trkpt lat="42.92455" lon="0.57536">
        <ele>1105.29</ele>
        <time>2015-08-11T08:42:39Z</time>
      </trkpt>
      <trkpt lat="42.92462" lon="0.57546">
        <ele>1112.63</ele>
        <time>2015-08-11T08:42:45Z</time>
      </trkpt>
      <trkpt lat="42.92453" lon="0.57549">
        <ele>1122.02</ele>
        <time>2015-08-11T08:43:54Z</time>
      </trkpt>
      <trkpt lat="42.92442" lon="0.57548">
        <ele>1118.51</ele>
        <time>2015-08-11T08:44:01Z</time>
      </trkpt>
      <trkpt lat="42.92433" lon="0.57549">
        <ele>1121.06</ele>
        <time>2015-08-11T08:44:10Z</time>
      </trkpt>
      <trkpt lat="42.92423" lon="0.5755">
        <ele>1127.88</ele>
        <time>2015-08-11T08:44:21Z</time>
      </trkpt>
      <trkpt lat="42.92418" lon="0.57538">
        <ele>1126.01</ele>
        <time>2015-08-11T08:44:56Z</time>
      </trkpt>
      <trkpt lat="42.92414" lon="0.57526">
        <ele>1125.88</ele>
        <time>2015-08-11T08:45:05Z</time>
      </trkpt>
      <trkpt lat="42.9241" lon="0.57515">
        <ele>1121.06</ele>
        <time>2015-08-11T08:45:15Z</time>
      </trkpt>
      <trkpt lat="42.92402" lon="0.57508">
        <ele>1114.6</ele>
        <time>2015-08-11T08:45:24Z</time>
      </trkpt>
      <trkpt lat="42.92397" lon="0.57497">
        <ele>1109.53</ele>
        <time>2015-08-11T08:45:52Z</time>
      </trkpt>
      <trkpt lat="42.92391" lon="0.57485">
        <ele>1104.9</ele>
        <time>2015-08-11T08:45:58Z</time>
      </trkpt>
      <trkpt lat="42.92387" lon="0.57474">
        <ele>1101.47</ele>
        <time>2015-08-11T08:46:05Z</time>
      </trkpt>
      <trkpt lat="42.92379" lon="0.57468">
        <ele>1109.03</ele>
        <time>2015-08-11T08:47:05Z</time>
      </trkpt>
      <trkpt lat="42.92371" lon="0.57475">
        <ele>1111.58</ele>
        <time>2015-08-11T08:47:16Z</time>
      </trkpt>
      <trkpt lat="42.92375" lon="0.57487">
        <ele>1117.83</ele>
        <time>2015-08-11T08:47:37Z</time>
      </trkpt>
      <trkpt lat="42.92382" lon="0.57495">
        <ele>1112.75</ele>
        <time>2015-08-11T08:47:51Z</time>
      </trkpt>
      <trkpt lat="42.92388" lon="0.57504">
        <ele>1110.91</ele>
        <time>2015-08-11T08:48:10Z</time>
      </trkpt>
      <trkpt lat="42.92395" lon="0.57514">
        <ele>1112.49</ele>
        <time>2015-08-11T08:48:17Z</time>
      </trkpt>
      <trkpt lat="42.92403" lon="0.57522">
        <ele>1113.96</ele>
        <time>2015-08-11T08:48:25Z</time>
      </trkpt>
      <trkpt lat="42.92407" lon="0.57533">
        <ele>1118.95</ele>
        <time>2015-08-11T08:49:12Z</time>
      </trkpt>
      <trkpt lat="42.92409" lon="0.57545">
        <ele>1118.54</ele>
        <time>2015-08-11T08:49:48Z</time>
      </trkpt>
      <trkpt lat="42.92415" lon="0.57555">
        <ele>1124.78</ele>
        <time>2015-08-11T08:50:06Z</time>
      </trkpt>
      <trkpt lat="42.92424" lon="0.57559">
        <ele>1123.89</ele>
        <time>2015-08-11T08:50:19Z</time>
      </trkpt>
      <trkpt lat="42.92433" lon="0.57561">
        <ele>1123.85</ele>
        <time>2015-08-11T08:50:29Z</time>
      </trkpt>
      <trkpt lat="42.92442" lon="0.57566">
        <ele>1128.13</ele>
        <time>2015-08-11T08:50:40Z</time>
      </trkpt>
      <trkpt lat="42.92451" lon="0.5757">
        <ele>1127.14</ele>
        <time>2015-08-11T08:50:49Z</time>
      </trkpt>
      <trkpt lat="42.9246" lon="0.57567">
        <ele>1128.3</ele>
        <time>2015-08-11T08:50:57Z</time>
      </trkpt>
      <trkpt lat="42.92469" lon="0.57568">
        <ele>1128.7</ele>
        <time>2015-08-11T08:51:56Z</time>
      </trkpt>
      <trkpt lat="42.92478" lon="0.57574">
        <ele>1129.29</ele>
        <time>2015-08-11T08:52:02Z</time>
      </trkpt>
      <trkpt lat="42.92485" lon="0.57582">
        <ele>1129.23</ele>
        <time>2015-08-11T08:52:16Z</time>
      </trkpt>
      <trkpt lat="42.9249" lon="0.57593">
        <ele>1127.47</ele>
        <time>2015-08-11T08:52:30Z</time>
      </trkpt>
      <trkpt lat="42.92495" lon="0.57604">
        <ele>1123.91</ele>
        <time>2015-08-11T08:52:36Z</time>
      </trkpt>
      <trkpt lat="42.92497" lon="0.57617">
        <ele>1126.34</ele>
        <time>2015-08-11T08:52:42Z</time>
      </trkpt>
      <trkpt lat="42.92501" lon="0.57628">
        <ele>1126.05</ele>
        <time>2015-08-11T08:52:48Z</time>
      </trkpt>
      <trkpt lat="42.92509" lon="0.57635">
        <ele>1128.64</ele>
        <time>2015-08-11T08:52:58Z</time>
      </trkpt>
      <trkpt lat="42.92516" lon="0.57644">
        <ele>1127.08</ele>
        <time>2015-08-11T09:00:08Z</time>
      </trkpt>
      <trkpt lat="42.92507" lon="0.57648">
        <ele>1123.68</ele>
        <time>2015-08-11T09:00:50Z</time>
      </trkpt>
      <trkpt lat="42.92497" lon="0.5765">
        <ele>1120.87</ele>
        <time>2015-08-11T09:00:59Z</time>
      </trkpt>
      <trkpt lat="42.92488" lon="0.5765">
        <ele>1119.25</ele>
        <time>2015-08-11T09:01:20Z</time>
      </trkpt>
      <trkpt lat="42.92484" lon="0.5766">
        <ele>1127.79</ele>
        <time>2015-08-11T09:02:10Z</time>
      </trkpt>
      <trkpt lat="42.92478" lon="0.57672">
        <ele>1138.52</ele>
        <time>2015-08-11T09:02:50Z</time>
      </trkpt>
      <trkpt lat="42.92469" lon="0.57675">
        <ele>1148.96</ele>
        <time>2015-08-11T09:03:21Z</time>
      </trkpt>
      <trkpt lat="42.9246" lon="0.57676">
        <ele>1151.47</ele>
        <time>2015-08-11T09:03:33Z</time>
      </trkpt>
      <trkpt lat="42.9245" lon="0.57677">
        <ele>1151.58</ele>
        <time>2015-08-11T09:03:46Z</time>
      </trkpt>
      <trkpt lat="42.92441" lon="0.57679">
        <ele>1149.89</ele>
        <time>2015-08-11T09:04:06Z</time>
      </trkpt>
      <trkpt lat="42.92435" lon="0.57687">
        <ele>1146.78</ele>
        <time>2015-08-11T09:04:18Z</time>
      </trkpt>
      <trkpt lat="42.92426" lon="0.57693">
        <ele>1149.28</ele>
        <time>2015-08-11T09:05:12Z</time>
      </trkpt>
      <trkpt lat="42.92417" lon="0.577">
        <ele>1155.02</ele>
        <time>2015-08-11T09:05:45Z</time>
      </trkpt>
      <trkpt lat="42.92408" lon="0.57706">
        <ele>1150.32</ele>
        <time>2015-08-11T09:05:50Z</time>
      </trkpt>
      <trkpt lat="42.92401" lon="0.57712">
        <ele>1147.41</ele>
        <time>2015-08-11T09:05:58Z</time>
      </trkpt>
      <trkpt lat="42.92392" lon="0.57709">
        <ele>1151.42</ele>
        <time>2015-08-11T09:06:09Z</time>
      </trkpt>
      <trkpt lat="42.92382" lon="0.57707">
        <ele>1153.52</ele>
        <time>2015-08-11T09:08:23Z</time>
      </trkpt>
      <trkpt lat="42.92372" lon="0.57705">
        <ele>1155.27</ele>
        <time>2015-08-11T09:08:47Z</time>
      </trkpt>
      <trkpt lat="42.92363" lon="0.57702">
        <ele>1156.51</ele>
        <time>2015-08-11T09:08:54Z</time>
      </trkpt>
      <trkpt lat="42.92354" lon="0.57698">
        <ele>1158.68</ele>
        <time>2015-08-11T09:09:07Z</time>
      </trkpt>
      <trkpt lat="42.92345" lon="0.57696">
        <ele>1162.39</ele>
        <time>2015-08-11T09:09:25Z</time>
      </trkpt>
      <trkpt lat="42.92335" lon="0.57695">
        <ele>1165.75</ele>
        <time>2015-08-11T09:09:39Z</time>
      </trkpt>
      <trkpt lat="42.92327" lon="0.57697">
        <ele>1163.81</ele>
        <time>2015-08-11T09:09:49Z</time>
      </trkpt>
      <trkpt lat="42.92317" lon="0.577">
        <ele>1163.51</ele>
        <time>2015-08-11T09:09:57Z</time>
      </trkpt>
      <trkpt lat="42.92313" lon="0.57711">
        <ele>1166.69</ele>
        <time>2015-08-11T09:10:09Z</time>
      </trkpt>
      <trkpt lat="42.92309" lon="0.57723">
        <ele>1170.14</ele>
        <time>2015-08-11T09:11:03Z</time>
      </trkpt>
      <trkpt lat="42.92301" lon="0.5773">
        <ele>1166.48</ele>
        <time>2015-08-11T09:11:12Z</time>
      </trkpt>
      <trkpt lat="42.92294" lon="0.57738">
        <ele>1161.02</ele>
        <time>2015-08-11T09:11:25Z</time>
      </trkpt>
      <trkpt lat="42.92293" lon="0.5775">
        <ele>1170.01</ele>
        <time>2015-08-11T09:12:01Z</time>
      </trkpt>
      <trkpt lat="42.92295" lon="0.57762">
        <ele>1174.39</ele>
        <time>2015-08-11T09:12:44Z</time>
      </trkpt>
      <trkpt lat="42.92292" lon="0.57775">
        <ele>1180.52</ele>
        <time>2015-08-11T09:13:25Z</time>
      </trkpt>
      <trkpt lat="42.92286" lon="0.57783">
        <ele>1184.39</ele>
        <time>2015-08-11T09:14:17Z</time>
      </trkpt>
      <trkpt lat="42.9228" lon="0.57793">
        <ele>1187.26</ele>
        <time>2015-08-11T09:14:31Z</time>
      </trkpt>
      <trkpt lat="42.92274" lon="0.57803">
        <ele>1197.27</ele>
        <time>2015-08-11T09:15:30Z</time>
      </trkpt>
      <trkpt lat="42.9227" lon="0.57814">
        <ele>1198.55</ele>
        <time>2015-08-11T09:15:43Z</time>
      </trkpt>
      <trkpt lat="42.92267" lon="0.57826">
        <ele>1198.75</ele>
        <time>2015-08-11T09:19:26Z</time>
      </trkpt>
      <trkpt lat="42.92261" lon="0.57836">
        <ele>1192.62</ele>
        <time>2015-08-11T09:20:05Z</time>
      </trkpt>
      <trkpt lat="42.92252" lon="0.57832">
        <ele>1187.28</ele>
        <time>2015-08-11T09:22:23Z</time>
      </trkpt>
      <trkpt lat="42.92245" lon="0.57822">
        <ele>1186.06</ele>
        <time>2015-08-11T09:22:31Z</time>
      </trkpt>
      <trkpt lat="42.92236" lon="0.57816">
        <ele>1183.45</ele>
        <time>2015-08-11T09:22:40Z</time>
      </trkpt>
      <trkpt lat="42.92227" lon="0.57812">
        <ele>1184.69</ele>
        <time>2015-08-11T09:22:49Z</time>
      </trkpt>
      <trkpt lat="42.92218" lon="0.57812">
        <ele>1185.35</ele>
        <time>2015-08-11T09:22:58Z</time>
      </trkpt>
      <trkpt lat="42.92208" lon="0.57811">
        <ele>1186.59</ele>
        <time>2015-08-11T09:23:07Z</time>
      </trkpt>
      <trkpt lat="42.922" lon="0.57806">
        <ele>1186.33</ele>
        <time>2015-08-11T09:23:19Z</time>
      </trkpt>
      <trkpt lat="42.92192" lon="0.57797">
        <ele>1188.58</ele>
        <time>2015-08-11T09:23:31Z</time>
      </trkpt>
      <trkpt lat="42.92183" lon="0.57793">
        <ele>1187.71</ele>
        <time>2015-08-11T09:23:39Z</time>
      </trkpt>
      <trkpt lat="42.92174" lon="0.57792">
        <ele>1187.67</ele>
        <time>2015-08-11T09:23:50Z</time>
      </trkpt>
      <trkpt lat="42.92166" lon="0.57799">
        <ele>1186.78</ele>
        <time>2015-08-11T09:24:04Z</time>
      </trkpt>
      <trkpt lat="42.92157" lon="0.57803">
        <ele>1185.04</ele>
        <time>2015-08-11T09:24:14Z</time>
      </trkpt>
      <trkpt lat="42.92148" lon="0.57799">
        <ele>1188.75</ele>
        <time>2015-08-11T09:24:23Z</time>
      </trkpt>
      <trkpt lat="42.92138" lon="0.57798">
        <ele>1191.2</ele>
        <time>2015-08-11T09:24:31Z</time>
      </trkpt>
      <trkpt lat="42.92129" lon="0.57796">
        <ele>1191.81</ele>
        <time>2015-08-11T09:24:39Z</time>
      </trkpt>
      <trkpt lat="42.9212" lon="0.57795">
        <ele>1198.95</ele>
        <time>2015-08-11T09:24:51Z</time>
      </trkpt>
      <trkpt lat="42.92111" lon="0.57794">
        <ele>1202.32</ele>
        <time>2015-08-11T09:25:07Z</time>
      </trkpt>
      <trkpt lat="42.92102" lon="0.5779">
        <ele>1203.93</ele>
        <time>2015-08-11T09:25:36Z</time>
      </trkpt>
      <trkpt lat="42.92095" lon="0.578">
        <ele>1207.76</ele>
        <time>2015-08-11T09:25:50Z</time>
      </trkpt>
      <trkpt lat="42.9209" lon="0.57811">
        <ele>1211.67</ele>
        <time>2015-08-11T09:25:56Z</time>
      </trkpt>
      <trkpt lat="42.92084" lon="0.57822">
        <ele>1210.82</ele>
        <time>2015-08-11T09:26:02Z</time>
      </trkpt>
      <trkpt lat="42.92081" lon="0.57835">
        <ele>1211.21</ele>
        <time>2015-08-11T09:26:08Z</time>
      </trkpt>
      <trkpt lat="42.92075" lon="0.57846">
        <ele>1209.16</ele>
        <time>2015-08-11T09:26:15Z</time>
      </trkpt>
      <trkpt lat="42.92066" lon="0.57846">
        <ele>1216.26</ele>
        <time>2015-08-11T09:26:25Z</time>
      </trkpt>
      <trkpt lat="42.92056" lon="0.57845">
        <ele>1219.09</ele>
        <time>2015-08-11T09:26:35Z</time>
      </trkpt>
      <trkpt lat="42.92047" lon="0.57848">
        <ele>1217.26</ele>
        <time>2015-08-11T09:26:50Z</time>
      </trkpt>
      <trkpt lat="42.92038" lon="0.57852">
        <ele>1218.58</ele>
        <time>2015-08-11T09:27:02Z</time>
      </trkpt>
      <trkpt lat="42.9203" lon="0.5786">
        <ele>1222.58</ele>
        <time>2015-08-11T09:27:12Z</time>
      </trkpt>
      <trkpt lat="42.92021" lon="0.57861">
        <ele>1224.42</ele>
        <time>2015-08-11T09:27:25Z</time>
      </trkpt>
      <trkpt lat="42.92012" lon="0.57864">
        <ele>1217.96</ele>
        <time>2015-08-11T09:27:40Z</time>
      </trkpt>
      <trkpt lat="42.92002" lon="0.57862">
        <ele>1224.19</ele>
        <time>2015-08-11T09:27:54Z</time>
      </trkpt>
      <trkpt lat="42.91993" lon="0.57858">
        <ele>1227.53</ele>
        <time>2015-08-11T09:28:02Z</time>
      </trkpt>
      <trkpt lat="42.91984" lon="0.57856">
        <ele>1229.75</ele>
        <time>2015-08-11T09:28:14Z</time>
      </trkpt>
      <trkpt lat="42.91976" lon="0.57861">
        <ele>1225.44</ele>
        <time>2015-08-11T09:28:27Z</time>
      </trkpt>
      <trkpt lat="42.91966" lon="0.57863">
        <ele>1229.78</ele>
        <time>2015-08-11T09:28:39Z</time>
      </trkpt>
      <trkpt lat="42.91957" lon="0.5786">
        <ele>1233.6</ele>
        <time>2015-08-11T09:28:50Z</time>
      </trkpt>
      <trkpt lat="42.91948" lon="0.57857">
        <ele>1233.66</ele>
        <time>2015-08-11T09:29:01Z</time>
      </trkpt>
      <trkpt lat="42.91939" lon="0.57851">
        <ele>1228.07</ele>
        <time>2015-08-11T09:29:22Z</time>
      </trkpt>
      <trkpt lat="42.91932" lon="0.57843">
        <ele>1228.04</ele>
        <time>2015-08-11T09:29:34Z</time>
      </trkpt>
      <trkpt lat="42.91923" lon="0.57838">
        <ele>1227.9</ele>
        <time>2015-08-11T09:29:43Z</time>
      </trkpt>
      <trkpt lat="42.91913" lon="0.57836">
        <ele>1232.51</ele>
        <time>2015-08-11T09:29:57Z</time>
      </trkpt>
      <trkpt lat="42.91904" lon="0.57834">
        <ele>1230.54</ele>
        <time>2015-08-11T09:30:07Z</time>
      </trkpt>
      <trkpt lat="42.91895" lon="0.57832">
        <ele>1229.23</ele>
        <time>2015-08-11T09:30:17Z</time>
      </trkpt>
      <trkpt lat="42.91887" lon="0.57826">
        <ele>1227.78</ele>
        <time>2015-08-11T09:30:39Z</time>
      </trkpt>
      <trkpt lat="42.9188" lon="0.57818">
        <ele>1225.31</ele>
        <time>2015-08-11T09:30:51Z</time>
      </trkpt>
      <trkpt lat="42.91871" lon="0.57812">
        <ele>1225.32</ele>
        <time>2015-08-11T09:31:00Z</time>
      </trkpt>
      <trkpt lat="42.91861" lon="0.57808">
        <ele>1226.27</ele>
        <time>2015-08-11T09:31:20Z</time>
      </trkpt>
      <trkpt lat="42.91853" lon="0.57802">
        <ele>1233.59</ele>
        <time>2015-08-11T09:31:27Z</time>
      </trkpt>
      <trkpt lat="42.91845" lon="0.57797">
        <ele>1234.77</ele>
        <time>2015-08-11T09:31:54Z</time>
      </trkpt>
      <trkpt lat="42.91836" lon="0.57793">
        <ele>1236.24</ele>
        <time>2015-08-11T09:31:58Z</time>
      </trkpt>
      <trkpt lat="42.91826" lon="0.57791">
        <ele>1236.99</ele>
        <time>2015-08-11T09:32:04Z</time>
      </trkpt>
      <trkpt lat="42.91816" lon="0.57786">
        <ele>1240.06</ele>
        <time>2015-08-11T09:32:10Z</time>
      </trkpt>
      <trkpt lat="42.91809" lon="0.57776">
        <ele>1240.98</ele>
        <time>2015-08-11T09:32:22Z</time>
      </trkpt>
      <trkpt lat="42.91801" lon="0.57771">
        <ele>1242.68</ele>
        <time>2015-08-11T09:32:31Z</time>
      </trkpt>
      <trkpt lat="42.91792" lon="0.57776">
        <ele>1240.38</ele>
        <time>2015-08-11T09:32:41Z</time>
      </trkpt>
      <trkpt lat="42.91783" lon="0.57782">
        <ele>1238.05</ele>
        <time>2015-08-11T09:32:51Z</time>
      </trkpt>
      <trkpt lat="42.91774" lon="0.57785">
        <ele>1239</ele>
        <time>2015-08-11T09:33:01Z</time>
      </trkpt>
      <trkpt lat="42.91765" lon="0.57786">
        <ele>1238.21</ele>
        <time>2015-08-11T09:33:12Z</time>
      </trkpt>
      <trkpt lat="42.91755" lon="0.57783">
        <ele>1239.81</ele>
        <time>2015-08-11T09:33:23Z</time>
      </trkpt>
      <trkpt lat="42.91747" lon="0.5779">
        <ele>1239.45</ele>
        <time>2015-08-11T09:33:34Z</time>
      </trkpt>
      <trkpt lat="42.9174" lon="0.57798">
        <ele>1240.91</ele>
        <time>2015-08-11T09:33:45Z</time>
      </trkpt>
      <trkpt lat="42.91736" lon="0.5781">
        <ele>1238.87</ele>
        <time>2015-08-11T09:33:51Z</time>
      </trkpt>
      <trkpt lat="42.91728" lon="0.57804">
        <ele>1244.33</ele>
        <time>2015-08-11T09:34:07Z</time>
      </trkpt>
      <trkpt lat="42.91721" lon="0.57813">
        <ele>1240.91</ele>
        <time>2015-08-11T09:34:13Z</time>
      </trkpt>
      <trkpt lat="42.91716" lon="0.57823">
        <ele>1238.15</ele>
        <time>2015-08-11T09:34:23Z</time>
      </trkpt>
      <trkpt lat="42.91709" lon="0.57832">
        <ele>1236.61</ele>
        <time>2015-08-11T09:34:34Z</time>
      </trkpt>
      <trkpt lat="42.91702" lon="0.5784">
        <ele>1233.26</ele>
        <time>2015-08-11T09:34:47Z</time>
      </trkpt>
      <trkpt lat="42.91698" lon="0.57852">
        <ele>1240.69</ele>
        <time>2015-08-11T09:35:03Z</time>
      </trkpt>
      <trkpt lat="42.91692" lon="0.57862">
        <ele>1243.88</ele>
        <time>2015-08-11T09:35:11Z</time>
      </trkpt>
      <trkpt lat="42.91686" lon="0.57872">
        <ele>1245.15</ele>
        <time>2015-08-11T09:35:18Z</time>
      </trkpt>
      <trkpt lat="42.91679" lon="0.57882">
        <ele>1243.89</ele>
        <time>2015-08-11T09:35:27Z</time>
      </trkpt>
      <trkpt lat="42.91675" lon="0.57894">
        <ele>1234.35</ele>
        <time>2015-08-11T09:35:38Z</time>
      </trkpt>
      <trkpt lat="42.9167" lon="0.57905">
        <ele>1240.08</ele>
        <time>2015-08-11T09:35:49Z</time>
      </trkpt>
      <trkpt lat="42.91664" lon="0.57916">
        <ele>1239.7</ele>
        <time>2015-08-11T09:35:57Z</time>
      </trkpt>
      <trkpt lat="42.91661" lon="0.57928">
        <ele>1239.9</ele>
        <time>2015-08-11T09:36:04Z</time>
      </trkpt>
      <trkpt lat="42.91657" lon="0.57939">
        <ele>1243.38</ele>
        <time>2015-08-11T09:36:11Z</time>
      </trkpt>
      <trkpt lat="42.91655" lon="0.57953">
        <ele>1246.46</ele>
        <time>2015-08-11T09:36:22Z</time>
      </trkpt>
      <trkpt lat="42.91649" lon="0.57964">
        <ele>1247.22</ele>
        <time>2015-08-11T09:36:31Z</time>
      </trkpt>
      <trkpt lat="42.9165" lon="0.57976">
        <ele>1242.8</ele>
        <time>2015-08-11T09:36:38Z</time>
      </trkpt>
      <trkpt lat="42.91644" lon="0.57988">
        <ele>1242.01</ele>
        <time>2015-08-11T09:36:46Z</time>
      </trkpt>
      <trkpt lat="42.91638" lon="0.57998">
        <ele>1237.9</ele>
        <time>2015-08-11T09:36:59Z</time>
      </trkpt>
      <trkpt lat="42.91633" lon="0.58009">
        <ele>1239.27</ele>
        <time>2015-08-11T09:37:08Z</time>
      </trkpt>
      <trkpt lat="42.91627" lon="0.5802">
        <ele>1243.63</ele>
        <time>2015-08-11T09:37:18Z</time>
      </trkpt>
      <trkpt lat="42.91619" lon="0.58024">
        <ele>1250.3</ele>
        <time>2015-08-11T09:37:28Z</time>
      </trkpt>
      <trkpt lat="42.9161" lon="0.58029">
        <ele>1257.71</ele>
        <time>2015-08-11T09:37:37Z</time>
      </trkpt>
      <trkpt lat="42.91602" lon="0.58037">
        <ele>1259.48</ele>
        <time>2015-08-11T09:37:44Z</time>
      </trkpt>
      <trkpt lat="42.91596" lon="0.58048">
        <ele>1257.86</ele>
        <time>2015-08-11T09:37:51Z</time>
      </trkpt>
      <trkpt lat="42.91589" lon="0.58056">
        <ele>1255.72</ele>
        <time>2015-08-11T09:38:02Z</time>
      </trkpt>
      <trkpt lat="42.91583" lon="0.58068">
        <ele>1253.58</ele>
        <time>2015-08-11T09:38:24Z</time>
      </trkpt>
      <trkpt lat="42.9158" lon="0.58083">
        <ele>1251.56</ele>
        <time>2015-08-11T09:38:27Z</time>
      </trkpt>
      <trkpt lat="42.91576" lon="0.58095">
        <ele>1251.8</ele>
        <time>2015-08-11T09:38:30Z</time>
      </trkpt>
      <trkpt lat="42.91572" lon="0.58107">
        <ele>1254.48</ele>
        <time>2015-08-11T09:38:39Z</time>
      </trkpt>
      <trkpt lat="42.91567" lon="0.58118">
        <ele>1255.84</ele>
        <time>2015-08-11T09:38:47Z</time>
      </trkpt>
      <trkpt lat="42.91562" lon="0.58129">
        <ele>1250.35</ele>
        <time>2015-08-11T09:38:53Z</time>
      </trkpt>
      <trkpt lat="42.9156" lon="0.58142">
        <ele>1248.81</ele>
        <time>2015-08-11T09:39:01Z</time>
      </trkpt>
      <trkpt lat="42.91558" lon="0.58155">
        <ele>1251.39</ele>
        <time>2015-08-11T09:39:10Z</time>
      </trkpt>
      <trkpt lat="42.91549" lon="0.5816">
        <ele>1248.74</ele>
        <time>2015-08-11T09:44:25Z</time>
      </trkpt>
      <trkpt lat="42.91559" lon="0.58162">
        <ele>1248.33</ele>
        <time>2015-08-11T09:44:37Z</time>
      </trkpt>
      <trkpt lat="42.91568" lon="0.58164">
        <ele>1249.62</ele>
        <time>2015-08-11T09:45:03Z</time>
      </trkpt>
      <trkpt lat="42.91568" lon="0.5815">
        <ele>1244.98</ele>
        <time>2015-08-11T09:45:52Z</time>
      </trkpt>
      <trkpt lat="42.91568" lon="0.58137">
        <ele>1245.95</ele>
        <time>2015-08-11T09:45:59Z</time>
      </trkpt>
      <trkpt lat="42.91576" lon="0.58128">
        <ele>1248.73</ele>
        <time>2015-08-11T09:46:06Z</time>
      </trkpt>
      <trkpt lat="42.9158" lon="0.58117">
        <ele>1250.05</ele>
        <time>2015-08-11T09:46:18Z</time>
      </trkpt>
      <trkpt lat="42.91585" lon="0.58106">
        <ele>1247.31</ele>
        <time>2015-08-11T09:46:27Z</time>
      </trkpt>
      <trkpt lat="42.91589" lon="0.58095">
        <ele>1247.61</ele>
        <time>2015-08-11T09:46:35Z</time>
      </trkpt>
      <trkpt lat="42.91596" lon="0.58085">
        <ele>1247.69</ele>
        <time>2015-08-11T09:46:45Z</time>
      </trkpt>
      <trkpt lat="42.91602" lon="0.58075">
        <ele>1256.74</ele>
        <time>2015-08-11T09:46:55Z</time>
      </trkpt>
      <trkpt lat="42.9161" lon="0.58068">
        <ele>1258.19</ele>
        <time>2015-08-11T09:47:07Z</time>
      </trkpt>
      <trkpt lat="42.91617" lon="0.58059">
        <ele>1262.51</ele>
        <time>2015-08-11T09:47:21Z</time>
      </trkpt>
      <trkpt lat="42.91627" lon="0.58053">
        <ele>1260.63</ele>
        <time>2015-08-11T09:47:29Z</time>
      </trkpt>
      <trkpt lat="42.91634" lon="0.58046">
        <ele>1257.46</ele>
        <time>2015-08-11T09:47:36Z</time>
      </trkpt>
      <trkpt lat="42.91641" lon="0.58033">
        <ele>1254.02</ele>
        <time>2015-08-11T09:47:54Z</time>
      </trkpt>
      <trkpt lat="42.91649" lon="0.58019">
        <ele>1254.95</ele>
        <time>2015-08-11T09:47:56Z</time>
      </trkpt>
      <trkpt lat="42.91655" lon="0.58009">
        <ele>1255.94</ele>
        <time>2015-08-11T09:47:58Z</time>
      </trkpt>
      <trkpt lat="42.91654" lon="0.57997">
        <ele>1259.28</ele>
        <time>2015-08-11T09:48:05Z</time>
      </trkpt>
      <trkpt lat="42.91654" lon="0.57984">
        <ele>1264.36</ele>
        <time>2015-08-11T09:48:11Z</time>
      </trkpt>
      <trkpt lat="42.91659" lon="0.57973">
        <ele>1265.1</ele>
        <time>2015-08-11T09:48:17Z</time>
      </trkpt>
      <trkpt lat="42.91668" lon="0.57966">
        <ele>1263.55</ele>
        <time>2015-08-11T09:48:24Z</time>
      </trkpt>
      <trkpt lat="42.91671" lon="0.57953">
        <ele>1259.98</ele>
        <time>2015-08-11T09:48:32Z</time>
      </trkpt>
      <trkpt lat="42.91666" lon="0.57941">
        <ele>1257.24</ele>
        <time>2015-08-11T09:48:39Z</time>
      </trkpt>
      <trkpt lat="42.91672" lon="0.57932">
        <ele>1256.31</ele>
        <time>2015-08-11T09:48:45Z</time>
      </trkpt>
      <trkpt lat="42.91675" lon="0.5792">
        <ele>1255.31</ele>
        <time>2015-08-11T09:48:52Z</time>
      </trkpt>
      <trkpt lat="42.91683" lon="0.5791">
        <ele>1252.81</ele>
        <time>2015-08-11T09:49:01Z</time>
      </trkpt>
      <trkpt lat="42.91687" lon="0.57898">
        <ele>1256.62</ele>
        <time>2015-08-11T09:49:10Z</time>
      </trkpt>
      <trkpt lat="42.91691" lon="0.57887">
        <ele>1259.11</ele>
        <time>2015-08-11T09:49:18Z</time>
      </trkpt>
      <trkpt lat="42.91696" lon="0.57874">
        <ele>1258.67</ele>
        <time>2015-08-11T09:49:27Z</time>
      </trkpt>
      <trkpt lat="42.91686" lon="0.57873">
        <ele>1257.8</ele>
        <time>2015-08-11T09:50:23Z</time>
      </trkpt>
      <trkpt lat="42.91677" lon="0.57878">
        <ele>1262.47</ele>
        <time>2015-08-11T09:50:28Z</time>
      </trkpt>
      <trkpt lat="42.91676" lon="0.57891">
        <ele>1258.28</ele>
        <time>2015-08-11T09:50:58Z</time>
      </trkpt>
      <trkpt lat="42.91678" lon="0.57903">
        <ele>1261.49</ele>
        <time>2015-08-11T09:51:09Z</time>
      </trkpt>
      <trkpt lat="42.91673" lon="0.57914">
        <ele>1260.77</ele>
        <time>2015-08-11T09:51:56Z</time>
      </trkpt>
      <trkpt lat="42.91668" lon="0.57925">
        <ele>1259.25</ele>
        <time>2015-08-11T09:52:01Z</time>
      </trkpt>
      <trkpt lat="42.9167" lon="0.57938">
        <ele>1260.56</ele>
        <time>2015-08-11T09:52:10Z</time>
      </trkpt>
      <trkpt lat="42.91667" lon="0.57943">
        <ele>1266.27</ele>
        <time>2015-08-11T09:53:24Z</time>
      </trkpt>
      <trkpt lat="42.91672" lon="0.57954">
        <ele>1256.97</ele>
        <time>2015-08-11T09:55:53Z</time>
      </trkpt>
      <trkpt lat="42.91678" lon="0.57964">
        <ele>1248.86</ele>
        <time>2015-08-11T09:56:37Z</time>
      </trkpt>
      <trkpt lat="42.91683" lon="0.57974">
        <ele>1248.3</ele>
        <time>2015-08-11T09:56:53Z</time>
      </trkpt>
      <trkpt lat="42.91689" lon="0.57985">
        <ele>1249.77</ele>
        <time>2015-08-11T09:57:48Z</time>
      </trkpt>
      <trkpt lat="42.91693" lon="0.57996">
        <ele>1253.63</ele>
        <time>2015-08-11T09:57:56Z</time>
      </trkpt>
      <trkpt lat="42.91699" lon="0.58005">
        <ele>1254.29</ele>
        <time>2015-08-11T09:58:02Z</time>
      </trkpt>
      <trkpt lat="42.91706" lon="0.58014">
        <ele>1265.19</ele>
        <time>2015-08-11T09:58:11Z</time>
      </trkpt>
      <trkpt lat="42.91715" lon="0.58017">
        <ele>1273.77</ele>
        <time>2015-08-11T09:58:44Z</time>
      </trkpt>
      <trkpt lat="42.91726" lon="0.58019">
        <ele>1278.53</ele>
        <time>2015-08-11T09:58:52Z</time>
      </trkpt>
      <trkpt lat="42.91734" lon="0.58024">
        <ele>1278.3</ele>
        <time>2015-08-11T09:58:55Z</time>
      </trkpt>
      <trkpt lat="42.91741" lon="0.58032">
        <ele>1284.77</ele>
        <time>2015-08-11T09:59:01Z</time>
      </trkpt>
      <trkpt lat="42.91749" lon="0.58024">
        <ele>1287.3</ele>
        <time>2015-08-11T09:59:09Z</time>
      </trkpt>
      <trkpt lat="42.91757" lon="0.58018">
        <ele>1289.35</ele>
        <time>2015-08-11T09:59:15Z</time>
      </trkpt>
      <trkpt lat="42.91767" lon="0.5802">
        <ele>1274.52</ele>
        <time>2015-08-11T10:00:16Z</time>
      </trkpt>
      <trkpt lat="42.91775" lon="0.58028">
        <ele>1271.56</ele>
        <time>2015-08-11T10:00:21Z</time>
      </trkpt>
      <trkpt lat="42.91783" lon="0.58035">
        <ele>1275.86</ele>
        <time>2015-08-11T10:00:30Z</time>
      </trkpt>
      <trkpt lat="42.91791" lon="0.5804">
        <ele>1272.35</ele>
        <time>2015-08-11T10:00:43Z</time>
      </trkpt>
      <trkpt lat="42.918" lon="0.58048">
        <ele>1279.27</ele>
        <time>2015-08-11T10:02:16Z</time>
      </trkpt>
      <trkpt lat="42.91809" lon="0.58053">
        <ele>1279.27</ele>
        <time>2015-08-11T10:02:20Z</time>
      </trkpt>
      <trkpt lat="42.91818" lon="0.58056">
        <ele>1278.92</ele>
        <time>2015-08-11T10:02:25Z</time>
      </trkpt>
      <trkpt lat="42.91827" lon="0.58068">
        <ele>1279</ele>
        <time>2015-08-11T10:02:29Z</time>
      </trkpt>
      <trkpt lat="42.91832" lon="0.58079">
        <ele>1281.98</ele>
        <time>2015-08-11T10:02:32Z</time>
      </trkpt>
      <trkpt lat="42.91841" lon="0.58083">
        <ele>1282.64</ele>
        <time>2015-08-11T10:03:47Z</time>
      </trkpt>
      <trkpt lat="42.9185" lon="0.58076">
        <ele>1284.95</ele>
        <time>2015-08-11T10:06:23Z</time>
      </trkpt>
      <trkpt lat="42.91846" lon="0.58063">
        <ele>1292.66</ele>
        <time>2015-08-11T10:06:41Z</time>
      </trkpt>
      <trkpt lat="42.91835" lon="0.58065">
        <ele>1298.84</ele>
        <time>2015-08-11T10:07:42Z</time>
      </trkpt>
      <trkpt lat="42.91826" lon="0.58069">
        <ele>1302.18</ele>
        <time>2015-08-11T10:07:46Z</time>
      </trkpt>
      <trkpt lat="42.91827" lon="0.58082">
        <ele>1301.32</ele>
        <time>2015-08-11T10:07:57Z</time>
      </trkpt>
      <trkpt lat="42.91817" lon="0.58083">
        <ele>1303.71</ele>
        <time>2015-08-11T10:08:03Z</time>
      </trkpt>
      <trkpt lat="42.91815" lon="0.58096">
        <ele>1291.52</ele>
        <time>2015-08-11T10:10:02Z</time>
      </trkpt>
      <trkpt lat="42.91816" lon="0.58109">
        <ele>1285.31</ele>
        <time>2015-08-11T10:10:12Z</time>
      </trkpt>
      <trkpt lat="42.91822" lon="0.58119">
        <ele>965.83</ele>
        <time>2015-08-11T10:11:02Z</time>
      </trkpt>
      <trkpt lat="42.91825" lon="0.58131">
        <ele>1066.97</ele>
        <time>2015-08-11T10:11:09Z</time>
      </trkpt>
      <trkpt lat="42.9183" lon="0.58142">
        <ele>1257.28</ele>
        <time>2015-08-11T10:11:23Z</time>
      </trkpt>
      <trkpt lat="42.91821" lon="0.58141">
        <ele>1311.29</ele>
        <time>2015-08-11T10:16:13Z</time>
      </trkpt>
      <trkpt lat="42.9181" lon="0.58138">
        <ele>1307.59</ele>
        <time>2015-08-11T10:16:20Z</time>
      </trkpt>
      <trkpt lat="42.91788" lon="0.58137">
        <ele>1305.43</ele>
        <time>2015-08-11T10:16:21Z</time>
      </trkpt>
      <trkpt lat="42.91779" lon="0.58132">
        <ele>1303.76</ele>
        <time>2015-08-11T10:17:07Z</time>
      </trkpt>
      <trkpt lat="42.9177" lon="0.58136">
        <ele>1303.71</ele>
        <time>2015-08-11T10:17:13Z</time>
      </trkpt>
      <trkpt lat="42.91761" lon="0.58138">
        <ele>1308.05</ele>
        <time>2015-08-11T10:17:20Z</time>
      </trkpt>
      <trkpt lat="42.91752" lon="0.58131">
        <ele>1308.39</ele>
        <time>2015-08-11T10:17:30Z</time>
      </trkpt>
      <trkpt lat="42.91743" lon="0.58125">
        <ele>1307.8</ele>
        <time>2015-08-11T10:17:32Z</time>
      </trkpt>
      <trkpt lat="42.91733" lon="0.58121">
        <ele>1309.11</ele>
        <time>2015-08-11T10:17:36Z</time>
      </trkpt>
      <trkpt lat="42.91735" lon="0.58135">
        <ele>1307.57</ele>
        <time>2015-08-11T10:17:40Z</time>
      </trkpt>
      <trkpt lat="42.91727" lon="0.58143">
        <ele>1315.02</ele>
        <time>2015-08-11T10:17:53Z</time>
      </trkpt>
      <trkpt lat="42.91718" lon="0.5814">
        <ele>1321.58</ele>
        <time>2015-08-11T10:18:05Z</time>
      </trkpt>
      <trkpt lat="42.91722" lon="0.58151">
        <ele>1320.36</ele>
        <time>2015-08-11T10:18:47Z</time>
      </trkpt>
      <trkpt lat="42.91724" lon="0.58164">
        <ele>1321.49</ele>
        <time>2015-08-11T10:19:52Z</time>
      </trkpt>
      <trkpt lat="42.91731" lon="0.58172">
        <ele>1320.7</ele>
        <time>2015-08-11T10:20:06Z</time>
      </trkpt>
      <trkpt lat="42.91737" lon="0.58182">
        <ele>1322.84</ele>
        <time>2015-08-11T10:20:56Z</time>
      </trkpt>
      <trkpt lat="42.91745" lon="0.58191">
        <ele>1316.17</ele>
        <time>2015-08-11T10:21:28Z</time>
      </trkpt>
      <trkpt lat="42.91752" lon="0.58201">
        <ele>1313.41</ele>
        <time>2015-08-11T10:21:34Z</time>
      </trkpt>
      <trkpt lat="42.91755" lon="0.58212">
        <ele>1317.15</ele>
        <time>2015-08-11T10:21:42Z</time>
      </trkpt>
      <trkpt lat="42.91753" lon="0.58225">
        <ele>1314.61</ele>
        <time>2015-08-11T10:21:58Z</time>
      </trkpt>
      <trkpt lat="42.91754" lon="0.58237">
        <ele>1316.14</ele>
        <time>2015-08-11T10:22:07Z</time>
      </trkpt>
      <trkpt lat="42.91764" lon="0.58245">
        <ele>1321.77</ele>
        <time>2015-08-11T10:23:09Z</time>
      </trkpt>
      <trkpt lat="42.91774" lon="0.58253">
        <ele>1319.33</ele>
        <time>2015-08-11T10:23:12Z</time>
      </trkpt>
      <trkpt lat="42.91783" lon="0.58257">
        <ele>1331.48</ele>
        <time>2015-08-11T10:23:27Z</time>
      </trkpt>
      <trkpt lat="42.91791" lon="0.58263">
        <ele>1334.55</ele>
        <time>2015-08-11T10:24:20Z</time>
      </trkpt>
      <trkpt lat="42.91799" lon="0.58268">
        <ele>1341.27</ele>
        <time>2015-08-11T10:25:02Z</time>
      </trkpt>
      <trkpt lat="42.91806" lon="0.58278">
        <ele>1342.03</ele>
        <time>2015-08-11T10:25:09Z</time>
      </trkpt>
      <trkpt lat="42.91812" lon="0.58287">
        <ele>1342.85</ele>
        <time>2015-08-11T10:25:18Z</time>
      </trkpt>
      <trkpt lat="42.9182" lon="0.58294">
        <ele>1343.24</ele>
        <time>2015-08-11T10:25:27Z</time>
      </trkpt>
      <trkpt lat="42.91828" lon="0.58301">
        <ele>1345.77</ele>
        <time>2015-08-11T10:26:42Z</time>
      </trkpt>
      <trkpt lat="42.91833" lon="0.58311">
        <ele>1348.52</ele>
        <time>2015-08-11T10:27:27Z</time>
      </trkpt>
      <trkpt lat="42.9184" lon="0.58321">
        <ele>1351.25</ele>
        <time>2015-08-11T10:27:36Z</time>
      </trkpt>
      <trkpt lat="42.91848" lon="0.58327">
        <ele>1361.02</ele>
        <time>2015-08-11T10:28:38Z</time>
      </trkpt>
      <trkpt lat="42.91857" lon="0.58329">
        <ele>1373.18</ele>
        <time>2015-08-11T10:28:49Z</time>
      </trkpt>
      <trkpt lat="42.91866" lon="0.58334">
        <ele>1375.16</ele>
        <time>2015-08-11T10:28:59Z</time>
      </trkpt>
      <trkpt lat="42.91878" lon="0.5834">
        <ele>1380.52</ele>
        <time>2015-08-11T10:29:57Z</time>
      </trkpt>
      <trkpt lat="42.91889" lon="0.58347">
        <ele>1382.58</ele>
        <time>2015-08-11T10:29:59Z</time>
      </trkpt>
      <trkpt lat="42.91913" lon="0.58354">
        <ele>1384.85</ele>
        <time>2015-08-11T10:30:01Z</time>
      </trkpt>
      <trkpt lat="42.91926" lon="0.58346">
        <ele>1385.71</ele>
        <time>2015-08-11T10:30:04Z</time>
      </trkpt>
      <trkpt lat="42.91908" lon="0.58345">
        <ele>1387.57</ele>
        <time>2015-08-11T10:30:07Z</time>
      </trkpt>
      <trkpt lat="42.91895" lon="0.58348">
        <ele>1387.56</ele>
        <time>2015-08-11T10:30:12Z</time>
      </trkpt>
      <trkpt lat="42.91875" lon="0.58349">
        <ele>1385.59</ele>
        <time>2015-08-11T10:30:14Z</time>
      </trkpt>
      <trkpt lat="42.91882" lon="0.58359">
        <ele>1393.8</ele>
        <time>2015-08-11T10:30:24Z</time>
      </trkpt>
      <trkpt lat="42.9189" lon="0.58365">
        <ele>1388.52</ele>
        <time>2015-08-11T10:33:26Z</time>
      </trkpt>
      <trkpt lat="42.919" lon="0.5837">
        <ele>1388.62</ele>
        <time>2015-08-11T10:33:31Z</time>
      </trkpt>
      <trkpt lat="42.91912" lon="0.58372">
        <ele>1391.06</ele>
        <time>2015-08-11T10:33:34Z</time>
      </trkpt>
      <trkpt lat="42.91923" lon="0.58375">
        <ele>1388.62</ele>
        <time>2015-08-11T10:33:37Z</time>
      </trkpt>
      <trkpt lat="42.91932" lon="0.58375">
        <ele>1398.27</ele>
        <time>2015-08-11T10:35:04Z</time>
      </trkpt>
      <trkpt lat="42.91942" lon="0.58373">
        <ele>1392.61</ele>
        <time>2015-08-11T10:35:09Z</time>
      </trkpt>
      <trkpt lat="42.91951" lon="0.58373">
        <ele>1397.23</ele>
        <time>2015-08-11T10:35:19Z</time>
      </trkpt>
      <trkpt lat="42.91962" lon="0.58373">
        <ele>1399.55</ele>
        <time>2015-08-11T10:36:21Z</time>
      </trkpt>
      <trkpt lat="42.91971" lon="0.58374">
        <ele>1389.71</ele>
        <time>2015-08-11T10:36:26Z</time>
      </trkpt>
      <trkpt lat="42.9198" lon="0.58375">
        <ele>1342.73</ele>
        <time>2015-08-11T10:36:39Z</time>
      </trkpt>
      <trkpt lat="42.91988" lon="0.58387">
        <ele>1391.3</ele>
        <time>2015-08-11T10:37:12Z</time>
      </trkpt>
      <trkpt lat="42.91995" lon="0.58395">
        <ele>1398.27</ele>
        <time>2015-08-11T10:37:16Z</time>
      </trkpt>
      <trkpt lat="42.92004" lon="0.584">
        <ele>1405.45</ele>
        <time>2015-08-11T10:39:22Z</time>
      </trkpt>
      <trkpt lat="42.92" lon="0.58412">
        <ele>1405.2</ele>
        <time>2015-08-11T10:39:51Z</time>
      </trkpt>
      <trkpt lat="42.91992" lon="0.58419">
        <ele>1408.44</ele>
        <time>2015-08-11T10:40:03Z</time>
      </trkpt>
      <trkpt lat="42.91983" lon="0.58417">
        <ele>1398.3</ele>
        <time>2015-08-11T10:40:31Z</time>
      </trkpt>
      <trkpt lat="42.91976" lon="0.58425">
        <ele>1414.97</ele>
        <time>2015-08-11T10:41:40Z</time>
      </trkpt>
      <trkpt lat="42.91969" lon="0.58433">
        <ele>1422.7</ele>
        <time>2015-08-11T10:43:20Z</time>
      </trkpt>
      <trkpt lat="42.91973" lon="0.58445">
        <ele>1399.75</ele>
        <time>2015-08-11T10:43:50Z</time>
      </trkpt>
      <trkpt lat="42.91977" lon="0.58456">
        <ele>1407.92</ele>
        <time>2015-08-11T10:44:03Z</time>
      </trkpt>
      <trkpt lat="42.91984" lon="0.58466">
        <ele>1419.58</ele>
        <time>2015-08-11T10:45:53Z</time>
      </trkpt>
      <trkpt lat="42.91991" lon="0.58474">
        <ele>1420.3</ele>
        <time>2015-08-11T10:46:10Z</time>
      </trkpt>
      <trkpt lat="42.91995" lon="0.58486">
        <ele>1421.07</ele>
        <time>2015-08-11T10:47:04Z</time>
      </trkpt>
      <trkpt lat="42.91997" lon="0.58499">
        <ele>1418.77</ele>
        <time>2015-08-11T10:47:55Z</time>
      </trkpt>
      <trkpt lat="42.91993" lon="0.58511">
        <ele>1427.39</ele>
        <time>2015-08-11T10:48:47Z</time>
      </trkpt>
      <trkpt lat="42.91987" lon="0.58522">
        <ele>1426.76</ele>
        <time>2015-08-11T10:48:56Z</time>
      </trkpt>
      <trkpt lat="42.91978" lon="0.58521">
        <ele>1426.16</ele>
        <time>2015-08-11T10:49:03Z</time>
      </trkpt>
      <trkpt lat="42.91968" lon="0.58524">
        <ele>1440.51</ele>
        <time>2015-08-11T10:50:34Z</time>
      </trkpt>
      <trkpt lat="42.91959" lon="0.58522">
        <ele>1441.69</ele>
        <time>2015-08-11T10:50:43Z</time>
      </trkpt>
      <trkpt lat="42.91951" lon="0.58529">
        <ele>1444.86</ele>
        <time>2015-08-11T10:54:34Z</time>
      </trkpt>
      <trkpt lat="42.91944" lon="0.58537">
        <ele>1443.95</ele>
        <time>2015-08-11T10:54:45Z</time>
      </trkpt>
      <trkpt lat="42.91937" lon="0.58546">
        <ele>1445.01</ele>
        <time>2015-08-11T10:54:59Z</time>
      </trkpt>
      <trkpt lat="42.91927" lon="0.58546">
        <ele>1446.55</ele>
        <time>2015-08-11T10:57:27Z</time>
      </trkpt>
      <trkpt lat="42.91918" lon="0.58546">
        <ele>1445.49</ele>
        <time>2015-08-11T10:57:55Z</time>
      </trkpt>
      <trkpt lat="42.91911" lon="0.58554">
        <ele>1444.29</ele>
        <time>2015-08-11T10:58:10Z</time>
      </trkpt>
      <trkpt lat="42.91904" lon="0.58563">
        <ele>1449.18</ele>
        <time>2015-08-11T10:58:21Z</time>
      </trkpt>
      <trkpt lat="42.91897" lon="0.58571">
        <ele>1447.53</ele>
        <time>2015-08-11T10:58:30Z</time>
      </trkpt>
      <trkpt lat="42.91891" lon="0.5858">
        <ele>1454.79</ele>
        <time>2015-08-11T10:58:47Z</time>
      </trkpt>
      <trkpt lat="42.91892" lon="0.58593">
        <ele>1453.64</ele>
        <time>2015-08-11T10:59:08Z</time>
      </trkpt>
      <trkpt lat="42.91888" lon="0.58604">
        <ele>1455.36</ele>
        <time>2015-08-11T10:59:17Z</time>
      </trkpt>
      <trkpt lat="42.91886" lon="0.58616">
        <ele>1460.16</ele>
        <time>2015-08-11T10:59:27Z</time>
      </trkpt>
      <trkpt lat="42.91882" lon="0.58628">
        <ele>1462.86</ele>
        <time>2015-08-11T10:59:55Z</time>
      </trkpt>
      <trkpt lat="42.91879" lon="0.5864">
        <ele>1459.42</ele>
        <time>2015-08-11T11:00:12Z</time>
      </trkpt>
      <trkpt lat="42.91879" lon="0.58653">
        <ele>1460.41</ele>
        <time>2015-08-11T11:01:11Z</time>
      </trkpt>
      <trkpt lat="42.91879" lon="0.58667">
        <ele>1469.02</ele>
        <time>2015-08-11T11:01:44Z</time>
      </trkpt>
      <trkpt lat="42.91878" lon="0.58681">
        <ele>1475.4</ele>
        <time>2015-08-11T11:01:50Z</time>
      </trkpt>
      <trkpt lat="42.91884" lon="0.58692">
        <ele>1480.53</ele>
        <time>2015-08-11T11:02:41Z</time>
      </trkpt>
      <trkpt lat="42.91887" lon="0.58704">
        <ele>1479.29</ele>
        <time>2015-08-11T11:02:48Z</time>
      </trkpt>
      <trkpt lat="42.91889" lon="0.58717">
        <ele>1478.67</ele>
        <time>2015-08-11T11:03:17Z</time>
      </trkpt>
      <trkpt lat="42.91889" lon="0.58729">
        <ele>1476.55</ele>
        <time>2015-08-11T11:03:26Z</time>
      </trkpt>
      <trkpt lat="42.91888" lon="0.58742">
        <ele>1478.94</ele>
        <time>2015-08-11T11:03:47Z</time>
      </trkpt>
      <trkpt lat="42.91888" lon="0.58754">
        <ele>1480.1</ele>
        <time>2015-08-11T11:04:01Z</time>
      </trkpt>
      <trkpt lat="42.91889" lon="0.58766">
        <ele>1473.7</ele>
        <time>2015-08-11T11:04:48Z</time>
      </trkpt>
      <trkpt lat="42.91895" lon="0.58775">
        <ele>1479.01</ele>
        <time>2015-08-11T11:05:20Z</time>
      </trkpt>
      <trkpt lat="42.91899" lon="0.58786">
        <ele>1484.24</ele>
        <time>2015-08-11T11:05:49Z</time>
      </trkpt>
      <trkpt lat="42.91898" lon="0.58799">
        <ele>1483.1</ele>
        <time>2015-08-11T11:06:04Z</time>
      </trkpt>
      <trkpt lat="42.919" lon="0.58811">
        <ele>1486.61</ele>
        <time>2015-08-11T11:06:16Z</time>
      </trkpt>
      <trkpt lat="42.919" lon="0.58823">
        <ele>1486.26</ele>
        <time>2015-08-11T11:06:31Z</time>
      </trkpt>
      <trkpt lat="42.91908" lon="0.5883">
        <ele>1488.95</ele>
        <time>2015-08-11T11:07:23Z</time>
      </trkpt>
      <trkpt lat="42.91906" lon="0.58818">
        <ele>1493.35</ele>
        <time>2015-08-11T11:13:20Z</time>
      </trkpt>
      <trkpt lat="42.91901" lon="0.58829">
        <ele>1495.22</ele>
        <time>2015-08-11T11:13:55Z</time>
      </trkpt>
      <trkpt lat="42.91903" lon="0.58841">
        <ele>1497.25</ele>
        <time>2015-08-11T11:52:06Z</time>
      </trkpt>
      <trkpt lat="42.91913" lon="0.58843">
        <ele>1498.04</ele>
        <time>2015-08-11T11:52:26Z</time>
      </trkpt>
      <trkpt lat="42.91921" lon="0.58848">
        <ele>1495.43</ele>
        <time>2015-08-11T11:52:41Z</time>
      </trkpt>
      <trkpt lat="42.9193" lon="0.58851">
        <ele>1492.91</ele>
        <time>2015-08-11T11:52:50Z</time>
      </trkpt>
      <trkpt lat="42.91936" lon="0.58861">
        <ele>1503.8</ele>
        <time>2015-08-11T11:53:46Z</time>
      </trkpt>
      <trkpt lat="42.91942" lon="0.58871">
        <ele>1501.39</ele>
        <time>2015-08-11T11:53:57Z</time>
      </trkpt>
      <trkpt lat="42.91941" lon="0.58884">
        <ele>1501.28</ele>
        <time>2015-08-11T11:54:20Z</time>
      </trkpt>
      <trkpt lat="42.91944" lon="0.58897">
        <ele>1502.78</ele>
        <time>2015-08-11T11:54:30Z</time>
      </trkpt>
      <trkpt lat="42.91948" lon="0.58909">
        <ele>1502.16</ele>
        <time>2015-08-11T11:54:40Z</time>
      </trkpt>
      <trkpt lat="42.91951" lon="0.58921">
        <ele>1504.14</ele>
        <time>2015-08-11T11:54:51Z</time>
      </trkpt>
      <trkpt lat="42.91954" lon="0.58933">
        <ele>1504.35</ele>
        <time>2015-08-11T11:55:16Z</time>
      </trkpt>
      <trkpt lat="42.91955" lon="0.58945">
        <ele>1506.28</ele>
        <time>2015-08-11T11:55:38Z</time>
      </trkpt>
      <trkpt lat="42.91955" lon="0.58958">
        <ele>1507.47</ele>
        <time>2015-08-11T11:55:55Z</time>
      </trkpt>
      <trkpt lat="42.91961" lon="0.58968">
        <ele>1510.85</ele>
        <time>2015-08-11T11:56:06Z</time>
      </trkpt>
      <trkpt lat="42.91963" lon="0.5898">
        <ele>1512.27</ele>
        <time>2015-08-11T11:56:18Z</time>
      </trkpt>
      <trkpt lat="42.91963" lon="0.58993">
        <ele>1516.16</ele>
        <time>2015-08-11T11:56:39Z</time>
      </trkpt>
      <trkpt lat="42.91962" lon="0.59006">
        <ele>1517.4</ele>
        <time>2015-08-11T11:56:59Z</time>
      </trkpt>
      <trkpt lat="42.91963" lon="0.59019">
        <ele>1520.49</ele>
        <time>2015-08-11T11:57:21Z</time>
      </trkpt>
      <trkpt lat="42.91963" lon="0.59031">
        <ele>1523.95</ele>
        <time>2015-08-11T11:57:36Z</time>
      </trkpt>
      <trkpt lat="42.91961" lon="0.59043">
        <ele>1526.26</ele>
        <time>2015-08-11T11:57:54Z</time>
      </trkpt>
      <trkpt lat="42.91958" lon="0.59055">
        <ele>1527</ele>
        <time>2015-08-11T11:58:12Z</time>
      </trkpt>
      <trkpt lat="42.91957" lon="0.59068">
        <ele>1530.05</ele>
        <time>2015-08-11T11:58:28Z</time>
      </trkpt>
      <trkpt lat="42.91959" lon="0.59079">
        <ele>1531.39</ele>
        <time>2015-08-11T11:58:43Z</time>
      </trkpt>
      <trkpt lat="42.91955" lon="0.5909">
        <ele>1531.03</ele>
        <time>2015-08-11T11:58:56Z</time>
      </trkpt>
      <trkpt lat="42.91951" lon="0.59102">
        <ele>1533.03</ele>
        <time>2015-08-11T11:59:15Z</time>
      </trkpt>
      <trkpt lat="42.91956" lon="0.59113">
        <ele>1535.2</ele>
        <time>2015-08-11T11:59:28Z</time>
      </trkpt>
      <trkpt lat="42.9196" lon="0.59124">
        <ele>1539.13</ele>
        <time>2015-08-11T11:59:49Z</time>
      </trkpt>
      <trkpt lat="42.9196" lon="0.59137">
        <ele>1536.69</ele>
        <time>2015-08-11T12:00:09Z</time>
      </trkpt>
      <trkpt lat="42.91959" lon="0.5915">
        <ele>1542.62</ele>
        <time>2015-08-11T12:00:27Z</time>
      </trkpt>
      <trkpt lat="42.91959" lon="0.59162">
        <ele>1543.74</ele>
        <time>2015-08-11T12:00:51Z</time>
      </trkpt>
      <trkpt lat="42.9196" lon="0.59175">
        <ele>1547.72</ele>
        <time>2015-08-11T12:01:07Z</time>
      </trkpt>
      <trkpt lat="42.91953" lon="0.59184">
        <ele>1546.67</ele>
        <time>2015-08-11T12:01:28Z</time>
      </trkpt>
      <trkpt lat="42.91957" lon="0.59195">
        <ele>1549.81</ele>
        <time>2015-08-11T12:01:43Z</time>
      </trkpt>
      <trkpt lat="42.91958" lon="0.59208">
        <ele>1555.14</ele>
        <time>2015-08-11T12:02:10Z</time>
      </trkpt>
      <trkpt lat="42.91957" lon="0.59221">
        <ele>1557.39</ele>
        <time>2015-08-11T12:02:32Z</time>
      </trkpt>
      <trkpt lat="42.91961" lon="0.59232">
        <ele>1557.83</ele>
        <time>2015-08-11T12:02:58Z</time>
      </trkpt>
      <trkpt lat="42.91968" lon="0.59241">
        <ele>1556.74</ele>
        <time>2015-08-11T12:03:26Z</time>
      </trkpt>
      <trkpt lat="42.91971" lon="0.59253">
        <ele>1561.69</ele>
        <time>2015-08-11T12:03:53Z</time>
      </trkpt>
      <trkpt lat="42.9197" lon="0.59265">
        <ele>1566.98</ele>
        <time>2015-08-11T12:05:29Z</time>
      </trkpt>
      <trkpt lat="42.91973" lon="0.59277">
        <ele>1568.29</ele>
        <time>2015-08-11T12:05:50Z</time>
      </trkpt>
      <trkpt lat="42.91975" lon="0.59289">
        <ele>1570.2</ele>
        <time>2015-08-11T12:06:13Z</time>
      </trkpt>
      <trkpt lat="42.91974" lon="0.59302">
        <ele>1569.02</ele>
        <time>2015-08-11T12:06:43Z</time>
      </trkpt>
      <trkpt lat="42.9198" lon="0.59311">
        <ele>1573.53</ele>
        <time>2015-08-11T12:06:58Z</time>
      </trkpt>
      <trkpt lat="42.91981" lon="0.59324">
        <ele>1576.74</ele>
        <time>2015-08-11T12:07:19Z</time>
      </trkpt>
      <trkpt lat="42.91976" lon="0.59334">
        <ele>1574.1</ele>
        <time>2015-08-11T12:07:35Z</time>
      </trkpt>
      <trkpt lat="42.91968" lon="0.59341">
        <ele>1570.16</ele>
        <time>2015-08-11T12:08:15Z</time>
      </trkpt>
      <trkpt lat="42.91967" lon="0.59354">
        <ele>1585.44</ele>
        <time>2015-08-11T12:09:18Z</time>
      </trkpt>
      <trkpt lat="42.91965" lon="0.59366">
        <ele>1588.54</ele>
        <time>2015-08-11T12:09:46Z</time>
      </trkpt>
      <trkpt lat="42.91958" lon="0.59375">
        <ele>1487.2</ele>
        <time>2015-08-11T12:09:59Z</time>
      </trkpt>
      <trkpt lat="42.91956" lon="0.59388">
        <ele>1593.76</ele>
        <time>2015-08-11T12:11:06Z</time>
      </trkpt>
      <trkpt lat="42.91952" lon="0.59399">
        <ele>1596.67</ele>
        <time>2015-08-11T12:12:06Z</time>
      </trkpt>
      <trkpt lat="42.91953" lon="0.59412">
        <ele>1600.77</ele>
        <time>2015-08-11T12:13:14Z</time>
      </trkpt>
      <trkpt lat="42.91956" lon="0.59424">
        <ele>1601.13</ele>
        <time>2015-08-11T12:14:03Z</time>
      </trkpt>
      <trkpt lat="42.91953" lon="0.59436">
        <ele>1609.06</ele>
        <time>2015-08-11T12:14:35Z</time>
      </trkpt>
      <trkpt lat="42.91944" lon="0.5944">
        <ele>1613.28</ele>
        <time>2015-08-11T12:15:13Z</time>
      </trkpt>
      <trkpt lat="42.91937" lon="0.59447">
        <ele>1616.63</ele>
        <time>2015-08-11T12:15:34Z</time>
      </trkpt>
      <trkpt lat="42.91938" lon="0.5946">
        <ele>1622.16</ele>
        <time>2015-08-11T12:16:40Z</time>
      </trkpt>
      <trkpt lat="42.91938" lon="0.59472">
        <ele>1588.74</ele>
        <time>2015-08-11T12:16:59Z</time>
      </trkpt>
      <trkpt lat="42.91932" lon="0.59482">
        <ele>1630.03</ele>
        <time>2015-08-11T12:17:55Z</time>
      </trkpt>
      <trkpt lat="42.91927" lon="0.59493">
        <ele>1630.95</ele>
        <time>2015-08-11T12:18:35Z</time>
      </trkpt>
      <trkpt lat="42.91925" lon="0.59505">
        <ele>1634.01</ele>
        <time>2015-08-11T12:18:59Z</time>
      </trkpt>
      <trkpt lat="42.9192" lon="0.59515">
        <ele>1613.58</ele>
        <time>2015-08-11T12:19:47Z</time>
      </trkpt>
      <trkpt lat="42.91922" lon="0.59528">
        <ele>1640.69</ele>
        <time>2015-08-11T12:20:14Z</time>
      </trkpt>
      <trkpt lat="42.9192" lon="0.5954">
        <ele>1639.25</ele>
        <time>2015-08-11T12:20:47Z</time>
      </trkpt>
      <trkpt lat="42.91914" lon="0.59549">
        <ele>1643.21</ele>
        <time>2015-08-11T12:21:12Z</time>
      </trkpt>
      <trkpt lat="42.9191" lon="0.59561">
        <ele>1642.34</ele>
        <time>2015-08-11T12:21:26Z</time>
      </trkpt>
      <trkpt lat="42.91905" lon="0.59572">
        <ele>1646.85</ele>
        <time>2015-08-11T12:21:56Z</time>
      </trkpt>
      <trkpt lat="42.91901" lon="0.59584">
        <ele>1648.23</ele>
        <time>2015-08-11T12:22:11Z</time>
      </trkpt>
      <trkpt lat="42.91894" lon="0.59592">
        <ele>1644.26</ele>
        <time>2015-08-11T12:22:30Z</time>
      </trkpt>
      <trkpt lat="42.9189" lon="0.59604">
        <ele>1655.63</ele>
        <time>2015-08-11T12:22:49Z</time>
      </trkpt>
      <trkpt lat="42.91885" lon="0.59614">
        <ele>1656.54</ele>
        <time>2015-08-11T12:23:15Z</time>
      </trkpt>
      <trkpt lat="42.91879" lon="0.59623">
        <ele>1651.57</ele>
        <time>2015-08-11T12:23:55Z</time>
      </trkpt>
      <trkpt lat="42.91877" lon="0.59635">
        <ele>1656.84</ele>
        <time>2015-08-11T12:24:14Z</time>
      </trkpt>
      <trkpt lat="42.91875" lon="0.59648">
        <ele>1658.25</ele>
        <time>2015-08-11T12:24:29Z</time>
      </trkpt>
      <trkpt lat="42.91869" lon="0.59657">
        <ele>1666.45</ele>
        <time>2015-08-11T12:24:44Z</time>
      </trkpt>
      <trkpt lat="42.91867" lon="0.59669">
        <ele>1667.25</ele>
        <time>2015-08-11T12:25:03Z</time>
      </trkpt>
      <trkpt lat="42.91862" lon="0.5968">
        <ele>1663.1</ele>
        <time>2015-08-11T12:25:25Z</time>
      </trkpt>
      <trkpt lat="42.91862" lon="0.59693">
        <ele>1665</ele>
        <time>2015-08-11T12:25:45Z</time>
      </trkpt>
      <trkpt lat="42.91858" lon="0.59704">
        <ele>1667.73</ele>
        <time>2015-08-11T12:26:04Z</time>
      </trkpt>
      <trkpt lat="42.91855" lon="0.59715">
        <ele>1672.22</ele>
        <time>2015-08-11T12:26:40Z</time>
      </trkpt>
      <trkpt lat="42.91863" lon="0.5972">
        <ele>1681.28</ele>
        <time>2015-08-11T12:39:47Z</time>
      </trkpt>
      <trkpt lat="42.91873" lon="0.59717">
        <ele>1680.71</ele>
        <time>2015-08-11T12:40:00Z</time>
      </trkpt>
      <trkpt lat="42.91882" lon="0.59716">
        <ele>1682.31</ele>
        <time>2015-08-11T12:40:14Z</time>
      </trkpt>
      <trkpt lat="42.91891" lon="0.59712">
        <ele>1681.28</ele>
        <time>2015-08-11T12:40:26Z</time>
      </trkpt>
      <trkpt lat="42.919" lon="0.59708">
        <ele>1655.38</ele>
        <time>2015-08-11T12:40:50Z</time>
      </trkpt>
      <trkpt lat="42.91908" lon="0.59699">
        <ele>1667.34</ele>
        <time>2015-08-11T12:40:58Z</time>
      </trkpt>
      <trkpt lat="42.91916" lon="0.59695">
        <ele>1666.81</ele>
        <time>2015-08-11T12:41:05Z</time>
      </trkpt>
      <trkpt lat="42.91926" lon="0.59692">
        <ele>1656.09</ele>
        <time>2015-08-11T12:41:17Z</time>
      </trkpt>
      <trkpt lat="42.91934" lon="0.59684">
        <ele>1664.53</ele>
        <time>2015-08-11T12:41:30Z</time>
      </trkpt>
      <trkpt lat="42.91943" lon="0.59679">
        <ele>1664.03</ele>
        <time>2015-08-11T12:41:41Z</time>
      </trkpt>
      <trkpt lat="42.91952" lon="0.59673">
        <ele>1660.43</ele>
        <time>2015-08-11T12:41:51Z</time>
      </trkpt>
      <trkpt lat="42.9196" lon="0.59665">
        <ele>1658.36</ele>
        <time>2015-08-11T12:42:02Z</time>
      </trkpt>
      <trkpt lat="42.91969" lon="0.59663">
        <ele>1650.76</ele>
        <time>2015-08-11T12:42:13Z</time>
      </trkpt>
      <trkpt lat="42.91978" lon="0.59662">
        <ele>1651.14</ele>
        <time>2015-08-11T12:42:27Z</time>
      </trkpt>
      <trkpt lat="42.91988" lon="0.59662">
        <ele>1647.19</ele>
        <time>2015-08-11T12:42:39Z</time>
      </trkpt>
      <trkpt lat="42.91997" lon="0.59662">
        <ele>1654.94</ele>
        <time>2015-08-11T12:42:53Z</time>
      </trkpt>
      <trkpt lat="42.92006" lon="0.59665">
        <ele>1662.66</ele>
        <time>2015-08-11T12:43:11Z</time>
      </trkpt>
      <trkpt lat="42.92016" lon="0.59661">
        <ele>1664.14</ele>
        <time>2015-08-11T12:43:23Z</time>
      </trkpt>
      <trkpt lat="42.92025" lon="0.59658">
        <ele>1656.84</ele>
        <time>2015-08-11T12:43:33Z</time>
      </trkpt>
      <trkpt lat="42.92034" lon="0.59655">
        <ele>1659.31</ele>
        <time>2015-08-11T12:44:16Z</time>
      </trkpt>
      <trkpt lat="42.92043" lon="0.59653">
        <ele>1652.64</ele>
        <time>2015-08-11T12:45:05Z</time>
      </trkpt>
      <trkpt lat="42.92052" lon="0.5965">
        <ele>1655.07</ele>
        <time>2015-08-11T12:45:27Z</time>
      </trkpt>
      <trkpt lat="42.92062" lon="0.59649">
        <ele>1640.42</ele>
        <time>2015-08-11T12:46:07Z</time>
      </trkpt>
      <trkpt lat="42.9207" lon="0.59643">
        <ele>1638.87</ele>
        <time>2015-08-11T12:46:27Z</time>
      </trkpt>
      <trkpt lat="42.92078" lon="0.59639">
        <ele>1628.34</ele>
        <time>2015-08-11T12:47:04Z</time>
      </trkpt>
      <trkpt lat="42.92088" lon="0.59642">
        <ele>1628.27</ele>
        <time>2015-08-11T12:47:29Z</time>
      </trkpt>
      <trkpt lat="42.92096" lon="0.59638">
        <ele>1622.33</ele>
        <time>2015-08-11T12:48:14Z</time>
      </trkpt>
      <trkpt lat="42.92105" lon="0.59635">
        <ele>1602.97</ele>
        <time>2015-08-11T12:48:45Z</time>
      </trkpt>
      <trkpt lat="42.92114" lon="0.59634">
        <ele>1611.27</ele>
        <time>2015-08-11T12:49:15Z</time>
      </trkpt>
      <trkpt lat="42.92124" lon="0.59631">
        <ele>1607.09</ele>
        <time>2015-08-11T12:49:56Z</time>
      </trkpt>
      <trkpt lat="42.92131" lon="0.59624">
        <ele>1603.43</ele>
        <time>2015-08-11T12:50:17Z</time>
      </trkpt>
      <trkpt lat="42.9214" lon="0.59627">
        <ele>1598.2</ele>
        <time>2015-08-11T12:50:42Z</time>
      </trkpt>
      <trkpt lat="42.92149" lon="0.59624">
        <ele>1593.04</ele>
        <time>2015-08-11T12:51:26Z</time>
      </trkpt>
      <trkpt lat="42.92157" lon="0.59618">
        <ele>1589.53</ele>
        <time>2015-08-11T12:51:58Z</time>
      </trkpt>
      <trkpt lat="42.92166" lon="0.59613">
        <ele>1588.3</ele>
        <time>2015-08-11T12:52:15Z</time>
      </trkpt>
      <trkpt lat="42.92173" lon="0.59606">
        <ele>1587.71</ele>
        <time>2015-08-11T12:52:51Z</time>
      </trkpt>
      <trkpt lat="42.92182" lon="0.59607">
        <ele>1580.8</ele>
        <time>2015-08-11T12:53:03Z</time>
      </trkpt>
      <trkpt lat="42.92189" lon="0.59615">
        <ele>1577.01</ele>
        <time>2015-08-11T12:53:28Z</time>
      </trkpt>
      <trkpt lat="42.92198" lon="0.5962">
        <ele>1601.38</ele>
        <time>2015-08-11T12:53:45Z</time>
      </trkpt>
      <trkpt lat="42.92205" lon="0.59627">
        <ele>1581.24</ele>
        <time>2015-08-11T12:53:58Z</time>
      </trkpt>
      <trkpt lat="42.92214" lon="0.59624">
        <ele>1571.1</ele>
        <time>2015-08-11T12:54:18Z</time>
      </trkpt>
      <trkpt lat="42.92221" lon="0.59632">
        <ele>1570.42</ele>
        <time>2015-08-11T12:54:30Z</time>
      </trkpt>
      <trkpt lat="42.9223" lon="0.59635">
        <ele>1565.4</ele>
        <time>2015-08-11T12:55:01Z</time>
      </trkpt>
      <trkpt lat="42.92234" lon="0.59647">
        <ele>1565.76</ele>
        <time>2015-08-11T12:55:37Z</time>
      </trkpt>
      <trkpt lat="42.92234" lon="0.5966">
        <ele>1562.3</ele>
        <time>2015-08-11T12:55:59Z</time>
      </trkpt>
      <trkpt lat="42.92239" lon="0.59671">
        <ele>1561.34</ele>
        <time>2015-08-11T12:56:11Z</time>
      </trkpt>
      <trkpt lat="42.92243" lon="0.59682">
        <ele>1557.76</ele>
        <time>2015-08-11T12:56:31Z</time>
      </trkpt>
      <trkpt lat="42.92245" lon="0.59695">
        <ele>1557.29</ele>
        <time>2015-08-11T12:56:44Z</time>
      </trkpt>
      <trkpt lat="42.92249" lon="0.59707">
        <ele>1556.04</ele>
        <time>2015-08-11T12:56:54Z</time>
      </trkpt>
      <trkpt lat="42.92254" lon="0.59719">
        <ele>1554.67</ele>
        <time>2015-08-11T12:57:02Z</time>
      </trkpt>
      <trkpt lat="42.92257" lon="0.59731">
        <ele>1552.29</ele>
        <time>2015-08-11T12:57:12Z</time>
      </trkpt>
      <trkpt lat="42.92263" lon="0.59741">
        <ele>1547.67</ele>
        <time>2015-08-11T12:57:22Z</time>
      </trkpt>
      <trkpt lat="42.92272" lon="0.59745">
        <ele>1545.91</ele>
        <time>2015-08-11T12:57:35Z</time>
      </trkpt>
      <trkpt lat="42.92281" lon="0.59749">
        <ele>1542.95</ele>
        <time>2015-08-11T12:57:46Z</time>
      </trkpt>
      <trkpt lat="42.92288" lon="0.59758">
        <ele>1545.63</ele>
        <time>2015-08-11T12:57:56Z</time>
      </trkpt>
      <trkpt lat="42.92295" lon="0.59767">
        <ele>1544.28</ele>
        <time>2015-08-11T12:58:05Z</time>
      </trkpt>
      <trkpt lat="42.92303" lon="0.59772">
        <ele>1545.6</ele>
        <time>2015-08-11T12:58:15Z</time>
      </trkpt>
      <trkpt lat="42.92313" lon="0.59772">
        <ele>1549.33</ele>
        <time>2015-08-11T12:58:27Z</time>
      </trkpt>
      <trkpt lat="42.92321" lon="0.59777">
        <ele>1545.41</ele>
        <time>2015-08-11T12:58:41Z</time>
      </trkpt>
      <trkpt lat="42.92329" lon="0.59784">
        <ele>1546.75</ele>
        <time>2015-08-11T12:58:51Z</time>
      </trkpt>
      <trkpt lat="42.92336" lon="0.59791">
        <ele>1544.3</ele>
        <time>2015-08-11T12:59:04Z</time>
      </trkpt>
      <trkpt lat="42.92346" lon="0.59792">
        <ele>1542.28</ele>
        <time>2015-08-11T12:59:20Z</time>
      </trkpt>
      <trkpt lat="42.92353" lon="0.59801">
        <ele>1543.31</ele>
        <time>2015-08-11T12:59:58Z</time>
      </trkpt>
      <trkpt lat="42.92357" lon="0.59813">
        <ele>1546.02</ele>
        <time>2015-08-11T13:00:20Z</time>
      </trkpt>
      <trkpt lat="42.9236" lon="0.59825">
        <ele>1544.75</ele>
        <time>2015-08-11T13:00:47Z</time>
      </trkpt>
      <trkpt lat="42.92359" lon="0.59837">
        <ele>1544.66</ele>
        <time>2015-08-11T13:00:57Z</time>
      </trkpt>
      <trkpt lat="42.92366" lon="0.59846">
        <ele>1545.24</ele>
        <time>2015-08-11T13:01:12Z</time>
      </trkpt>
      <trkpt lat="42.92375" lon="0.59848">
        <ele>1542.56</ele>
        <time>2015-08-11T13:01:31Z</time>
      </trkpt>
      <trkpt lat="42.92385" lon="0.59851">
        <ele>1536.34</ele>
        <time>2015-08-11T13:01:47Z</time>
      </trkpt>
      <trkpt lat="42.92392" lon="0.59859">
        <ele>1533.29</ele>
        <time>2015-08-11T13:02:02Z</time>
      </trkpt>
      <trkpt lat="42.92401" lon="0.59864">
        <ele>1529.86</ele>
        <time>2015-08-11T13:02:15Z</time>
      </trkpt>
      <trkpt lat="42.92409" lon="0.59869">
        <ele>1539.72</ele>
        <time>2015-08-11T13:02:29Z</time>
      </trkpt>
      <trkpt lat="42.92418" lon="0.59871">
        <ele>1528.91</ele>
        <time>2015-08-11T13:02:44Z</time>
      </trkpt>
      <trkpt lat="42.92427" lon="0.59871">
        <ele>1531.74</ele>
        <time>2015-08-11T13:02:53Z</time>
      </trkpt>
      <trkpt lat="42.92436" lon="0.59865">
        <ele>1527.27</ele>
        <time>2015-08-11T13:04:47Z</time>
      </trkpt>
      <trkpt lat="42.92445" lon="0.59859">
        <ele>1526.76</ele>
        <time>2015-08-11T13:04:56Z</time>
      </trkpt>
      <trkpt lat="42.9245" lon="0.59849">
        <ele>1524.25</ele>
        <time>2015-08-11T13:05:46Z</time>
      </trkpt>
      <trkpt lat="42.92442" lon="0.59855">
        <ele>1533.89</ele>
        <time>2015-08-11T13:08:11Z</time>
      </trkpt>
      <trkpt lat="42.9245" lon="0.59848">
        <ele>1531.27</ele>
        <time>2015-08-11T13:08:42Z</time>
      </trkpt>
      <trkpt lat="42.92458" lon="0.59842">
        <ele>1532.14</ele>
        <time>2015-08-11T13:08:58Z</time>
      </trkpt>
      <trkpt lat="42.92469" lon="0.5984">
        <ele>1533.47</ele>
        <time>2015-08-11T13:09:09Z</time>
      </trkpt>
      <trkpt lat="42.92479" lon="0.59841">
        <ele>1532.77</ele>
        <time>2015-08-11T13:09:17Z</time>
      </trkpt>
      <trkpt lat="42.92489" lon="0.5984">
        <ele>1528.62</ele>
        <time>2015-08-11T13:09:24Z</time>
      </trkpt>
      <trkpt lat="42.92498" lon="0.59835">
        <ele>1531.37</ele>
        <time>2015-08-11T13:09:32Z</time>
      </trkpt>
      <trkpt lat="42.92508" lon="0.59829">
        <ele>1534.67</ele>
        <time>2015-08-11T13:09:41Z</time>
      </trkpt>
      <trkpt lat="42.92517" lon="0.59826">
        <ele>1534.41</ele>
        <time>2015-08-11T13:09:49Z</time>
      </trkpt>
      <trkpt lat="42.92526" lon="0.59823">
        <ele>1531.04</ele>
        <time>2015-08-11T13:09:57Z</time>
      </trkpt>
      <trkpt lat="42.92534" lon="0.59818">
        <ele>1528.99</ele>
        <time>2015-08-11T13:10:05Z</time>
      </trkpt>
      <trkpt lat="42.92542" lon="0.59813">
        <ele>1529.5</ele>
        <time>2015-08-11T13:10:13Z</time>
      </trkpt>
      <trkpt lat="42.92551" lon="0.59808">
        <ele>1529.55</ele>
        <time>2015-08-11T13:10:21Z</time>
      </trkpt>
      <trkpt lat="42.9256" lon="0.59805">
        <ele>1528.29</ele>
        <time>2015-08-11T13:10:28Z</time>
      </trkpt>
      <trkpt lat="42.9257" lon="0.59803">
        <ele>1525.62</ele>
        <time>2015-08-11T13:10:35Z</time>
      </trkpt>
      <trkpt lat="42.9258" lon="0.59803">
        <ele>1523.74</ele>
        <time>2015-08-11T13:10:44Z</time>
      </trkpt>
      <trkpt lat="42.92589" lon="0.59799">
        <ele>1522.85</ele>
        <time>2015-08-11T13:10:53Z</time>
      </trkpt>
      <trkpt lat="42.92598" lon="0.59795">
        <ele>1523.15</ele>
        <time>2015-08-11T13:11:04Z</time>
      </trkpt>
      <trkpt lat="42.92607" lon="0.59793">
        <ele>1526.2</ele>
        <time>2015-08-11T13:11:12Z</time>
      </trkpt>
      <trkpt lat="42.92616" lon="0.59787">
        <ele>1525.91</ele>
        <time>2015-08-11T13:11:21Z</time>
      </trkpt>
      <trkpt lat="42.92624" lon="0.59783">
        <ele>1523</ele>
        <time>2015-08-11T13:11:29Z</time>
      </trkpt>
      <trkpt lat="42.92632" lon="0.59776">
        <ele>1519.62</ele>
        <time>2015-08-11T13:11:35Z</time>
      </trkpt>
      <trkpt lat="42.9264" lon="0.59768">
        <ele>1520.7</ele>
        <time>2015-08-11T13:11:44Z</time>
      </trkpt>
      <trkpt lat="42.92647" lon="0.59761">
        <ele>1522.36</ele>
        <time>2015-08-11T13:11:55Z</time>
      </trkpt>
      <trkpt lat="42.92656" lon="0.59759">
        <ele>1524.18</ele>
        <time>2015-08-11T13:12:04Z</time>
      </trkpt>
      <trkpt lat="42.92664" lon="0.59753">
        <ele>1523.68</ele>
        <time>2015-08-11T13:12:12Z</time>
      </trkpt>
      <trkpt lat="42.92673" lon="0.59749">
        <ele>1523.51</ele>
        <time>2015-08-11T13:12:19Z</time>
      </trkpt>
      <trkpt lat="42.92682" lon="0.59744">
        <ele>1526.89</ele>
        <time>2015-08-11T13:12:28Z</time>
      </trkpt>
      <trkpt lat="42.9269" lon="0.59741">
        <ele>1526.46</ele>
        <time>2015-08-11T13:12:37Z</time>
      </trkpt>
      <trkpt lat="42.92699" lon="0.59735">
        <ele>1523.71</ele>
        <time>2015-08-11T13:12:44Z</time>
      </trkpt>
      <trkpt lat="42.92708" lon="0.59732">
        <ele>1531.29</ele>
        <time>2015-08-11T13:12:56Z</time>
      </trkpt>
      <trkpt lat="42.92717" lon="0.59727">
        <ele>1530.3</ele>
        <time>2015-08-11T13:13:05Z</time>
      </trkpt>
      <trkpt lat="42.92726" lon="0.59724">
        <ele>1528.58</ele>
        <time>2015-08-11T13:13:13Z</time>
      </trkpt>
      <trkpt lat="42.92736" lon="0.59726">
        <ele>1527.75</ele>
        <time>2015-08-11T13:13:23Z</time>
      </trkpt>
      <trkpt lat="42.92745" lon="0.5972">
        <ele>1526.79</ele>
        <time>2015-08-11T13:13:32Z</time>
      </trkpt>
      <trkpt lat="42.92754" lon="0.59715">
        <ele>1523.29</ele>
        <time>2015-08-11T13:13:39Z</time>
      </trkpt>
      <trkpt lat="42.92764" lon="0.59713">
        <ele>1517.83</ele>
        <time>2015-08-11T13:13:46Z</time>
      </trkpt>
      <trkpt lat="42.92773" lon="0.59708">
        <ele>1517.73</ele>
        <time>2015-08-11T13:13:53Z</time>
      </trkpt>
      <trkpt lat="42.92781" lon="0.597">
        <ele>1518.04</ele>
        <time>2015-08-11T13:14:02Z</time>
      </trkpt>
      <trkpt lat="42.92788" lon="0.59692">
        <ele>1516.07</ele>
        <time>2015-08-11T13:14:10Z</time>
      </trkpt>
      <trkpt lat="42.92792" lon="0.59681">
        <ele>1517.58</ele>
        <time>2015-08-11T13:14:17Z</time>
      </trkpt>
      <trkpt lat="42.928" lon="0.59672">
        <ele>1517.46</ele>
        <time>2015-08-11T13:14:24Z</time>
      </trkpt>
      <trkpt lat="42.92807" lon="0.59663">
        <ele>1521.07</ele>
        <time>2015-08-11T13:14:32Z</time>
      </trkpt>
      <trkpt lat="42.92815" lon="0.59656">
        <ele>1520.88</ele>
        <time>2015-08-11T13:14:41Z</time>
      </trkpt>
      <trkpt lat="42.92823" lon="0.59649">
        <ele>1525.48</ele>
        <time>2015-08-11T13:14:49Z</time>
      </trkpt>
      <trkpt lat="42.92828" lon="0.59638">
        <ele>1527.58</ele>
        <time>2015-08-11T13:14:57Z</time>
      </trkpt>
      <trkpt lat="42.92837" lon="0.59632">
        <ele>1528.41</ele>
        <time>2015-08-11T13:15:07Z</time>
      </trkpt>
      <trkpt lat="42.92845" lon="0.59623">
        <ele>1523.3</ele>
        <time>2015-08-11T13:15:15Z</time>
      </trkpt>
      <trkpt lat="42.92851" lon="0.59614">
        <ele>1522.52</ele>
        <time>2015-08-11T13:15:24Z</time>
      </trkpt>
      <trkpt lat="42.92859" lon="0.59609">
        <ele>1523.33</ele>
        <time>2015-08-11T13:15:33Z</time>
      </trkpt>
      <trkpt lat="42.92869" lon="0.59607">
        <ele>1518.17</ele>
        <time>2015-08-11T13:15:41Z</time>
      </trkpt>
      <trkpt lat="42.92873" lon="0.59596">
        <ele>1515.35</ele>
        <time>2015-08-11T13:16:30Z</time>
      </trkpt>
      <trkpt lat="42.92876" lon="0.59584">
        <ele>1512.25</ele>
        <time>2015-08-11T13:17:27Z</time>
      </trkpt>
      <trkpt lat="42.92869" lon="0.59575">
        <ele>1512.27</ele>
        <time>2015-08-11T13:22:38Z</time>
      </trkpt>
      <trkpt lat="42.9286" lon="0.59577">
        <ele>1510.26</ele>
        <time>2015-08-11T13:22:46Z</time>
      </trkpt>
      <trkpt lat="42.9285" lon="0.59577">
        <ele>1510.8</ele>
        <time>2015-08-11T13:22:52Z</time>
      </trkpt>
      <trkpt lat="42.92841" lon="0.5958">
        <ele>1510.99</ele>
        <time>2015-08-11T13:23:01Z</time>
      </trkpt>
      <trkpt lat="42.92832" lon="0.59581">
        <ele>1512.27</ele>
        <time>2015-08-11T13:23:11Z</time>
      </trkpt>
      <trkpt lat="42.92822" lon="0.5958">
        <ele>1513.09</ele>
        <time>2015-08-11T13:23:20Z</time>
      </trkpt>
      <trkpt lat="42.92813" lon="0.59578">
        <ele>1510.24</ele>
        <time>2015-08-11T13:23:29Z</time>
      </trkpt>
      <trkpt lat="42.92804" lon="0.5958">
        <ele>1506.04</ele>
        <time>2015-08-11T13:23:38Z</time>
      </trkpt>
      <trkpt lat="42.92795" lon="0.59584">
        <ele>1505.91</ele>
        <time>2015-08-11T13:23:49Z</time>
      </trkpt>
      <trkpt lat="42.92786" lon="0.59589">
        <ele>1500.32</ele>
        <time>2015-08-11T13:23:58Z</time>
      </trkpt>
      <trkpt lat="42.92778" lon="0.59593">
        <ele>1496.9</ele>
        <time>2015-08-11T13:24:09Z</time>
      </trkpt>
      <trkpt lat="42.92768" lon="0.59591">
        <ele>1501.76</ele>
        <time>2015-08-11T13:24:17Z</time>
      </trkpt>
      <trkpt lat="42.9276" lon="0.59598">
        <ele>1496.65</ele>
        <time>2015-08-11T13:24:28Z</time>
      </trkpt>
      <trkpt lat="42.9275" lon="0.59599">
        <ele>1499.59</ele>
        <time>2015-08-11T13:24:40Z</time>
      </trkpt>
      <trkpt lat="42.92742" lon="0.59607">
        <ele>1497.58</ele>
        <time>2015-08-11T13:24:48Z</time>
      </trkpt>
      <trkpt lat="42.92735" lon="0.59615">
        <ele>1495.96</ele>
        <time>2015-08-11T13:25:01Z</time>
      </trkpt>
      <trkpt lat="42.92726" lon="0.5961">
        <ele>1493.21</ele>
        <time>2015-08-11T13:25:14Z</time>
      </trkpt>
      <trkpt lat="42.92717" lon="0.59612">
        <ele>1489.93</ele>
        <time>2015-08-11T13:25:35Z</time>
      </trkpt>
      <trkpt lat="42.92707" lon="0.59618">
        <ele>1487.32</ele>
        <time>2015-08-11T13:25:44Z</time>
      </trkpt>
      <trkpt lat="42.92697" lon="0.59616">
        <ele>1486.22</ele>
        <time>2015-08-11T13:25:52Z</time>
      </trkpt>
      <trkpt lat="42.92687" lon="0.59615">
        <ele>1486.84</ele>
        <time>2015-08-11T13:25:58Z</time>
      </trkpt>
      <trkpt lat="42.92679" lon="0.59613">
        <ele>1486.37</ele>
        <time>2015-08-11T13:26:06Z</time>
      </trkpt>
      <trkpt lat="42.92669" lon="0.59611">
        <ele>1489.11</ele>
        <time>2015-08-11T13:26:21Z</time>
      </trkpt>
      <trkpt lat="42.9266" lon="0.59615">
        <ele>1485.45</ele>
        <time>2015-08-11T13:26:29Z</time>
      </trkpt>
      <trkpt lat="42.92649" lon="0.59616">
        <ele>1484.76</ele>
        <time>2015-08-11T13:26:42Z</time>
      </trkpt>
      <trkpt lat="42.9264" lon="0.59614">
        <ele>1484.02</ele>
        <time>2015-08-11T13:26:48Z</time>
      </trkpt>
      <trkpt lat="42.92631" lon="0.59616">
        <ele>1480.83</ele>
        <time>2015-08-11T13:26:58Z</time>
      </trkpt>
      <trkpt lat="42.92622" lon="0.5962">
        <ele>1473.41</ele>
        <time>2015-08-11T13:27:18Z</time>
      </trkpt>
      <trkpt lat="42.92613" lon="0.59614">
        <ele>1475.07</ele>
        <time>2015-08-11T13:27:32Z</time>
      </trkpt>
      <trkpt lat="42.92604" lon="0.59608">
        <ele>1475.31</ele>
        <time>2015-08-11T13:27:42Z</time>
      </trkpt>
      <trkpt lat="42.92595" lon="0.59609">
        <ele>1474.05</ele>
        <time>2015-08-11T13:27:47Z</time>
      </trkpt>
      <trkpt lat="42.92585" lon="0.59609">
        <ele>1471.58</ele>
        <time>2015-08-11T13:27:59Z</time>
      </trkpt>
      <trkpt lat="42.92576" lon="0.59609">
        <ele>1469.29</ele>
        <time>2015-08-11T13:28:09Z</time>
      </trkpt>
      <trkpt lat="42.92568" lon="0.59601">
        <ele>1469.55</ele>
        <time>2015-08-11T13:28:20Z</time>
      </trkpt>
      <trkpt lat="42.92559" lon="0.59597">
        <ele>1468.41</ele>
        <time>2015-08-11T13:28:29Z</time>
      </trkpt>
      <trkpt lat="42.9255" lon="0.59594">
        <ele>1463.31</ele>
        <time>2015-08-11T13:28:39Z</time>
      </trkpt>
      <trkpt lat="42.92546" lon="0.59582">
        <ele>1462.21</ele>
        <time>2015-08-11T13:28:49Z</time>
      </trkpt>
      <trkpt lat="42.92538" lon="0.59576">
        <ele>1457.58</ele>
        <time>2015-08-11T13:29:01Z</time>
      </trkpt>
      <trkpt lat="42.92531" lon="0.59567">
        <ele>1457.85</ele>
        <time>2015-08-11T13:29:14Z</time>
      </trkpt>
      <trkpt lat="42.92523" lon="0.59562">
        <ele>1455.68</ele>
        <time>2015-08-11T13:29:20Z</time>
      </trkpt>
      <trkpt lat="42.92518" lon="0.59552">
        <ele>1455.32</ele>
        <time>2015-08-11T13:29:26Z</time>
      </trkpt>
      <trkpt lat="42.9251" lon="0.59543">
        <ele>1456.72</ele>
        <time>2015-08-11T13:29:33Z</time>
      </trkpt>
      <trkpt lat="42.92502" lon="0.59549">
        <ele>1451.49</ele>
        <time>2015-08-11T13:30:31Z</time>
      </trkpt>
      <trkpt lat="42.925" lon="0.59536">
        <ele>1455.52</ele>
        <time>2015-08-11T13:30:40Z</time>
      </trkpt>
      <trkpt lat="42.92497" lon="0.59524">
        <ele>1453.03</ele>
        <time>2015-08-11T13:30:52Z</time>
      </trkpt>
      <trkpt lat="42.9249" lon="0.59516">
        <ele>1450.39</ele>
        <time>2015-08-11T13:31:21Z</time>
      </trkpt>
      <trkpt lat="42.92487" lon="0.59503">
        <ele>1462.74</ele>
        <time>2015-08-11T13:32:24Z</time>
      </trkpt>
      <trkpt lat="42.92487" lon="0.5949">
        <ele>1453.49</ele>
        <time>2015-08-11T13:32:30Z</time>
      </trkpt>
      <trkpt lat="42.92485" lon="0.59477">
        <ele>1445.46</ele>
        <time>2015-08-11T13:32:37Z</time>
      </trkpt>
      <trkpt lat="42.92481" lon="0.59466">
        <ele>1441.16</ele>
        <time>2015-08-11T13:32:45Z</time>
      </trkpt>
      <trkpt lat="42.92482" lon="0.59453">
        <ele>1438.12</ele>
        <time>2015-08-11T13:32:56Z</time>
      </trkpt>
      <trkpt lat="42.92481" lon="0.5944">
        <ele>1439.16</ele>
        <time>2015-08-11T13:34:13Z</time>
      </trkpt>
      <trkpt lat="42.9248" lon="0.59427">
        <ele>1437.31</ele>
        <time>2015-08-11T13:34:24Z</time>
      </trkpt>
      <trkpt lat="42.92477" lon="0.59415">
        <ele>1436.68</ele>
        <time>2015-08-11T13:34:42Z</time>
      </trkpt>
      <trkpt lat="42.92478" lon="0.59403">
        <ele>1434.62</ele>
        <time>2015-08-11T13:34:53Z</time>
      </trkpt>
      <trkpt lat="42.92477" lon="0.5939">
        <ele>1434.89</ele>
        <time>2015-08-11T13:35:05Z</time>
      </trkpt>
      <trkpt lat="42.92477" lon="0.59378">
        <ele>1435.84</ele>
        <time>2015-08-11T13:35:15Z</time>
      </trkpt>
      <trkpt lat="42.92475" lon="0.59365">
        <ele>1435.79</ele>
        <time>2015-08-11T13:35:27Z</time>
      </trkpt>
      <trkpt lat="42.92474" lon="0.59352">
        <ele>1436.19</ele>
        <time>2015-08-11T13:35:36Z</time>
      </trkpt>
      <trkpt lat="42.92469" lon="0.59341">
        <ele>1434.52</ele>
        <time>2015-08-11T13:35:44Z</time>
      </trkpt>
      <trkpt lat="42.92465" lon="0.5933">
        <ele>1433.92</ele>
        <time>2015-08-11T13:35:54Z</time>
      </trkpt>
      <trkpt lat="42.92462" lon="0.59317">
        <ele>1431.34</ele>
        <time>2015-08-11T13:36:03Z</time>
      </trkpt>
      <trkpt lat="42.92458" lon="0.59305">
        <ele>1431.61</ele>
        <time>2015-08-11T13:36:11Z</time>
      </trkpt>
      <trkpt lat="42.92456" lon="0.59292">
        <ele>1433.69</ele>
        <time>2015-08-11T13:36:26Z</time>
      </trkpt>
      <trkpt lat="42.9246" lon="0.5928">
        <ele>1430.83</ele>
        <time>2015-08-11T13:36:38Z</time>
      </trkpt>
      <trkpt lat="42.9246" lon="0.59268">
        <ele>1429.53</ele>
        <time>2015-08-11T13:36:48Z</time>
      </trkpt>
      <trkpt lat="42.92462" lon="0.59256">
        <ele>1427.36</ele>
        <time>2015-08-11T13:36:59Z</time>
      </trkpt>
      <trkpt lat="42.92463" lon="0.59243">
        <ele>1427.26</ele>
        <time>2015-08-11T13:37:09Z</time>
      </trkpt>
      <trkpt lat="42.9246" lon="0.5923">
        <ele>1428.3</ele>
        <time>2015-08-11T13:37:18Z</time>
      </trkpt>
      <trkpt lat="42.92457" lon="0.59217">
        <ele>1428.69</ele>
        <time>2015-08-11T13:37:26Z</time>
      </trkpt>
      <trkpt lat="42.92458" lon="0.59204">
        <ele>1429.79</ele>
        <time>2015-08-11T13:37:39Z</time>
      </trkpt>
      <trkpt lat="42.9246" lon="0.59191">
        <ele>1431.07</ele>
        <time>2015-08-11T13:37:48Z</time>
      </trkpt>
      <trkpt lat="42.92458" lon="0.59179">
        <ele>1430.29</ele>
        <time>2015-08-11T13:37:59Z</time>
      </trkpt>
      <trkpt lat="42.92459" lon="0.59166">
        <ele>1436.04</ele>
        <time>2015-08-11T13:38:08Z</time>
      </trkpt>
      <trkpt lat="42.92457" lon="0.59154">
        <ele>1435.4</ele>
        <time>2015-08-11T13:38:16Z</time>
      </trkpt>
      <trkpt lat="42.92451" lon="0.59144">
        <ele>1429.75</ele>
        <time>2015-08-11T13:38:32Z</time>
      </trkpt>
      <trkpt lat="42.92444" lon="0.59135">
        <ele>1425.21</ele>
        <time>2015-08-11T13:39:51Z</time>
      </trkpt>
      <trkpt lat="42.92446" lon="0.59123">
        <ele>1425.78</ele>
        <time>2015-08-11T13:39:59Z</time>
      </trkpt>
      <trkpt lat="42.92443" lon="0.59111">
        <ele>1424.58</ele>
        <time>2015-08-11T13:40:08Z</time>
      </trkpt>
      <trkpt lat="42.92438" lon="0.59099">
        <ele>1426.19</ele>
        <time>2015-08-11T13:40:18Z</time>
      </trkpt>
      <trkpt lat="42.92438" lon="0.59086">
        <ele>1428.08</ele>
        <time>2015-08-11T13:40:29Z</time>
      </trkpt>
      <trkpt lat="42.92433" lon="0.59075">
        <ele>1425.5</ele>
        <time>2015-08-11T13:40:43Z</time>
      </trkpt>
      <trkpt lat="42.92429" lon="0.59063">
        <ele>1424.52</ele>
        <time>2015-08-11T13:40:51Z</time>
      </trkpt>
      <trkpt lat="42.92428" lon="0.59051">
        <ele>1424.83</ele>
        <time>2015-08-11T13:41:00Z</time>
      </trkpt>
      <trkpt lat="42.92424" lon="0.59039">
        <ele>1426.17</ele>
        <time>2015-08-11T13:41:15Z</time>
      </trkpt>
      <trkpt lat="42.92417" lon="0.5903">
        <ele>1419.33</ele>
        <time>2015-08-11T13:41:25Z</time>
      </trkpt>
      <trkpt lat="42.9241" lon="0.59022">
        <ele>1418.8</ele>
        <time>2015-08-11T13:41:36Z</time>
      </trkpt>
      <trkpt lat="42.92402" lon="0.59014">
        <ele>1417.07</ele>
        <time>2015-08-11T13:41:47Z</time>
      </trkpt>
      <trkpt lat="42.92395" lon="0.59005">
        <ele>1416.49</ele>
        <time>2015-08-11T13:41:55Z</time>
      </trkpt>
      <trkpt lat="42.92389" lon="0.58995">
        <ele>1414.77</ele>
        <time>2015-08-11T13:42:04Z</time>
      </trkpt>
      <trkpt lat="42.92384" lon="0.58984">
        <ele>1416.07</ele>
        <time>2015-08-11T13:42:14Z</time>
      </trkpt>
      <trkpt lat="42.92374" lon="0.58982">
        <ele>1412.41</ele>
        <time>2015-08-11T13:42:22Z</time>
      </trkpt>
      <trkpt lat="42.92367" lon="0.58974">
        <ele>1411.75</ele>
        <time>2015-08-11T13:42:31Z</time>
      </trkpt>
      <trkpt lat="42.92361" lon="0.58963">
        <ele>1411.51</ele>
        <time>2015-08-11T13:42:39Z</time>
      </trkpt>
      <trkpt lat="42.92353" lon="0.58956">
        <ele>1408.04</ele>
        <time>2015-08-11T13:42:48Z</time>
      </trkpt>
      <trkpt lat="42.92347" lon="0.58947">
        <ele>1409.66</ele>
        <time>2015-08-11T13:42:56Z</time>
      </trkpt>
      <trkpt lat="42.92341" lon="0.58937">
        <ele>1409.48</ele>
        <time>2015-08-11T13:43:06Z</time>
      </trkpt>
      <trkpt lat="42.92335" lon="0.58926">
        <ele>1410.17</ele>
        <time>2015-08-11T13:43:15Z</time>
      </trkpt>
      <trkpt lat="42.92326" lon="0.58922">
        <ele>1408.36</ele>
        <time>2015-08-11T13:43:23Z</time>
      </trkpt>
      <trkpt lat="42.92319" lon="0.58914">
        <ele>1407.05</ele>
        <time>2015-08-11T13:43:34Z</time>
      </trkpt>
      <trkpt lat="42.92311" lon="0.58908">
        <ele>1405.38</ele>
        <time>2015-08-11T13:43:43Z</time>
      </trkpt>
      <trkpt lat="42.92304" lon="0.58899">
        <ele>1403.72</ele>
        <time>2015-08-11T13:43:54Z</time>
      </trkpt>
      <trkpt lat="42.92295" lon="0.58897">
        <ele>1401.66</ele>
        <time>2015-08-11T13:46:38Z</time>
      </trkpt>
      <trkpt lat="42.92288" lon="0.58888">
        <ele>1403.57</ele>
        <time>2015-08-11T13:46:48Z</time>
      </trkpt>
      <trkpt lat="42.9228" lon="0.58881">
        <ele>1405.15</ele>
        <time>2015-08-11T13:47:04Z</time>
      </trkpt>
      <trkpt lat="42.92275" lon="0.58869">
        <ele>1406.25</ele>
        <time>2015-08-11T13:47:15Z</time>
      </trkpt>
      <trkpt lat="42.92266" lon="0.58865">
        <ele>1406.27</ele>
        <time>2015-08-11T13:47:28Z</time>
      </trkpt>
      <trkpt lat="42.92258" lon="0.58858">
        <ele>1407.05</ele>
        <time>2015-08-11T13:47:40Z</time>
      </trkpt>
      <trkpt lat="42.92252" lon="0.58849">
        <ele>1411.24</ele>
        <time>2015-08-11T13:47:53Z</time>
      </trkpt>
      <trkpt lat="42.92242" lon="0.58845">
        <ele>1411.66</ele>
        <time>2015-08-11T13:48:04Z</time>
      </trkpt>
      <trkpt lat="42.92234" lon="0.58841">
        <ele>1411.27</ele>
        <time>2015-08-11T13:48:16Z</time>
      </trkpt>
      <trkpt lat="42.92232" lon="0.58829">
        <ele>1411.44</ele>
        <time>2015-08-11T13:48:50Z</time>
      </trkpt>
      <trkpt lat="42.92228" lon="0.58817">
        <ele>1408.82</ele>
        <time>2015-08-11T13:49:00Z</time>
      </trkpt>
      <trkpt lat="42.92221" lon="0.58808">
        <ele>1403.52</ele>
        <time>2015-08-11T13:50:11Z</time>
      </trkpt>
      <trkpt lat="42.92218" lon="0.58795">
        <ele>1398.69</ele>
        <time>2015-08-11T13:50:32Z</time>
      </trkpt>
      <trkpt lat="42.92224" lon="0.58786">
        <ele>1403.78</ele>
        <time>2015-08-11T13:50:48Z</time>
      </trkpt>
      <trkpt lat="42.92227" lon="0.58775">
        <ele>1408.28</ele>
        <time>2015-08-11T13:51:20Z</time>
      </trkpt>
      <trkpt lat="42.92234" lon="0.58765">
        <ele>1409.17</ele>
        <time>2015-08-11T13:51:32Z</time>
      </trkpt>
      <trkpt lat="42.9224" lon="0.58756">
        <ele>1410.27</ele>
        <time>2015-08-11T13:51:47Z</time>
      </trkpt>
      <trkpt lat="42.92247" lon="0.58744">
        <ele>1401.55</ele>
        <time>2015-08-11T13:52:14Z</time>
      </trkpt>
      <trkpt lat="42.92252" lon="0.58733">
        <ele>1400.39</ele>
        <time>2015-08-11T13:52:31Z</time>
      </trkpt>
      <trkpt lat="42.92256" lon="0.58722">
        <ele>1400.37</ele>
        <time>2015-08-11T13:52:41Z</time>
      </trkpt>
      <trkpt lat="42.92262" lon="0.58712">
        <ele>1395.35</ele>
        <time>2015-08-11T13:52:49Z</time>
      </trkpt>
      <trkpt lat="42.92269" lon="0.58704">
        <ele>1397.65</ele>
        <time>2015-08-11T13:52:58Z</time>
      </trkpt>
      <trkpt lat="42.92277" lon="0.587">
        <ele>1397.38</ele>
        <time>2015-08-11T13:53:18Z</time>
      </trkpt>
      <trkpt lat="42.92283" lon="0.58689">
        <ele>1394.25</ele>
        <time>2015-08-11T13:53:37Z</time>
      </trkpt>
      <trkpt lat="42.92292" lon="0.58685">
        <ele>1391.02</ele>
        <time>2015-08-11T13:54:56Z</time>
      </trkpt>
      <trkpt lat="42.923" lon="0.58678">
        <ele>1393.73</ele>
        <time>2015-08-11T13:55:06Z</time>
      </trkpt>
      <trkpt lat="42.92307" lon="0.5867">
        <ele>1390.04</ele>
        <time>2015-08-11T13:55:18Z</time>
      </trkpt>
      <trkpt lat="42.92316" lon="0.58662">
        <ele>1390.5</ele>
        <time>2015-08-11T13:55:27Z</time>
      </trkpt>
      <trkpt lat="42.92323" lon="0.58654">
        <ele>1388.52</ele>
        <time>2015-08-11T13:55:46Z</time>
      </trkpt>
      <trkpt lat="42.92328" lon="0.58643">
        <ele>1384.27</ele>
        <time>2015-08-11T13:55:57Z</time>
      </trkpt>
      <trkpt lat="42.92333" lon="0.58633">
        <ele>1382.56</ele>
        <time>2015-08-11T13:56:09Z</time>
      </trkpt>
      <trkpt lat="42.92333" lon="0.5862">
        <ele>1381.52</ele>
        <time>2015-08-11T13:56:15Z</time>
      </trkpt>
      <trkpt lat="42.92332" lon="0.58608">
        <ele>1378.46</ele>
        <time>2015-08-11T13:56:22Z</time>
      </trkpt>
      <trkpt lat="42.92328" lon="0.58597">
        <ele>1377.46</ele>
        <time>2015-08-11T13:57:11Z</time>
      </trkpt>
      <trkpt lat="42.92325" lon="0.58585">
        <ele>1374.8</ele>
        <time>2015-08-11T13:57:28Z</time>
      </trkpt>
      <trkpt lat="42.92321" lon="0.58574">
        <ele>1374.03</ele>
        <time>2015-08-11T13:57:38Z</time>
      </trkpt>
      <trkpt lat="42.92316" lon="0.58562">
        <ele>1372.36</ele>
        <time>2015-08-11T13:57:48Z</time>
      </trkpt>
      <trkpt lat="42.92308" lon="0.58557">
        <ele>1370.44</ele>
        <time>2015-08-11T13:57:57Z</time>
      </trkpt>
      <trkpt lat="42.92304" lon="0.58545">
        <ele>1371.52</ele>
        <time>2015-08-11T13:58:09Z</time>
      </trkpt>
      <trkpt lat="42.92302" lon="0.58533">
        <ele>1374.21</ele>
        <time>2015-08-11T13:58:20Z</time>
      </trkpt>
      <trkpt lat="42.92295" lon="0.58523">
        <ele>1372.69</ele>
        <time>2015-08-11T13:58:29Z</time>
      </trkpt>
      <trkpt lat="42.92289" lon="0.58513">
        <ele>1372.29</ele>
        <time>2015-08-11T13:58:36Z</time>
      </trkpt>
      <trkpt lat="42.92283" lon="0.58503">
        <ele>1371.3</ele>
        <time>2015-08-11T13:58:44Z</time>
      </trkpt>
      <trkpt lat="42.92275" lon="0.58494">
        <ele>1368.87</ele>
        <time>2015-08-11T13:58:54Z</time>
      </trkpt>
      <trkpt lat="42.92268" lon="0.58485">
        <ele>1367.78</ele>
        <time>2015-08-11T13:59:01Z</time>
      </trkpt>
      <trkpt lat="42.92262" lon="0.58474">
        <ele>1367.96</ele>
        <time>2015-08-11T13:59:09Z</time>
      </trkpt>
      <trkpt lat="42.92255" lon="0.58465">
        <ele>1364.54</ele>
        <time>2015-08-11T13:59:17Z</time>
      </trkpt>
      <trkpt lat="42.92248" lon="0.58457">
        <ele>1365.64</ele>
        <time>2015-08-11T13:59:24Z</time>
      </trkpt>
      <trkpt lat="42.92241" lon="0.58448">
        <ele>1363.92</ele>
        <time>2015-08-11T13:59:32Z</time>
      </trkpt>
      <trkpt lat="42.92236" lon="0.58438">
        <ele>1363.02</ele>
        <time>2015-08-11T13:59:43Z</time>
      </trkpt>
      <trkpt lat="42.92234" lon="0.58425">
        <ele>1363.77</ele>
        <time>2015-08-11T13:59:54Z</time>
      </trkpt>
      <trkpt lat="42.92228" lon="0.58415">
        <ele>1362.07</ele>
        <time>2015-08-11T14:00:04Z</time>
      </trkpt>
      <trkpt lat="42.92219" lon="0.58409">
        <ele>1358.61</ele>
        <time>2015-08-11T14:00:14Z</time>
      </trkpt>
      <trkpt lat="42.92213" lon="0.58399">
        <ele>1359.15</ele>
        <time>2015-08-11T14:00:24Z</time>
      </trkpt>
      <trkpt lat="42.92207" lon="0.58389">
        <ele>1356.53</ele>
        <time>2015-08-11T14:00:37Z</time>
      </trkpt>
      <trkpt lat="42.92201" lon="0.58378">
        <ele>1354.41</ele>
        <time>2015-08-11T14:00:44Z</time>
      </trkpt>
      <trkpt lat="42.92194" lon="0.58368">
        <ele>1349.98</ele>
        <time>2015-08-11T14:00:54Z</time>
      </trkpt>
      <trkpt lat="42.9219" lon="0.58357">
        <ele>1348.83</ele>
        <time>2015-08-11T14:01:08Z</time>
      </trkpt>
      <trkpt lat="42.92188" lon="0.58344">
        <ele>1349.29</ele>
        <time>2015-08-11T14:01:17Z</time>
      </trkpt>
      <trkpt lat="42.92187" lon="0.58331">
        <ele>1349.15</ele>
        <time>2015-08-11T14:01:28Z</time>
      </trkpt>
      <trkpt lat="42.92185" lon="0.58319">
        <ele>1350.74</ele>
        <time>2015-08-11T14:01:43Z</time>
      </trkpt>
      <trkpt lat="42.92182" lon="0.58307">
        <ele>1351.48</ele>
        <time>2015-08-11T14:01:55Z</time>
      </trkpt>
      <trkpt lat="42.92175" lon="0.58298">
        <ele>1349.27</ele>
        <time>2015-08-11T14:02:23Z</time>
      </trkpt>
      <trkpt lat="42.92172" lon="0.58286">
        <ele>1347.35</ele>
        <time>2015-08-11T14:02:52Z</time>
      </trkpt>
      <trkpt lat="42.92171" lon="0.58274">
        <ele>1347.56</ele>
        <time>2015-08-11T14:03:08Z</time>
      </trkpt>
      <trkpt lat="42.92167" lon="0.58263">
        <ele>1346.89</ele>
        <time>2015-08-11T14:03:21Z</time>
      </trkpt>
      <trkpt lat="42.92166" lon="0.5825">
        <ele>1351.76</ele>
        <time>2015-08-11T14:03:44Z</time>
      </trkpt>
      <trkpt lat="42.92164" lon="0.58238">
        <ele>1353.09</ele>
        <time>2015-08-11T14:04:05Z</time>
      </trkpt>
      <trkpt lat="42.92161" lon="0.58225">
        <ele>1350.96</ele>
        <time>2015-08-11T14:04:16Z</time>
      </trkpt>
      <trkpt lat="42.92158" lon="0.58214">
        <ele>1353.27</ele>
        <time>2015-08-11T14:04:35Z</time>
      </trkpt>
      <trkpt lat="42.92152" lon="0.58204">
        <ele>1352.07</ele>
        <time>2015-08-11T14:04:46Z</time>
      </trkpt>
      <trkpt lat="42.92145" lon="0.58195">
        <ele>1349.9</ele>
        <time>2015-08-11T14:05:00Z</time>
      </trkpt>
      <trkpt lat="42.92137" lon="0.58189">
        <ele>1347.3</ele>
        <time>2015-08-11T14:05:11Z</time>
      </trkpt>
      <trkpt lat="42.92133" lon="0.58177">
        <ele>1345.87</ele>
        <time>2015-08-11T14:05:32Z</time>
      </trkpt>
      <trkpt lat="42.92125" lon="0.58171">
        <ele>1347.5</ele>
        <time>2015-08-11T14:05:44Z</time>
      </trkpt>
      <trkpt lat="42.92119" lon="0.58161">
        <ele>1348.22</ele>
        <time>2015-08-11T14:05:58Z</time>
      </trkpt>
      <trkpt lat="42.9211" lon="0.58155">
        <ele>1342.08</ele>
        <time>2015-08-11T14:06:52Z</time>
      </trkpt>
      <trkpt lat="42.92102" lon="0.58149">
        <ele>1340.45</ele>
        <time>2015-08-11T14:06:59Z</time>
      </trkpt>
      <trkpt lat="42.92094" lon="0.58142">
        <ele>1341.8</ele>
        <time>2015-08-11T14:07:12Z</time>
      </trkpt>
      <trkpt lat="42.92085" lon="0.58138">
        <ele>1340.27</ele>
        <time>2015-08-11T14:07:34Z</time>
      </trkpt>
      <trkpt lat="42.92077" lon="0.58144">
        <ele>1333.29</ele>
        <time>2015-08-11T14:15:29Z</time>
      </trkpt>
      <trkpt lat="42.92069" lon="0.58139">
        <ele>1340.5</ele>
        <time>2015-08-11T14:15:39Z</time>
      </trkpt>
      <trkpt lat="42.9206" lon="0.5814">
        <ele>1344.34</ele>
        <time>2015-08-11T14:15:50Z</time>
      </trkpt>
      <trkpt lat="42.92051" lon="0.58142">
        <ele>1345.57</ele>
        <time>2015-08-11T14:16:06Z</time>
      </trkpt>
      <trkpt lat="42.92042" lon="0.58149">
        <ele>1342.46</ele>
        <time>2015-08-11T14:16:16Z</time>
      </trkpt>
      <trkpt lat="42.92033" lon="0.58154">
        <ele>1340.76</ele>
        <time>2015-08-11T14:16:26Z</time>
      </trkpt>
      <trkpt lat="42.92024" lon="0.58156">
        <ele>1342.34</ele>
        <time>2015-08-11T14:16:34Z</time>
      </trkpt>
      <trkpt lat="42.92014" lon="0.58159">
        <ele>1343.75</ele>
        <time>2015-08-11T14:16:50Z</time>
      </trkpt>
      <trkpt lat="42.92005" lon="0.58159">
        <ele>1341.77</ele>
        <time>2015-08-11T14:17:01Z</time>
      </trkpt>
      <trkpt lat="42.91996" lon="0.58153">
        <ele>1345.41</ele>
        <time>2015-08-11T14:17:10Z</time>
      </trkpt>
      <trkpt lat="42.91987" lon="0.5815">
        <ele>1344.67</ele>
        <time>2015-08-11T14:17:19Z</time>
      </trkpt>
      <trkpt lat="42.91978" lon="0.58151">
        <ele>1337.44</ele>
        <time>2015-08-11T14:17:29Z</time>
      </trkpt>
      <trkpt lat="42.91968" lon="0.5815">
        <ele>1335.35</ele>
        <time>2015-08-11T14:17:41Z</time>
      </trkpt>
      <trkpt lat="42.91959" lon="0.58146">
        <ele>1335.88</ele>
        <time>2015-08-11T14:17:54Z</time>
      </trkpt>
      <trkpt lat="42.9195" lon="0.58145">
        <ele>1332.86</ele>
        <time>2015-08-11T14:18:10Z</time>
      </trkpt>
      <trkpt lat="42.9194" lon="0.58143">
        <ele>1351.72</ele>
        <time>2015-08-11T14:18:21Z</time>
      </trkpt>
      <trkpt lat="42.91931" lon="0.58143">
        <ele>1340.25</ele>
        <time>2015-08-11T14:18:29Z</time>
      </trkpt>
      <trkpt lat="42.91921" lon="0.58141">
        <ele>1333.93</ele>
        <time>2015-08-11T14:18:38Z</time>
      </trkpt>
      <trkpt lat="42.91912" lon="0.58138">
        <ele>1340.22</ele>
        <time>2015-08-11T14:18:47Z</time>
      </trkpt>
      <trkpt lat="42.91903" lon="0.5814">
        <ele>1331.05</ele>
        <time>2015-08-11T14:18:57Z</time>
      </trkpt>
      <trkpt lat="42.91893" lon="0.58139">
        <ele>1331.26</ele>
        <time>2015-08-11T14:19:07Z</time>
      </trkpt>
      <trkpt lat="42.91884" lon="0.58135">
        <ele>1330.63</ele>
        <time>2015-08-11T14:19:17Z</time>
      </trkpt>
      <trkpt lat="42.91875" lon="0.58133">
        <ele>1332.34</ele>
        <time>2015-08-11T14:19:27Z</time>
      </trkpt>
      <trkpt lat="42.91866" lon="0.58129">
        <ele>1332.55</ele>
        <time>2015-08-11T14:19:37Z</time>
      </trkpt>
      <trkpt lat="42.91856" lon="0.58129">
        <ele>1328.89</ele>
        <time>2015-08-11T14:19:46Z</time>
      </trkpt>
      <trkpt lat="42.91847" lon="0.58133">
        <ele>1328.75</ele>
        <time>2015-08-11T14:20:35Z</time>
      </trkpt>
      <trkpt lat="42.91856" lon="0.5813">
        <ele>1324.64</ele>
        <time>2015-08-11T14:21:54Z</time>
      </trkpt>
      <trkpt lat="42.91865" lon="0.58126">
        <ele>1327.98</ele>
        <time>2015-08-11T14:22:29Z</time>
      </trkpt>
      <trkpt lat="42.91873" lon="0.58119">
        <ele>1322.35</ele>
        <time>2015-08-11T14:22:34Z</time>
      </trkpt>
      <trkpt lat="42.91881" lon="0.58112">
        <ele>1319.58</ele>
        <time>2015-08-11T14:22:48Z</time>
      </trkpt>
      <trkpt lat="42.91884" lon="0.581">
        <ele>1313.23</ele>
        <time>2015-08-11T14:23:18Z</time>
      </trkpt>
      <trkpt lat="42.91882" lon="0.58088">
        <ele>1308.97</ele>
        <time>2015-08-11T14:23:42Z</time>
      </trkpt>
      <trkpt lat="42.9188" lon="0.58072">
        <ele>1305.55</ele>
        <time>2015-08-11T14:24:35Z</time>
      </trkpt>
      <trkpt lat="42.91881" lon="0.5806">
        <ele>1294.86</ele>
        <time>2015-08-11T14:24:57Z</time>
      </trkpt>
      <trkpt lat="42.91876" lon="0.58048">
        <ele>1309.13</ele>
        <time>2015-08-11T14:25:38Z</time>
      </trkpt>
      <trkpt lat="42.9187" lon="0.58038">
        <ele>1287.28</ele>
        <time>2015-08-11T14:25:55Z</time>
      </trkpt>
      <trkpt lat="42.91864" lon="0.58028">
        <ele>1280.74</ele>
        <time>2015-08-11T14:26:02Z</time>
      </trkpt>
      <trkpt lat="42.91854" lon="0.5802">
        <ele>1278.88</ele>
        <time>2015-08-11T14:26:07Z</time>
      </trkpt>
      <trkpt lat="42.91847" lon="0.58013">
        <ele>1278.29</ele>
        <time>2015-08-11T14:26:13Z</time>
      </trkpt>
      <trkpt lat="42.91838" lon="0.58009">
        <ele>1277.02</ele>
        <time>2015-08-11T14:26:23Z</time>
      </trkpt>
      <trkpt lat="42.91831" lon="0.58002">
        <ele>1278.11</ele>
        <time>2015-08-11T14:27:27Z</time>
      </trkpt>
      <trkpt lat="42.91825" lon="0.57991">
        <ele>1281.7</ele>
        <time>2015-08-11T14:27:42Z</time>
      </trkpt>
      <trkpt lat="42.91817" lon="0.57983">
        <ele>1279.66</ele>
        <time>2015-08-11T14:27:57Z</time>
      </trkpt>
      <trkpt lat="42.91809" lon="0.57977">
        <ele>1285.8</ele>
        <time>2015-08-11T14:29:07Z</time>
      </trkpt>
      <trkpt lat="42.91811" lon="0.57962">
        <ele>1285.37</ele>
        <time>2015-08-11T14:29:36Z</time>
      </trkpt>
      <trkpt lat="42.91814" lon="0.5795">
        <ele>1284.42</ele>
        <time>2015-08-11T14:29:42Z</time>
      </trkpt>
      <trkpt lat="42.91814" lon="0.57937">
        <ele>1269.14</ele>
        <time>2015-08-11T14:30:08Z</time>
      </trkpt>
      <trkpt lat="42.91822" lon="0.57931">
        <ele>1261.14</ele>
        <time>2015-08-11T14:31:03Z</time>
      </trkpt>
      <trkpt lat="42.91831" lon="0.57929">
        <ele>1256.69</ele>
        <time>2015-08-11T14:31:09Z</time>
      </trkpt>
      <trkpt lat="42.9184" lon="0.57928">
        <ele>1253.84</ele>
        <time>2015-08-11T14:31:20Z</time>
      </trkpt>
      <trkpt lat="42.9185" lon="0.57928">
        <ele>1250.46</ele>
        <time>2015-08-11T14:31:46Z</time>
      </trkpt>
      <trkpt lat="42.91859" lon="0.57921">
        <ele>1252.22</ele>
        <time>2015-08-11T14:31:56Z</time>
      </trkpt>
      <trkpt lat="42.91866" lon="0.57913">
        <ele>1251.56</ele>
        <time>2015-08-11T14:32:03Z</time>
      </trkpt>
      <trkpt lat="42.91873" lon="0.57903">
        <ele>1249.26</ele>
        <time>2015-08-11T14:32:11Z</time>
      </trkpt>
      <trkpt lat="42.91882" lon="0.57903">
        <ele>1240.14</ele>
        <time>2015-08-11T14:32:26Z</time>
      </trkpt>
      <trkpt lat="42.91887" lon="0.57893">
        <ele>1240.15</ele>
        <time>2015-08-11T14:32:59Z</time>
      </trkpt>
      <trkpt lat="42.91893" lon="0.57881">
        <ele>1244.6</ele>
        <time>2015-08-11T14:33:18Z</time>
      </trkpt>
      <trkpt lat="42.91897" lon="0.57869">
        <ele>1239.84</ele>
        <time>2015-08-11T14:33:28Z</time>
      </trkpt>
      <trkpt lat="42.919" lon="0.57857">
        <ele>1242.8</ele>
        <time>2015-08-11T14:33:36Z</time>
      </trkpt>
      <trkpt lat="42.91899" lon="0.57845">
        <ele>1242.46</ele>
        <time>2015-08-11T14:33:58Z</time>
      </trkpt>
      <trkpt lat="42.91908" lon="0.57849">
        <ele>1234.26</ele>
        <time>2015-08-11T14:35:31Z</time>
      </trkpt>
      <trkpt lat="42.91915" lon="0.57857">
        <ele>1234.79</ele>
        <time>2015-08-11T14:35:39Z</time>
      </trkpt>
      <trkpt lat="42.91923" lon="0.57862">
        <ele>1230.7</ele>
        <time>2015-08-11T14:36:23Z</time>
      </trkpt>
      <trkpt lat="42.9193" lon="0.5787">
        <ele>1230.93</ele>
        <time>2015-08-11T14:36:30Z</time>
      </trkpt>
      <trkpt lat="42.91939" lon="0.57877">
        <ele>1229.9</ele>
        <time>2015-08-11T14:36:37Z</time>
      </trkpt>
      <trkpt lat="42.91946" lon="0.57884">
        <ele>1230.57</ele>
        <time>2015-08-11T14:36:43Z</time>
      </trkpt>
      <trkpt lat="42.91954" lon="0.57892">
        <ele>1234.13</ele>
        <time>2015-08-11T14:36:49Z</time>
      </trkpt>
      <trkpt lat="42.91964" lon="0.57892">
        <ele>1234.09</ele>
        <time>2015-08-11T14:36:57Z</time>
      </trkpt>
      <trkpt lat="42.91974" lon="0.57893">
        <ele>1233.31</ele>
        <time>2015-08-11T14:37:04Z</time>
      </trkpt>
      <trkpt lat="42.91983" lon="0.57893">
        <ele>1232.14</ele>
        <time>2015-08-11T14:37:10Z</time>
      </trkpt>
      <trkpt lat="42.91993" lon="0.57892">
        <ele>1225.82</ele>
        <time>2015-08-11T14:37:20Z</time>
      </trkpt>
      <trkpt lat="42.92001" lon="0.57885">
        <ele>1226.47</ele>
        <time>2015-08-11T14:37:33Z</time>
      </trkpt>
      <trkpt lat="42.9201" lon="0.57883">
        <ele>1225.74</ele>
        <time>2015-08-11T14:40:00Z</time>
      </trkpt>
      <trkpt lat="42.9202" lon="0.57885">
        <ele>1225.85</ele>
        <time>2015-08-11T14:40:08Z</time>
      </trkpt>
      <trkpt lat="42.92031" lon="0.57885">
        <ele>1228.65</ele>
        <time>2015-08-11T14:40:15Z</time>
      </trkpt>
      <trkpt lat="42.9204" lon="0.57883">
        <ele>1229.35</ele>
        <time>2015-08-11T14:40:24Z</time>
      </trkpt>
      <trkpt lat="42.92047" lon="0.57875">
        <ele>1230.28</ele>
        <time>2015-08-11T14:40:31Z</time>
      </trkpt>
      <trkpt lat="42.92056" lon="0.57871">
        <ele>1228.74</ele>
        <time>2015-08-11T14:40:37Z</time>
      </trkpt>
      <trkpt lat="42.92065" lon="0.57866">
        <ele>1226.57</ele>
        <time>2015-08-11T14:40:43Z</time>
      </trkpt>
      <trkpt lat="42.92071" lon="0.57856">
        <ele>1225.05</ele>
        <time>2015-08-11T14:40:49Z</time>
      </trkpt>
      <trkpt lat="42.92076" lon="0.57846">
        <ele>1223.29</ele>
        <time>2015-08-11T14:40:54Z</time>
      </trkpt>
      <trkpt lat="42.92085" lon="0.57839">
        <ele>1218.05</ele>
        <time>2015-08-11T14:41:01Z</time>
      </trkpt>
      <trkpt lat="42.9209" lon="0.57828">
        <ele>1218.45</ele>
        <time>2015-08-11T14:41:09Z</time>
      </trkpt>
      <trkpt lat="42.92099" lon="0.57824">
        <ele>1216.9</ele>
        <time>2015-08-11T14:41:18Z</time>
      </trkpt>
      <trkpt lat="42.92107" lon="0.57817">
        <ele>1215.34</ele>
        <time>2015-08-11T14:41:27Z</time>
      </trkpt>
      <trkpt lat="42.92117" lon="0.57815">
        <ele>1213.51</ele>
        <time>2015-08-11T14:41:37Z</time>
      </trkpt>
      <trkpt lat="42.92126" lon="0.57817">
        <ele>1208.93</ele>
        <time>2015-08-11T14:41:51Z</time>
      </trkpt>
      <trkpt lat="42.92136" lon="0.57814">
        <ele>1207.04</ele>
        <time>2015-08-11T14:41:59Z</time>
      </trkpt>
      <trkpt lat="42.92146" lon="0.57814">
        <ele>1206.81</ele>
        <time>2015-08-11T14:42:06Z</time>
      </trkpt>
      <trkpt lat="42.92156" lon="0.57814">
        <ele>1207.36</ele>
        <time>2015-08-11T14:42:14Z</time>
      </trkpt>
      <trkpt lat="42.92165" lon="0.57814">
        <ele>1202.21</ele>
        <time>2015-08-11T14:42:22Z</time>
      </trkpt>
      <trkpt lat="42.92175" lon="0.57818">
        <ele>1192.73</ele>
        <time>2015-08-11T14:42:30Z</time>
      </trkpt>
      <trkpt lat="42.92185" lon="0.57821">
        <ele>1190.92</ele>
        <time>2015-08-11T14:42:38Z</time>
      </trkpt>
      <trkpt lat="42.92193" lon="0.57814">
        <ele>1193.89</ele>
        <time>2015-08-11T14:43:30Z</time>
      </trkpt>
      <trkpt lat="42.92202" lon="0.57814">
        <ele>1196.74</ele>
        <time>2015-08-11T14:43:55Z</time>
      </trkpt>
      <trkpt lat="42.92211" lon="0.57811">
        <ele>1194.43</ele>
        <time>2015-08-11T14:44:11Z</time>
      </trkpt>
      <trkpt lat="42.9222" lon="0.57813">
        <ele>1191.06</ele>
        <time>2015-08-11T14:44:19Z</time>
      </trkpt>
      <trkpt lat="42.9223" lon="0.57815">
        <ele>1185.52</ele>
        <time>2015-08-11T14:44:28Z</time>
      </trkpt>
      <trkpt lat="42.92236" lon="0.57825">
        <ele>1184.66</ele>
        <time>2015-08-11T14:44:37Z</time>
      </trkpt>
      <trkpt lat="42.92245" lon="0.57829">
        <ele>1192.52</ele>
        <time>2015-08-11T14:45:15Z</time>
      </trkpt>
      <trkpt lat="42.92254" lon="0.57836">
        <ele>1193.97</ele>
        <time>2015-08-11T14:45:19Z</time>
      </trkpt>
      <trkpt lat="42.9226" lon="0.57845">
        <ele>1185.03</ele>
        <time>2015-08-11T14:45:27Z</time>
      </trkpt>
      <trkpt lat="42.92269" lon="0.57848">
        <ele>1188.19</ele>
        <time>2015-08-11T14:45:38Z</time>
      </trkpt>
      <trkpt lat="42.92278" lon="0.57849">
        <ele>1193.04</ele>
        <time>2015-08-11T14:45:47Z</time>
      </trkpt>
      <trkpt lat="42.92287" lon="0.57846">
        <ele>1201.58</ele>
        <time>2015-08-11T14:46:13Z</time>
      </trkpt>
      <trkpt lat="42.92296" lon="0.57847">
        <ele>1198.69</ele>
        <time>2015-08-11T14:46:48Z</time>
      </trkpt>
      <trkpt lat="42.92301" lon="0.57836">
        <ele>1191.5</ele>
        <time>2015-08-11T14:46:58Z</time>
      </trkpt>
      <trkpt lat="42.92308" lon="0.57828">
        <ele>1189.47</ele>
        <time>2015-08-11T14:47:06Z</time>
      </trkpt>
      <trkpt lat="42.92315" lon="0.5782">
        <ele>1191.22</ele>
        <time>2015-08-11T14:47:24Z</time>
      </trkpt>
      <trkpt lat="42.92321" lon="0.5781">
        <ele>1193.95</ele>
        <time>2015-08-11T14:47:44Z</time>
      </trkpt>
      <trkpt lat="42.92322" lon="0.57797">
        <ele>1188.33</ele>
        <time>2015-08-11T14:48:01Z</time>
      </trkpt>
      <trkpt lat="42.92324" lon="0.57784">
        <ele>1183.29</ele>
        <time>2015-08-11T14:48:09Z</time>
      </trkpt>
      <trkpt lat="42.92327" lon="0.57772">
        <ele>1181.91</ele>
        <time>2015-08-11T14:48:18Z</time>
      </trkpt>
      <trkpt lat="42.92336" lon="0.57769">
        <ele>1174.41</ele>
        <time>2015-08-11T14:48:45Z</time>
      </trkpt>
      <trkpt lat="42.92345" lon="0.57765">
        <ele>1171.27</ele>
        <time>2015-08-11T14:49:12Z</time>
      </trkpt>
      <trkpt lat="42.92354" lon="0.57762">
        <ele>1171.89</ele>
        <time>2015-08-11T14:49:25Z</time>
      </trkpt>
      <trkpt lat="42.92363" lon="0.57757">
        <ele>1168.77</ele>
        <time>2015-08-11T14:49:43Z</time>
      </trkpt>
      <trkpt lat="42.9237" lon="0.57749">
        <ele>1168.04</ele>
        <time>2015-08-11T14:49:51Z</time>
      </trkpt>
      <trkpt lat="42.92377" lon="0.57741">
        <ele>1160.72</ele>
        <time>2015-08-11T14:49:57Z</time>
      </trkpt>
      <trkpt lat="42.92386" lon="0.57737">
        <ele>1159.45</ele>
        <time>2015-08-11T14:50:22Z</time>
      </trkpt>
      <trkpt lat="42.92394" lon="0.57731">
        <ele>1157.3</ele>
        <time>2015-08-11T14:50:42Z</time>
      </trkpt>
      <trkpt lat="42.92402" lon="0.57723">
        <ele>1154.92</ele>
        <time>2015-08-11T14:50:53Z</time>
      </trkpt>
      <trkpt lat="42.92411" lon="0.57717">
        <ele>1157.69</ele>
        <time>2015-08-11T14:50:58Z</time>
      </trkpt>
      <trkpt lat="42.92417" lon="0.57707">
        <ele>1158.17</ele>
        <time>2015-08-11T14:51:13Z</time>
      </trkpt>
      <trkpt lat="42.92425" lon="0.57701">
        <ele>1151.07</ele>
        <time>2015-08-11T14:51:36Z</time>
      </trkpt>
      <trkpt lat="42.92435" lon="0.57699">
        <ele>1145.73</ele>
        <time>2015-08-11T14:51:47Z</time>
      </trkpt>
      <trkpt lat="42.92444" lon="0.57693">
        <ele>1135.39</ele>
        <time>2015-08-11T14:51:56Z</time>
      </trkpt>
      <trkpt lat="42.92453" lon="0.57694">
        <ele>1130.87</ele>
        <time>2015-08-11T14:52:13Z</time>
      </trkpt>
      <trkpt lat="42.92462" lon="0.57692">
        <ele>1133.88</ele>
        <time>2015-08-11T14:52:31Z</time>
      </trkpt>
      <trkpt lat="42.92471" lon="0.57688">
        <ele>1135.49</ele>
        <time>2015-08-11T14:52:58Z</time>
      </trkpt>
      <trkpt lat="42.92481" lon="0.57688">
        <ele>1134.18</ele>
        <time>2015-08-11T14:53:07Z</time>
      </trkpt>
      <trkpt lat="42.9249" lon="0.57683">
        <ele>1135.61</ele>
        <time>2015-08-11T14:53:24Z</time>
      </trkpt>
      <trkpt lat="42.92498" lon="0.57675">
        <ele>1124.16</ele>
        <time>2015-08-11T14:53:31Z</time>
      </trkpt>
      <trkpt lat="42.92507" lon="0.57674">
        <ele>1124.12</ele>
        <time>2015-08-11T14:53:40Z</time>
      </trkpt>
      <trkpt lat="42.92513" lon="0.57663">
        <ele>1124.07</ele>
        <time>2015-08-11T14:53:48Z</time>
      </trkpt>
      <trkpt lat="42.92518" lon="0.57652">
        <ele>1125.77</ele>
        <time>2015-08-11T14:53:56Z</time>
      </trkpt>
      <trkpt lat="42.92523" lon="0.57642">
        <ele>1129.02</ele>
        <time>2015-08-11T14:56:33Z</time>
      </trkpt>
      <trkpt lat="42.92517" lon="0.57633">
        <ele>1122.27</ele>
        <time>2015-08-11T14:57:18Z</time>
      </trkpt>
      <trkpt lat="42.92513" lon="0.57618">
        <ele>1121.72</ele>
        <time>2015-08-11T14:57:35Z</time>
      </trkpt>
      <trkpt lat="42.92508" lon="0.57606">
        <ele>1124.01</ele>
        <time>2015-08-11T14:57:44Z</time>
      </trkpt>
      <trkpt lat="42.92503" lon="0.57595">
        <ele>1125.74</ele>
        <time>2015-08-11T14:57:59Z</time>
      </trkpt>
      <trkpt lat="42.92497" lon="0.57585">
        <ele>1125.21</ele>
        <time>2015-08-11T14:58:07Z</time>
      </trkpt>
      <trkpt lat="42.92493" lon="0.57573">
        <ele>1123.14</ele>
        <time>2015-08-11T14:58:20Z</time>
      </trkpt>
      <trkpt lat="42.92488" lon="0.57561">
        <ele>1122.27</ele>
        <time>2015-08-11T14:58:39Z</time>
      </trkpt>
      <trkpt lat="42.92484" lon="0.57549">
        <ele>1121.21</ele>
        <time>2015-08-11T14:58:56Z</time>
      </trkpt>
      <trkpt lat="42.9248" lon="0.57537">
        <ele>1118.02</ele>
        <time>2015-08-11T14:59:17Z</time>
      </trkpt>
      <trkpt lat="42.92477" lon="0.57525">
        <ele>1108.49</ele>
        <time>2015-08-11T14:59:34Z</time>
      </trkpt>
      <trkpt lat="42.92473" lon="0.57512">
        <ele>1104.02</ele>
        <time>2015-08-11T15:00:13Z</time>
      </trkpt>
      <trkpt lat="42.92469" lon="0.57501">
        <ele>1098.13</ele>
        <time>2015-08-11T15:00:24Z</time>
      </trkpt>
      <trkpt lat="42.92465" lon="0.57488">
        <ele>1097.25</ele>
        <time>2015-08-11T15:00:47Z</time>
      </trkpt>
      <trkpt lat="42.92472" lon="0.57478">
        <ele>1084.43</ele>
        <time>2015-08-11T15:01:45Z</time>
      </trkpt>
      <trkpt lat="42.9248" lon="0.57472">
        <ele>1079.05</ele>
        <time>2015-08-11T15:02:45Z</time>
      </trkpt>
      <trkpt lat="42.92489" lon="0.5747">
        <ele>1077.94</ele>
        <time>2015-08-11T15:02:57Z</time>
      </trkpt>
      <trkpt lat="42.92498" lon="0.57476">
        <ele>1075.34</ele>
        <time>2015-08-11T15:03:19Z</time>
      </trkpt>
      <trkpt lat="42.92507" lon="0.57478">
        <ele>1078.69</ele>
        <time>2015-08-11T15:03:30Z</time>
      </trkpt>
      <trkpt lat="42.92516" lon="0.57476">
        <ele>1076.29</ele>
        <time>2015-08-11T15:03:43Z</time>
      </trkpt>
      <trkpt lat="42.92526" lon="0.57473">
        <ele>1069.52</ele>
        <time>2015-08-11T15:04:01Z</time>
      </trkpt>
      <trkpt lat="42.92536" lon="0.57469">
        <ele>1074.85</ele>
        <time>2015-08-11T15:04:09Z</time>
      </trkpt>
      <trkpt lat="42.92545" lon="0.57468">
        <ele>1078.02</ele>
        <time>2015-08-11T15:04:20Z</time>
      </trkpt>
      <trkpt lat="42.92554" lon="0.57464">
        <ele>1075.88</ele>
        <time>2015-08-11T15:04:35Z</time>
      </trkpt>
      <trkpt lat="42.9256" lon="0.57455">
        <ele>1076.72</ele>
        <time>2015-08-11T15:04:44Z</time>
      </trkpt>
      <trkpt lat="42.92568" lon="0.57449">
        <ele>1072.25</ele>
        <time>2015-08-11T15:04:53Z</time>
      </trkpt>
      <trkpt lat="42.92578" lon="0.57446">
        <ele>1067.26</ele>
        <time>2015-08-11T15:05:22Z</time>
      </trkpt>
      <trkpt lat="42.92587" lon="0.57446">
        <ele>1071.82</ele>
        <time>2015-08-11T15:05:29Z</time>
      </trkpt>
      <trkpt lat="42.92594" lon="0.57438">
        <ele>1071.77</ele>
        <time>2015-08-11T15:05:50Z</time>
      </trkpt>
      <trkpt lat="42.92602" lon="0.5743">
        <ele>1066.07</ele>
        <time>2015-08-11T15:05:58Z</time>
      </trkpt>
      <trkpt lat="42.92611" lon="0.57424">
        <ele>1063.09</ele>
        <time>2015-08-11T15:06:04Z</time>
      </trkpt>
      <trkpt lat="42.92619" lon="0.57419">
        <ele>1060.54</ele>
        <time>2015-08-11T15:06:12Z</time>
      </trkpt>
      <trkpt lat="42.92628" lon="0.57415">
        <ele>1058.17</ele>
        <time>2015-08-11T15:06:24Z</time>
      </trkpt>
      <trkpt lat="42.92637" lon="0.57411">
        <ele>1053.73</ele>
        <time>2015-08-11T15:06:36Z</time>
      </trkpt>
      <trkpt lat="42.92646" lon="0.57406">
        <ele>1054.99</ele>
        <time>2015-08-11T15:06:49Z</time>
      </trkpt>
      <trkpt lat="42.92656" lon="0.5741">
        <ele>1053.92</ele>
        <time>2015-08-11T15:07:22Z</time>
      </trkpt>
      <trkpt lat="42.92665" lon="0.57408">
        <ele>1055.09</ele>
        <time>2015-08-11T15:07:28Z</time>
      </trkpt>
      <trkpt lat="42.92674" lon="0.57404">
        <ele>1051.33</ele>
        <time>2015-08-11T15:07:36Z</time>
      </trkpt>
      <trkpt lat="42.92683" lon="0.57402">
        <ele>1051.68</ele>
        <time>2015-08-11T15:08:24Z</time>
      </trkpt>
      <trkpt lat="42.92676" lon="0.57393">
        <ele>1047.03</ele>
        <time>2015-08-11T15:08:53Z</time>
      </trkpt>
      <trkpt lat="42.9267" lon="0.57385">
        <ele>1043.5</ele>
        <time>2015-08-11T15:09:14Z</time>
      </trkpt>
      <trkpt lat="42.92673" lon="0.57373">
        <ele>1044.76</ele>
        <time>2015-08-11T15:09:27Z</time>
      </trkpt>
      <trkpt lat="42.92674" lon="0.57361">
        <ele>1043.28</ele>
        <time>2015-08-11T15:09:44Z</time>
      </trkpt>
      <trkpt lat="42.92681" lon="0.57353">
        <ele>1036.92</ele>
        <time>2015-08-11T15:10:04Z</time>
      </trkpt>
      <trkpt lat="42.9269" lon="0.57353">
        <ele>1034.29</ele>
        <time>2015-08-11T15:10:16Z</time>
      </trkpt>
      <trkpt lat="42.927" lon="0.57356">
        <ele>1031.25</ele>
        <time>2015-08-11T15:10:30Z</time>
      </trkpt>
      <trkpt lat="42.92709" lon="0.57355">
        <ele>1028.38</ele>
        <time>2015-08-11T15:10:41Z</time>
      </trkpt>
      <trkpt lat="42.92718" lon="0.57359">
        <ele>1023.99</ele>
        <time>2015-08-11T15:10:53Z</time>
      </trkpt>
      <trkpt lat="42.92728" lon="0.5736">
        <ele>1023.59</ele>
        <time>2015-08-11T15:11:04Z</time>
      </trkpt>
      <trkpt lat="42.92737" lon="0.57364">
        <ele>1021.13</ele>
        <time>2015-08-11T15:11:14Z</time>
      </trkpt>
      <trkpt lat="42.92745" lon="0.5737">
        <ele>1020.33</ele>
        <time>2015-08-11T15:11:26Z</time>
      </trkpt>
      <trkpt lat="42.92753" lon="0.57376">
        <ele>1019.06</ele>
        <time>2015-08-11T15:11:47Z</time>
      </trkpt>
      <trkpt lat="42.92762" lon="0.5738">
        <ele>1016.53</ele>
        <time>2015-08-11T15:11:58Z</time>
      </trkpt>
      <trkpt lat="42.9277" lon="0.57387">
        <ele>1011.48</ele>
        <time>2015-08-11T15:12:10Z</time>
      </trkpt>
      <trkpt lat="42.92778" lon="0.57392">
        <ele>1011.2</ele>
        <time>2015-08-11T15:12:20Z</time>
      </trkpt>
      <trkpt lat="42.92782" lon="0.57403">
        <ele>1017.33</ele>
        <time>2015-08-11T15:12:45Z</time>
      </trkpt>
      <trkpt lat="42.92784" lon="0.57416">
        <ele>1017.71</ele>
        <time>2015-08-11T15:12:51Z</time>
      </trkpt>
      <trkpt lat="42.92785" lon="0.57429">
        <ele>1016.05</ele>
        <time>2015-08-11T15:12:58Z</time>
      </trkpt>
      <trkpt lat="42.92787" lon="0.57443">
        <ele>1014.24</ele>
        <time>2015-08-11T15:13:06Z</time>
      </trkpt>
      <trkpt lat="42.92792" lon="0.57453">
        <ele>1011.47</ele>
        <time>2015-08-11T15:13:14Z</time>
      </trkpt>
      <trkpt lat="42.92801" lon="0.5746">
        <ele>1008.14</ele>
        <time>2015-08-11T15:13:22Z</time>
      </trkpt>
      <trkpt lat="42.92811" lon="0.57459">
        <ele>1006.91</ele>
        <time>2015-08-11T15:13:31Z</time>
      </trkpt>
      <trkpt lat="42.92821" lon="0.5746">
        <ele>1010.84</ele>
        <time>2015-08-11T15:13:40Z</time>
      </trkpt>
      <trkpt lat="42.9283" lon="0.57459">
        <ele>1010.86</ele>
        <time>2015-08-11T15:13:52Z</time>
      </trkpt>
      <trkpt lat="42.92839" lon="0.57456">
        <ele>1008.72</ele>
        <time>2015-08-11T15:14:03Z</time>
      </trkpt>
      <trkpt lat="42.92848" lon="0.57452">
        <ele>1009.25</ele>
        <time>2015-08-11T15:14:17Z</time>
      </trkpt>
      <trkpt lat="42.92857" lon="0.57451">
        <ele>1001.46</ele>
        <time>2015-08-11T15:14:32Z</time>
      </trkpt>
      <trkpt lat="42.92866" lon="0.57448">
        <ele>996.78</ele>
        <time>2015-08-11T15:14:49Z</time>
      </trkpt>
      <trkpt lat="42.92874" lon="0.57442">
        <ele>993.34</ele>
        <time>2015-08-11T15:14:59Z</time>
      </trkpt>
      <trkpt lat="42.92883" lon="0.57436">
        <ele>991.89</ele>
        <time>2015-08-11T15:15:15Z</time>
      </trkpt>
      <trkpt lat="42.92891" lon="0.57431">
        <ele>991.45</ele>
        <time>2015-08-11T15:15:25Z</time>
      </trkpt>
      <trkpt lat="42.92898" lon="0.57424">
        <ele>994.23</ele>
        <time>2015-08-11T15:15:38Z</time>
      </trkpt>
      <trkpt lat="42.92906" lon="0.57417">
        <ele>991.29</ele>
        <time>2015-08-11T15:15:51Z</time>
      </trkpt>
      <trkpt lat="42.92914" lon="0.5741">
        <ele>984.77</ele>
        <time>2015-08-11T15:16:13Z</time>
      </trkpt>
      <trkpt lat="42.92923" lon="0.57406">
        <ele>984.75</ele>
        <time>2015-08-11T15:16:23Z</time>
      </trkpt>
      <trkpt lat="42.92931" lon="0.57398">
        <ele>982.05</ele>
        <time>2015-08-11T15:16:37Z</time>
      </trkpt>
      <trkpt lat="42.92938" lon="0.57391">
        <ele>981.89</ele>
        <time>2015-08-11T15:16:47Z</time>
      </trkpt>
      <trkpt lat="42.92946" lon="0.57385">
        <ele>983.39</ele>
        <time>2015-08-11T15:16:57Z</time>
      </trkpt>
      <trkpt lat="42.92954" lon="0.57378">
        <ele>981.32</ele>
        <time>2015-08-11T15:17:10Z</time>
      </trkpt>
      <trkpt lat="42.92963" lon="0.57373">
        <ele>972.49</ele>
        <time>2015-08-11T15:17:26Z</time>
      </trkpt>
      <trkpt lat="42.92969" lon="0.57363">
        <ele>966.35</ele>
        <time>2015-08-11T15:17:39Z</time>
      </trkpt>
      <trkpt lat="42.92978" lon="0.57361">
        <ele>961.37</ele>
        <time>2015-08-11T15:18:05Z</time>
      </trkpt>
      <trkpt lat="42.92987" lon="0.57364">
        <ele>950.1</ele>
        <time>2015-08-11T15:18:17Z</time>
      </trkpt>
      <trkpt lat="42.92996" lon="0.57367">
        <ele>948.71</ele>
        <time>2015-08-11T15:18:27Z</time>
      </trkpt>
      <trkpt lat="42.93006" lon="0.57365">
        <ele>953.83</ele>
        <time>2015-08-11T15:18:40Z</time>
      </trkpt>
      <trkpt lat="42.93015" lon="0.57366">
        <ele>946.06</ele>
        <time>2015-08-11T15:18:50Z</time>
      </trkpt>
      <trkpt lat="42.93025" lon="0.57368">
        <ele>944.03</ele>
        <time>2015-08-11T15:19:06Z</time>
      </trkpt>
      <trkpt lat="42.93034" lon="0.57365">
        <ele>947.3</ele>
        <time>2015-08-11T15:19:17Z</time>
      </trkpt>
      <trkpt lat="42.93044" lon="0.57367">
        <ele>944.6</ele>
        <time>2015-08-11T15:19:25Z</time>
      </trkpt>
      <trkpt lat="42.93053" lon="0.57369">
        <ele>944.01</ele>
        <time>2015-08-11T15:19:33Z</time>
      </trkpt>
      <trkpt lat="42.93063" lon="0.57369">
        <ele>943.4</ele>
        <time>2015-08-11T15:19:42Z</time>
      </trkpt>
      <trkpt lat="42.93071" lon="0.57373">
        <ele>940.85</ele>
        <time>2015-08-11T15:19:55Z</time>
      </trkpt>
      <trkpt lat="42.93081" lon="0.57376">
        <ele>939.76</ele>
        <time>2015-08-11T15:20:08Z</time>
      </trkpt>
      <trkpt lat="42.9309" lon="0.57379">
        <ele>936.58</ele>
        <time>2015-08-11T15:20:21Z</time>
      </trkpt>
      <trkpt lat="42.93098" lon="0.57384">
        <ele>933.9</ele>
        <time>2015-08-11T15:20:33Z</time>
      </trkpt>
      <trkpt lat="42.93106" lon="0.57392">
        <ele>925.8</ele>
        <time>2015-08-11T15:20:47Z</time>
      </trkpt>
      <trkpt lat="42.93114" lon="0.57397">
        <ele>922.74</ele>
        <time>2015-08-11T15:20:55Z</time>
      </trkpt>
      <trkpt lat="42.93123" lon="0.57403">
        <ele>916.97</ele>
        <time>2015-08-11T15:21:10Z</time>
      </trkpt>
      <trkpt lat="42.93129" lon="0.57411">
        <ele>916.93</ele>
        <time>2015-08-11T15:21:22Z</time>
      </trkpt>
      <trkpt lat="42.93138" lon="0.57417">
        <ele>917.26</ele>
        <time>2015-08-11T15:21:34Z</time>
      </trkpt>
      <trkpt lat="42.93147" lon="0.57422">
        <ele>922.4</ele>
        <time>2015-08-11T15:21:45Z</time>
      </trkpt>
      <trkpt lat="42.93154" lon="0.5743">
        <ele>920.88</ele>
        <time>2015-08-11T15:21:54Z</time>
      </trkpt>
      <trkpt lat="42.93162" lon="0.57436">
        <ele>917.59</ele>
        <time>2015-08-11T15:22:06Z</time>
      </trkpt>
      <trkpt lat="42.93171" lon="0.57433">
        <ele>919.14</ele>
        <time>2015-08-11T15:22:36Z</time>
      </trkpt>
      <trkpt lat="42.9318" lon="0.57429">
        <ele>907.02</ele>
        <time>2015-08-11T15:22:43Z</time>
      </trkpt>
      <trkpt lat="42.93189" lon="0.57423">
        <ele>902.54</ele>
        <time>2015-08-11T15:22:49Z</time>
      </trkpt>
      <trkpt lat="42.93199" lon="0.57417">
        <ele>901.63</ele>
        <time>2015-08-11T15:22:55Z</time>
      </trkpt>
      <trkpt lat="42.93207" lon="0.57412">
        <ele>904.49</ele>
        <time>2015-08-11T15:23:03Z</time>
      </trkpt>
      <trkpt lat="42.93214" lon="0.57402">
        <ele>910.24</ele>
        <time>2015-08-11T15:23:12Z</time>
      </trkpt>
      <trkpt lat="42.93219" lon="0.5739">
        <ele>909.77</ele>
        <time>2015-08-11T15:24:20Z</time>
      </trkpt>
      <trkpt lat="42.93227" lon="0.57385">
        <ele>914.99</ele>
        <time>2015-08-11T15:24:33Z</time>
      </trkpt>
      <trkpt lat="42.93236" lon="0.57379">
        <ele>911.12</ele>
        <time>2015-08-11T15:24:45Z</time>
      </trkpt>
      <trkpt lat="42.93245" lon="0.57374">
        <ele>909.05</ele>
        <time>2015-08-11T15:24:55Z</time>
      </trkpt>
      <trkpt lat="42.93254" lon="0.57374">
        <ele>907.14</ele>
        <time>2015-08-11T15:25:08Z</time>
      </trkpt>
      <trkpt lat="42.93264" lon="0.57374">
        <ele>910.19</ele>
        <time>2015-08-11T15:25:17Z</time>
      </trkpt>
      <trkpt lat="42.93274" lon="0.57372">
        <ele>910.15</ele>
        <time>2015-08-11T15:25:27Z</time>
      </trkpt>
      <trkpt lat="42.93283" lon="0.57369">
        <ele>903.53</ele>
        <time>2015-08-11T15:25:39Z</time>
      </trkpt>
      <trkpt lat="42.93292" lon="0.57366">
        <ele>904.26</ele>
        <time>2015-08-11T15:25:57Z</time>
      </trkpt>
      <trkpt lat="42.93302" lon="0.57367">
        <ele>905.42</ele>
        <time>2015-08-11T15:26:06Z</time>
      </trkpt>
      <trkpt lat="42.93311" lon="0.5737">
        <ele>908.19</ele>
        <time>2015-08-11T15:26:15Z</time>
      </trkpt>
      <trkpt lat="42.9332" lon="0.57374">
        <ele>903.39</ele>
        <time>2015-08-11T15:26:27Z</time>
      </trkpt>
      <trkpt lat="42.93329" lon="0.57375">
        <ele>897.86</ele>
        <time>2015-08-11T15:26:36Z</time>
      </trkpt>
      <trkpt lat="42.93338" lon="0.57375">
        <ele>897.78</ele>
        <time>2015-08-11T15:26:44Z</time>
      </trkpt>
      <trkpt lat="42.93347" lon="0.5738">
        <ele>895.55</ele>
        <time>2015-08-11T15:26:59Z</time>
      </trkpt>
      <trkpt lat="42.93356" lon="0.57381">
        <ele>894.77</ele>
        <time>2015-08-11T15:27:42Z</time>
      </trkpt>
      <trkpt lat="42.93365" lon="0.57388">
        <ele>893.04</ele>
        <time>2015-08-11T15:27:48Z</time>
      </trkpt>
      <trkpt lat="42.93373" lon="0.57395">
        <ele>889.72</ele>
        <time>2015-08-11T15:27:54Z</time>
      </trkpt>
      <trkpt lat="42.93382" lon="0.57401">
        <ele>884.21</ele>
        <time>2015-08-11T15:28:08Z</time>
      </trkpt>
      <trkpt lat="42.93391" lon="0.57397">
        <ele>881.29</ele>
        <time>2015-08-11T15:28:18Z</time>
      </trkpt>
      <trkpt lat="42.93399" lon="0.5739">
        <ele>882.19</ele>
        <time>2015-08-11T15:28:31Z</time>
      </trkpt>
      <trkpt lat="42.93403" lon="0.57378">
        <ele>882.7</ele>
        <time>2015-08-11T15:28:45Z</time>
      </trkpt>
      <trkpt lat="42.93406" lon="0.57366">
        <ele>879.32</ele>
        <time>2015-08-11T15:28:53Z</time>
      </trkpt>
      <trkpt lat="42.93409" lon="0.57354">
        <ele>874.61</ele>
        <time>2015-08-11T15:29:10Z</time>
      </trkpt>
      <trkpt lat="42.93412" lon="0.57342">
        <ele>875.33</ele>
        <time>2015-08-11T15:29:28Z</time>
      </trkpt>
      <trkpt lat="42.93419" lon="0.57333">
        <ele>870.45</ele>
        <time>2015-08-11T15:29:35Z</time>
      </trkpt>
      <trkpt lat="42.93424" lon="0.57322">
        <ele>870.27</ele>
        <time>2015-08-11T15:29:53Z</time>
      </trkpt>
      <trkpt lat="42.93432" lon="0.57314">
        <ele>860.64</ele>
        <time>2015-08-11T15:30:10Z</time>
      </trkpt>
      <trkpt lat="42.93441" lon="0.57316">
        <ele>859.1</ele>
        <time>2015-08-11T15:30:18Z</time>
      </trkpt>
      <trkpt lat="42.93451" lon="0.57312">
        <ele>854.67</ele>
        <time>2015-08-11T15:30:27Z</time>
      </trkpt>
      <trkpt lat="42.93457" lon="0.57303">
        <ele>868.26</ele>
        <time>2015-08-11T15:30:33Z</time>
      </trkpt>
      <trkpt lat="42.93462" lon="0.57292">
        <ele>856.84</ele>
        <time>2015-08-11T15:30:41Z</time>
      </trkpt>
      <trkpt lat="42.9347" lon="0.57286">
        <ele>849.93</ele>
        <time>2015-08-11T15:31:11Z</time>
      </trkpt>
      <trkpt lat="42.93479" lon="0.57286">
        <ele>843.62</ele>
        <time>2015-08-11T15:31:20Z</time>
      </trkpt>
      <trkpt lat="42.93488" lon="0.5728">
        <ele>840.59</ele>
        <time>2015-08-11T15:31:27Z</time>
      </trkpt>
      <trkpt lat="42.93493" lon="0.5727">
        <ele>839.02</ele>
        <time>2015-08-11T15:31:34Z</time>
      </trkpt>
      <trkpt lat="42.93498" lon="0.57258">
        <ele>836.9</ele>
        <time>2015-08-11T15:31:42Z</time>
      </trkpt>
      <trkpt lat="42.93504" lon="0.57248">
        <ele>836.88</ele>
        <time>2015-08-11T15:32:02Z</time>
      </trkpt>
      <trkpt lat="42.93513" lon="0.57244">
        <ele>824.81</ele>
        <time>2015-08-11T15:32:29Z</time>
      </trkpt>
      <trkpt lat="42.93522" lon="0.57241">
        <ele>819.21</ele>
        <time>2015-08-11T15:32:48Z</time>
      </trkpt>
      <trkpt lat="42.93531" lon="0.57237">
        <ele>814.5</ele>
        <time>2015-08-11T15:32:58Z</time>
      </trkpt>
      <trkpt lat="42.93539" lon="0.5723">
        <ele>807.97</ele>
        <time>2015-08-11T15:33:10Z</time>
      </trkpt>
      <trkpt lat="42.93547" lon="0.57222">
        <ele>811.83</ele>
        <time>2015-08-11T15:33:24Z</time>
      </trkpt>
      <trkpt lat="42.93556" lon="0.57222">
        <ele>812.7</ele>
        <time>2015-08-11T15:33:34Z</time>
      </trkpt>
      <trkpt lat="42.93566" lon="0.57221">
        <ele>803.95</ele>
        <time>2015-08-11T15:34:01Z</time>
      </trkpt>
      <trkpt lat="42.93575" lon="0.57226">
        <ele>798.57</ele>
        <time>2015-08-11T15:34:08Z</time>
      </trkpt>
      <trkpt lat="42.93584" lon="0.57225">
        <ele>796.04</ele>
        <time>2015-08-11T15:34:19Z</time>
      </trkpt>
      <trkpt lat="42.93593" lon="0.57229">
        <ele>792.95</ele>
        <time>2015-08-11T15:34:41Z</time>
      </trkpt>
      <trkpt lat="42.93602" lon="0.5723">
        <ele>792.53</ele>
        <time>2015-08-11T15:34:50Z</time>
      </trkpt>
      <trkpt lat="42.93612" lon="0.57229">
        <ele>790.24</ele>
        <time>2015-08-11T15:34:57Z</time>
      </trkpt>
      <trkpt lat="42.93621" lon="0.57229">
        <ele>790.13</ele>
        <time>2015-08-11T15:35:06Z</time>
      </trkpt>
      <trkpt lat="42.9363" lon="0.57231">
        <ele>788.93</ele>
        <time>2015-08-11T15:35:15Z</time>
      </trkpt>
      <trkpt lat="42.9364" lon="0.57233">
        <ele>785.2</ele>
        <time>2015-08-11T15:35:21Z</time>
      </trkpt>
      <trkpt lat="42.93649" lon="0.57232">
        <ele>778.28</ele>
        <time>2015-08-11T15:35:33Z</time>
      </trkpt>
      <trkpt lat="42.93659" lon="0.57231">
        <ele>776.08</ele>
        <time>2015-08-11T15:35:41Z</time>
      </trkpt>
      <trkpt lat="42.93667" lon="0.57226">
        <ele>772.49</ele>
        <time>2015-08-11T15:35:49Z</time>
      </trkpt>
      <trkpt lat="42.93675" lon="0.57219">
        <ele>770.66</ele>
        <time>2015-08-11T15:35:57Z</time>
      </trkpt>
      <trkpt lat="42.93683" lon="0.57212">
        <ele>771.26</ele>
        <time>2015-08-11T15:36:03Z</time>
      </trkpt>
      <trkpt lat="42.93692" lon="0.57206">
        <ele>773</ele>
        <time>2015-08-11T15:36:09Z</time>
      </trkpt>
      <trkpt lat="42.93701" lon="0.57201">
        <ele>774.72</ele>
        <time>2015-08-11T15:36:17Z</time>
      </trkpt>
      <trkpt lat="42.93711" lon="0.57199">
        <ele>775.68</ele>
        <time>2015-08-11T15:36:26Z</time>
      </trkpt>
      <trkpt lat="42.9372" lon="0.57197">
        <ele>775.09</ele>
        <time>2015-08-11T15:36:36Z</time>
      </trkpt>
      <trkpt lat="42.9373" lon="0.57193">
        <ele>776.92</ele>
        <time>2015-08-11T15:36:48Z</time>
      </trkpt>
      <trkpt lat="42.93738" lon="0.57186">
        <ele>775.79</ele>
        <time>2015-08-11T15:36:57Z</time>
      </trkpt>
      <trkpt lat="42.93747" lon="0.57181">
        <ele>777.26</ele>
        <time>2015-08-11T15:37:07Z</time>
      </trkpt>
      <trkpt lat="42.93756" lon="0.57176">
        <ele>778.99</ele>
        <time>2015-08-11T15:37:18Z</time>
      </trkpt>
      <trkpt lat="42.93765" lon="0.5717">
        <ele>779.36</ele>
        <time>2015-08-11T15:37:29Z</time>
      </trkpt>
      <trkpt lat="42.93774" lon="0.57167">
        <ele>780.08</ele>
        <time>2015-08-11T15:37:39Z</time>
      </trkpt>
      <trkpt lat="42.93783" lon="0.57163">
        <ele>781.32</ele>
        <time>2015-08-11T15:37:50Z</time>
      </trkpt>
      <trkpt lat="42.93792" lon="0.57157">
        <ele>779.78</ele>
        <time>2015-08-11T15:37:59Z</time>
      </trkpt>
      <trkpt lat="42.938" lon="0.57149">
        <ele>780.41</ele>
        <time>2015-08-11T15:38:07Z</time>
      </trkpt>
      <trkpt lat="42.93809" lon="0.57141">
        <ele>782.15</ele>
        <time>2015-08-11T15:38:15Z</time>
      </trkpt>
      <trkpt lat="42.93817" lon="0.57135">
        <ele>787.25</ele>
        <time>2015-08-11T15:38:28Z</time>
      </trkpt>
      <trkpt lat="42.93825" lon="0.57127">
        <ele>781.46</ele>
        <time>2015-08-11T15:38:39Z</time>
      </trkpt>
      <trkpt lat="42.93834" lon="0.57125">
        <ele>782.36</ele>
        <time>2015-08-11T15:38:50Z</time>
      </trkpt>
      <trkpt lat="42.93843" lon="0.57125">
        <ele>783.66</ele>
        <time>2015-08-11T15:39:01Z</time>
      </trkpt>
      <trkpt lat="42.93852" lon="0.57122">
        <ele>786.7</ele>
        <time>2015-08-11T15:39:10Z</time>
      </trkpt>
      <trkpt lat="42.93862" lon="0.57126">
        <ele>790.48</ele>
        <time>2015-08-11T15:39:25Z</time>
      </trkpt>
      <trkpt lat="42.93871" lon="0.57128">
        <ele>789.74</ele>
        <time>2015-08-11T15:39:37Z</time>
      </trkpt>
      <trkpt lat="42.9388" lon="0.57124">
        <ele>792.72</ele>
        <time>2015-08-11T15:39:49Z</time>
      </trkpt>
      <trkpt lat="42.93889" lon="0.57121">
        <ele>793.65</ele>
        <time>2015-08-11T15:40:03Z</time>
      </trkpt>
      <trkpt lat="42.93898" lon="0.57118">
        <ele>791.41</ele>
        <time>2015-08-11T15:40:15Z</time>
      </trkpt>
      <trkpt lat="42.93907" lon="0.57122">
        <ele>806.23</ele>
        <time>2015-08-11T15:40:27Z</time>
      </trkpt>
      <trkpt lat="42.9391" lon="0.57134">
        <ele>796.04</ele>
        <time>2015-08-11T15:40:38Z</time>
      </trkpt>
      <trkpt lat="42.93915" lon="0.57145">
        <ele>794.33</ele>
        <time>2015-08-11T15:40:48Z</time>
      </trkpt>
      <trkpt lat="42.93922" lon="0.57155">
        <ele>796.23</ele>
        <time>2015-08-11T15:41:03Z</time>
      </trkpt>
      <trkpt lat="42.93927" lon="0.57166">
        <ele>797.27</ele>
        <time>2015-08-11T15:41:14Z</time>
      </trkpt>
      <trkpt lat="42.93932" lon="0.57176">
        <ele>794.43</ele>
        <time>2015-08-11T15:41:21Z</time>
      </trkpt>
      <trkpt lat="42.93937" lon="0.57187">
        <ele>790.55</ele>
        <time>2015-08-11T15:41:29Z</time>
      </trkpt>
      <trkpt lat="42.93943" lon="0.57198">
        <ele>789.28</ele>
        <time>2015-08-11T15:41:37Z</time>
      </trkpt>
      <trkpt lat="42.93949" lon="0.57209">
        <ele>790.02</ele>
        <time>2015-08-11T15:41:49Z</time>
      </trkpt>
      <trkpt lat="42.93955" lon="0.57217">
        <ele>788.64</ele>
        <time>2015-08-11T15:41:57Z</time>
      </trkpt>
    </trkseg>
  </trk>
</gpx>